<?xml version="1.0" encoding="UTF-8" standalone="no" ?>
<gpx xmlns="http://www.topografix.com/GPX/1/1" xmlns:xsi="http://www.w3.org/2001/XMLSchema-instance" xsi:schemaLocation="http://www.topografix.com/GPX/1/1 http://www.topografix.com/GPX/1/1/gpx.xsd" version="1.1" creator="VisuGPX - https://www.visugpx.com">
  <metadata>
    <name>2019-06-24 16:24:21</name>
    <desc><![CDATA[tres belle rando,sans difficultés.des vues et des paysages .. magnifiques..retour par une boucle.alain.]]></desc>
  </metadata>
  <trk>
    <name><![CDATA[2019-06-24 16:24:21]]></name>
    <trkseg>
      <trkpt lat="45.65123" lon="6.58122">
        <ele>1585.43</ele>
        <time>2019-06-24T07:26:56Z</time>
      </trkpt>
      <trkpt lat="45.65122" lon="6.58122">
        <ele>1584.72</ele>
        <time>2019-06-24T07:27:29Z</time>
      </trkpt>
      <trkpt lat="45.65122" lon="6.5812">
        <ele>1585.77</ele>
        <time>2019-06-24T07:27:48Z</time>
      </trkpt>
      <trkpt lat="45.6512" lon="6.5812">
        <ele>1585.43</ele>
        <time>2019-06-24T07:28:05Z</time>
      </trkpt>
      <trkpt lat="45.65108" lon="6.58106">
        <ele>1585.04</ele>
        <time>2019-06-24T07:28:18Z</time>
      </trkpt>
      <trkpt lat="45.65106" lon="6.58106">
        <ele>1585.19</ele>
        <time>2019-06-24T07:28:20Z</time>
      </trkpt>
      <trkpt lat="45.651" lon="6.58111">
        <ele>1584.65</ele>
        <time>2019-06-24T07:28:33Z</time>
      </trkpt>
      <trkpt lat="45.65096" lon="6.58105">
        <ele>1585.2</ele>
        <time>2019-06-24T07:28:49Z</time>
      </trkpt>
      <trkpt lat="45.65091" lon="6.58102">
        <ele>1585.11</ele>
        <time>2019-06-24T07:29:00Z</time>
      </trkpt>
      <trkpt lat="45.65093" lon="6.58096">
        <ele>1585.55</ele>
        <time>2019-06-24T07:29:13Z</time>
      </trkpt>
      <trkpt lat="45.65093" lon="6.58104">
        <ele>1585.15</ele>
        <time>2019-06-24T07:29:28Z</time>
      </trkpt>
      <trkpt lat="45.65098" lon="6.58114">
        <ele>1584.96</ele>
        <time>2019-06-24T07:29:44Z</time>
      </trkpt>
      <trkpt lat="45.65099" lon="6.58116">
        <ele>1583.96</ele>
        <time>2019-06-24T07:30:03Z</time>
      </trkpt>
      <trkpt lat="45.65099" lon="6.58116">
        <ele>1584.32</ele>
        <time>2019-06-24T07:30:40Z</time>
      </trkpt>
      <trkpt lat="45.65098" lon="6.58116">
        <ele>1584.03</ele>
        <time>2019-06-24T07:31:13Z</time>
      </trkpt>
      <trkpt lat="45.65099" lon="6.58115">
        <ele>1584.64</ele>
        <time>2019-06-24T07:31:29Z</time>
      </trkpt>
      <trkpt lat="45.65109" lon="6.58109">
        <ele>1585.43</ele>
        <time>2019-06-24T07:31:37Z</time>
      </trkpt>
      <trkpt lat="45.65114" lon="6.58106">
        <ele>1585.57</ele>
        <time>2019-06-24T07:31:41Z</time>
      </trkpt>
      <trkpt lat="45.65118" lon="6.58108">
        <ele>1586.34</ele>
        <time>2019-06-24T07:31:46Z</time>
      </trkpt>
      <trkpt lat="45.65121" lon="6.58113">
        <ele>1586.67</ele>
        <time>2019-06-24T07:31:50Z</time>
      </trkpt>
      <trkpt lat="45.65132" lon="6.58136">
        <ele>1589.19</ele>
        <time>2019-06-24T07:32:07Z</time>
      </trkpt>
      <trkpt lat="45.65135" lon="6.58151">
        <ele>1589.84</ele>
        <time>2019-06-24T07:32:22Z</time>
      </trkpt>
      <trkpt lat="45.65136" lon="6.58167">
        <ele>1590.61</ele>
        <time>2019-06-24T07:32:33Z</time>
      </trkpt>
      <trkpt lat="45.65135" lon="6.58175">
        <ele>1591.06</ele>
        <time>2019-06-24T07:32:38Z</time>
      </trkpt>
      <trkpt lat="45.65136" lon="6.58182">
        <ele>1591.65</ele>
        <time>2019-06-24T07:32:42Z</time>
      </trkpt>
      <trkpt lat="45.65138" lon="6.58202">
        <ele>1593.09</ele>
        <time>2019-06-24T07:32:56Z</time>
      </trkpt>
      <trkpt lat="45.65139" lon="6.58211">
        <ele>1593.68</ele>
        <time>2019-06-24T07:33:02Z</time>
      </trkpt>
      <trkpt lat="45.65149" lon="6.58233">
        <ele>1595.24</ele>
        <time>2019-06-24T07:33:18Z</time>
      </trkpt>
      <trkpt lat="45.65157" lon="6.58251">
        <ele>1597.07</ele>
        <time>2019-06-24T07:33:33Z</time>
      </trkpt>
      <trkpt lat="45.65161" lon="6.58279">
        <ele>1598.41</ele>
        <time>2019-06-24T07:33:51Z</time>
      </trkpt>
      <trkpt lat="45.65163" lon="6.58292">
        <ele>1599.2</ele>
        <time>2019-06-24T07:34:00Z</time>
      </trkpt>
      <trkpt lat="45.65166" lon="6.58304">
        <ele>1599.97</ele>
        <time>2019-06-24T07:34:08Z</time>
      </trkpt>
      <trkpt lat="45.65168" lon="6.58313">
        <ele>1600.81</ele>
        <time>2019-06-24T07:34:14Z</time>
      </trkpt>
      <trkpt lat="45.65171" lon="6.58321">
        <ele>1600.66</ele>
        <time>2019-06-24T07:34:25Z</time>
      </trkpt>
      <trkpt lat="45.65173" lon="6.58344">
        <ele>1602.39</ele>
        <time>2019-06-24T07:34:39Z</time>
      </trkpt>
      <trkpt lat="45.65173" lon="6.58349">
        <ele>1602.67</ele>
        <time>2019-06-24T07:34:42Z</time>
      </trkpt>
      <trkpt lat="45.65173" lon="6.58362">
        <ele>1603.58</ele>
        <time>2019-06-24T07:34:50Z</time>
      </trkpt>
      <trkpt lat="45.65172" lon="6.58368">
        <ele>1604.04</ele>
        <time>2019-06-24T07:34:54Z</time>
      </trkpt>
      <trkpt lat="45.65172" lon="6.58374">
        <ele>1604.46</ele>
        <time>2019-06-24T07:34:58Z</time>
      </trkpt>
      <trkpt lat="45.65171" lon="6.58382">
        <ele>1605.06</ele>
        <time>2019-06-24T07:35:04Z</time>
      </trkpt>
      <trkpt lat="45.65167" lon="6.58406">
        <ele>1607.1</ele>
        <time>2019-06-24T07:35:19Z</time>
      </trkpt>
      <trkpt lat="45.65165" lon="6.58415">
        <ele>1607.96</ele>
        <time>2019-06-24T07:35:27Z</time>
      </trkpt>
      <trkpt lat="45.6516" lon="6.5844">
        <ele>1610.03</ele>
        <time>2019-06-24T07:35:43Z</time>
      </trkpt>
      <trkpt lat="45.65159" lon="6.58449">
        <ele>1610.44</ele>
        <time>2019-06-24T07:36:00Z</time>
      </trkpt>
      <trkpt lat="45.65159" lon="6.58445">
        <ele>1609.51</ele>
        <time>2019-06-24T07:36:14Z</time>
      </trkpt>
      <trkpt lat="45.6516" lon="6.58445">
        <ele>1609.51</ele>
        <time>2019-06-24T07:36:56Z</time>
      </trkpt>
      <trkpt lat="45.6516" lon="6.58445">
        <ele>1609.59</ele>
        <time>2019-06-24T07:37:32Z</time>
      </trkpt>
      <trkpt lat="45.65159" lon="6.58443">
        <ele>1610.46</ele>
        <time>2019-06-24T07:37:53Z</time>
      </trkpt>
      <trkpt lat="45.65158" lon="6.58444">
        <ele>1610.31</ele>
        <time>2019-06-24T07:38:20Z</time>
      </trkpt>
      <trkpt lat="45.65158" lon="6.58445">
        <ele>1610.25</ele>
        <time>2019-06-24T07:38:56Z</time>
      </trkpt>
      <trkpt lat="45.65159" lon="6.58446">
        <ele>1610.25</ele>
        <time>2019-06-24T07:39:29Z</time>
      </trkpt>
      <trkpt lat="45.6516" lon="6.58446">
        <ele>1610.5</ele>
        <time>2019-06-24T07:39:56Z</time>
      </trkpt>
      <trkpt lat="45.65159" lon="6.58445">
        <ele>1608.3</ele>
        <time>2019-06-24T07:40:24Z</time>
      </trkpt>
      <trkpt lat="45.65157" lon="6.58443">
        <ele>1610.57</ele>
        <time>2019-06-24T07:40:45Z</time>
      </trkpt>
      <trkpt lat="45.65153" lon="6.58444">
        <ele>1610.68</ele>
        <time>2019-06-24T07:41:03Z</time>
      </trkpt>
      <trkpt lat="45.65141" lon="6.58463">
        <ele>1611.46</ele>
        <time>2019-06-24T07:41:20Z</time>
      </trkpt>
      <trkpt lat="45.65131" lon="6.5848">
        <ele>1612.59</ele>
        <time>2019-06-24T07:41:35Z</time>
      </trkpt>
      <trkpt lat="45.6512" lon="6.58499">
        <ele>1613.88</ele>
        <time>2019-06-24T07:41:51Z</time>
      </trkpt>
      <trkpt lat="45.65119" lon="6.585">
        <ele>1613.91</ele>
        <time>2019-06-24T07:41:52Z</time>
      </trkpt>
      <trkpt lat="45.65111" lon="6.58511">
        <ele>1614.97</ele>
        <time>2019-06-24T07:42:01Z</time>
      </trkpt>
      <trkpt lat="45.65101" lon="6.58532">
        <ele>1616.15</ele>
        <time>2019-06-24T07:42:16Z</time>
      </trkpt>
      <trkpt lat="45.65099" lon="6.58537">
        <ele>1616.03</ele>
        <time>2019-06-24T07:42:19Z</time>
      </trkpt>
      <trkpt lat="45.65095" lon="6.58555">
        <ele>1616.96</ele>
        <time>2019-06-24T07:42:32Z</time>
      </trkpt>
      <trkpt lat="45.65095" lon="6.58584">
        <ele>1617.84</ele>
        <time>2019-06-24T07:42:48Z</time>
      </trkpt>
      <trkpt lat="45.65092" lon="6.58615">
        <ele>1618.99</ele>
        <time>2019-06-24T07:43:08Z</time>
      </trkpt>
      <trkpt lat="45.65091" lon="6.58616">
        <ele>1619.03</ele>
        <time>2019-06-24T07:43:09Z</time>
      </trkpt>
      <trkpt lat="45.65071" lon="6.58617">
        <ele>1620.48</ele>
        <time>2019-06-24T07:43:26Z</time>
      </trkpt>
      <trkpt lat="45.65054" lon="6.58605">
        <ele>1622.35</ele>
        <time>2019-06-24T07:43:43Z</time>
      </trkpt>
      <trkpt lat="45.65038" lon="6.58596">
        <ele>1624.11</ele>
        <time>2019-06-24T07:43:59Z</time>
      </trkpt>
      <trkpt lat="45.65027" lon="6.58587">
        <ele>1625.36</ele>
        <time>2019-06-24T07:44:10Z</time>
      </trkpt>
      <trkpt lat="45.65023" lon="6.58585">
        <ele>1625.85</ele>
        <time>2019-06-24T07:44:14Z</time>
      </trkpt>
      <trkpt lat="45.65011" lon="6.58585">
        <ele>1626.93</ele>
        <time>2019-06-24T07:44:25Z</time>
      </trkpt>
      <trkpt lat="45.65009" lon="6.58586">
        <ele>1627.02</ele>
        <time>2019-06-24T07:44:27Z</time>
      </trkpt>
      <trkpt lat="45.65005" lon="6.58592">
        <ele>1627.77</ele>
        <time>2019-06-24T07:44:32Z</time>
      </trkpt>
      <trkpt lat="45.65001" lon="6.58602">
        <ele>1628.55</ele>
        <time>2019-06-24T07:44:38Z</time>
      </trkpt>
      <trkpt lat="45.64998" lon="6.58613">
        <ele>1629.26</ele>
        <time>2019-06-24T07:44:45Z</time>
      </trkpt>
      <trkpt lat="45.64997" lon="6.58618">
        <ele>1629.59</ele>
        <time>2019-06-24T07:44:48Z</time>
      </trkpt>
      <trkpt lat="45.64993" lon="6.5864">
        <ele>1630.97</ele>
        <time>2019-06-24T07:45:04Z</time>
      </trkpt>
      <trkpt lat="45.6499" lon="6.58652">
        <ele>1631.67</ele>
        <time>2019-06-24T07:45:12Z</time>
      </trkpt>
      <trkpt lat="45.64985" lon="6.58666">
        <ele>1632.66</ele>
        <time>2019-06-24T07:45:22Z</time>
      </trkpt>
      <trkpt lat="45.64981" lon="6.58672">
        <ele>1633.14</ele>
        <time>2019-06-24T07:45:27Z</time>
      </trkpt>
      <trkpt lat="45.64968" lon="6.58692">
        <ele>1634.93</ele>
        <time>2019-06-24T07:45:43Z</time>
      </trkpt>
      <trkpt lat="45.64962" lon="6.58704">
        <ele>1635.9</ele>
        <time>2019-06-24T07:45:52Z</time>
      </trkpt>
      <trkpt lat="45.6495" lon="6.58721">
        <ele>1637.22</ele>
        <time>2019-06-24T07:46:09Z</time>
      </trkpt>
      <trkpt lat="45.64929" lon="6.58728">
        <ele>1640.17</ele>
        <time>2019-06-24T07:46:28Z</time>
      </trkpt>
      <trkpt lat="45.64906" lon="6.58732">
        <ele>1642.6</ele>
        <time>2019-06-24T07:46:49Z</time>
      </trkpt>
      <trkpt lat="45.64894" lon="6.58732">
        <ele>1643.6</ele>
        <time>2019-06-24T07:47:01Z</time>
      </trkpt>
      <trkpt lat="45.64876" lon="6.5873">
        <ele>1645.19</ele>
        <time>2019-06-24T07:47:17Z</time>
      </trkpt>
      <trkpt lat="45.64863" lon="6.58726">
        <ele>1646.77</ele>
        <time>2019-06-24T07:47:31Z</time>
      </trkpt>
      <trkpt lat="45.64849" lon="6.58717">
        <ele>1648.48</ele>
        <time>2019-06-24T07:47:47Z</time>
      </trkpt>
      <trkpt lat="45.64841" lon="6.58708">
        <ele>1649.51</ele>
        <time>2019-06-24T07:47:59Z</time>
      </trkpt>
      <trkpt lat="45.64828" lon="6.58698">
        <ele>1651.09</ele>
        <time>2019-06-24T07:48:15Z</time>
      </trkpt>
      <trkpt lat="45.6481" lon="6.58689">
        <ele>1652.98</ele>
        <time>2019-06-24T07:48:33Z</time>
      </trkpt>
      <trkpt lat="45.64803" lon="6.58685">
        <ele>1653.61</ele>
        <time>2019-06-24T07:48:40Z</time>
      </trkpt>
      <trkpt lat="45.64789" lon="6.58677">
        <ele>1655.04</ele>
        <time>2019-06-24T07:48:54Z</time>
      </trkpt>
      <trkpt lat="45.64782" lon="6.5867">
        <ele>1655.67</ele>
        <time>2019-06-24T07:49:02Z</time>
      </trkpt>
      <trkpt lat="45.64778" lon="6.58667">
        <ele>1656</ele>
        <time>2019-06-24T07:49:06Z</time>
      </trkpt>
      <trkpt lat="45.64764" lon="6.58652">
        <ele>1658.13</ele>
        <time>2019-06-24T07:49:23Z</time>
      </trkpt>
      <trkpt lat="45.64747" lon="6.58644">
        <ele>1659.5</ele>
        <time>2019-06-24T07:49:40Z</time>
      </trkpt>
      <trkpt lat="45.64735" lon="6.58636">
        <ele>1660.82</ele>
        <time>2019-06-24T07:49:53Z</time>
      </trkpt>
      <trkpt lat="45.64724" lon="6.58631">
        <ele>1661.76</ele>
        <time>2019-06-24T07:50:04Z</time>
      </trkpt>
      <trkpt lat="45.64717" lon="6.58628">
        <ele>1661.92</ele>
        <time>2019-06-24T07:50:10Z</time>
      </trkpt>
      <trkpt lat="45.64696" lon="6.58618">
        <ele>1663.95</ele>
        <time>2019-06-24T07:50:30Z</time>
      </trkpt>
      <trkpt lat="45.64682" lon="6.58617">
        <ele>1664.26</ele>
        <time>2019-06-24T07:50:43Z</time>
      </trkpt>
      <trkpt lat="45.64673" lon="6.58616">
        <ele>1664.93</ele>
        <time>2019-06-24T07:50:54Z</time>
      </trkpt>
      <trkpt lat="45.6467" lon="6.58612">
        <ele>1665.08</ele>
        <time>2019-06-24T07:50:57Z</time>
      </trkpt>
      <trkpt lat="45.64665" lon="6.58593">
        <ele>1666.04</ele>
        <time>2019-06-24T07:51:08Z</time>
      </trkpt>
      <trkpt lat="45.64653" lon="6.58576">
        <ele>1666.65</ele>
        <time>2019-06-24T07:51:25Z</time>
      </trkpt>
      <trkpt lat="45.64652" lon="6.58575">
        <ele>1666.62</ele>
        <time>2019-06-24T07:51:26Z</time>
      </trkpt>
      <trkpt lat="45.64649" lon="6.58572">
        <ele>1666.91</ele>
        <time>2019-06-24T07:51:29Z</time>
      </trkpt>
      <trkpt lat="45.64647" lon="6.58569">
        <ele>1666.78</ele>
        <time>2019-06-24T07:51:31Z</time>
      </trkpt>
      <trkpt lat="45.64633" lon="6.58554">
        <ele>1667.18</ele>
        <time>2019-06-24T07:51:45Z</time>
      </trkpt>
      <trkpt lat="45.64626" lon="6.58543">
        <ele>1667.59</ele>
        <time>2019-06-24T07:51:55Z</time>
      </trkpt>
      <trkpt lat="45.64621" lon="6.58538">
        <ele>1667.66</ele>
        <time>2019-06-24T07:52:00Z</time>
      </trkpt>
      <trkpt lat="45.64617" lon="6.58535">
        <ele>1667.85</ele>
        <time>2019-06-24T07:52:04Z</time>
      </trkpt>
      <trkpt lat="45.64602" lon="6.58524">
        <ele>1668.03</ele>
        <time>2019-06-24T07:52:20Z</time>
      </trkpt>
      <trkpt lat="45.64585" lon="6.58516">
        <ele>1668.7</ele>
        <time>2019-06-24T07:52:36Z</time>
      </trkpt>
      <trkpt lat="45.64578" lon="6.58514">
        <ele>1668.79</ele>
        <time>2019-06-24T07:52:42Z</time>
      </trkpt>
      <trkpt lat="45.64562" lon="6.58507">
        <ele>1669.42</ele>
        <time>2019-06-24T07:52:57Z</time>
      </trkpt>
      <trkpt lat="45.6454" lon="6.58488">
        <ele>1670.61</ele>
        <time>2019-06-24T07:53:18Z</time>
      </trkpt>
      <trkpt lat="45.64539" lon="6.58486">
        <ele>1670.74</ele>
        <time>2019-06-24T07:53:19Z</time>
      </trkpt>
      <trkpt lat="45.64529" lon="6.5847">
        <ele>1671.71</ele>
        <time>2019-06-24T07:53:34Z</time>
      </trkpt>
      <trkpt lat="45.64528" lon="6.5847">
        <ele>1671.8</ele>
        <time>2019-06-24T07:53:35Z</time>
      </trkpt>
      <trkpt lat="45.64524" lon="6.58466">
        <ele>1672.2</ele>
        <time>2019-06-24T07:53:39Z</time>
      </trkpt>
      <trkpt lat="45.64515" lon="6.58464">
        <ele>1672.8</ele>
        <time>2019-06-24T07:53:48Z</time>
      </trkpt>
      <trkpt lat="45.64505" lon="6.58461">
        <ele>1673.11</ele>
        <time>2019-06-24T07:53:59Z</time>
      </trkpt>
      <trkpt lat="45.64498" lon="6.5846">
        <ele>1673.55</ele>
        <time>2019-06-24T07:54:05Z</time>
      </trkpt>
      <trkpt lat="45.64476" lon="6.5846">
        <ele>1673.32</ele>
        <time>2019-06-24T07:54:23Z</time>
      </trkpt>
      <trkpt lat="45.64475" lon="6.5846">
        <ele>1673.33</ele>
        <time>2019-06-24T07:54:27Z</time>
      </trkpt>
      <trkpt lat="45.64455" lon="6.58459">
        <ele>1673.03</ele>
        <time>2019-06-24T07:54:44Z</time>
      </trkpt>
      <trkpt lat="45.64441" lon="6.58463">
        <ele>1672.64</ele>
        <time>2019-06-24T07:54:58Z</time>
      </trkpt>
      <trkpt lat="45.64435" lon="6.58466">
        <ele>1672.13</ele>
        <time>2019-06-24T07:55:03Z</time>
      </trkpt>
      <trkpt lat="45.64422" lon="6.58476">
        <ele>1671.16</ele>
        <time>2019-06-24T07:55:14Z</time>
      </trkpt>
      <trkpt lat="45.64415" lon="6.58481">
        <ele>1670.63</ele>
        <time>2019-06-24T07:55:21Z</time>
      </trkpt>
      <trkpt lat="45.64397" lon="6.58504">
        <ele>1668.58</ele>
        <time>2019-06-24T07:55:43Z</time>
      </trkpt>
      <trkpt lat="45.64397" lon="6.58505">
        <ele>1668.62</ele>
        <time>2019-06-24T07:56:11Z</time>
      </trkpt>
      <trkpt lat="45.64399" lon="6.58506">
        <ele>1669.19</ele>
        <time>2019-06-24T07:56:43Z</time>
      </trkpt>
      <trkpt lat="45.64399" lon="6.58512">
        <ele>1669.86</ele>
        <time>2019-06-24T07:57:00Z</time>
      </trkpt>
      <trkpt lat="45.64398" lon="6.58511">
        <ele>1669.3</ele>
        <time>2019-06-24T07:57:25Z</time>
      </trkpt>
      <trkpt lat="45.64401" lon="6.58513">
        <ele>1671.06</ele>
        <time>2019-06-24T07:57:50Z</time>
      </trkpt>
      <trkpt lat="45.6441" lon="6.58516">
        <ele>1674.08</ele>
        <time>2019-06-24T07:58:01Z</time>
      </trkpt>
      <trkpt lat="45.64416" lon="6.58522">
        <ele>1677.5</ele>
        <time>2019-06-24T07:58:13Z</time>
      </trkpt>
      <trkpt lat="45.64415" lon="6.58525">
        <ele>1678.1</ele>
        <time>2019-06-24T07:58:16Z</time>
      </trkpt>
      <trkpt lat="45.6441" lon="6.58541">
        <ele>1681.48</ele>
        <time>2019-06-24T07:58:30Z</time>
      </trkpt>
      <trkpt lat="45.64406" lon="6.58553">
        <ele>1684.48</ele>
        <time>2019-06-24T07:58:43Z</time>
      </trkpt>
      <trkpt lat="45.644" lon="6.58565">
        <ele>1687.54</ele>
        <time>2019-06-24T07:58:57Z</time>
      </trkpt>
      <trkpt lat="45.64392" lon="6.58583">
        <ele>1690.4</ele>
        <time>2019-06-24T07:59:19Z</time>
      </trkpt>
      <trkpt lat="45.64391" lon="6.58597">
        <ele>1693.08</ele>
        <time>2019-06-24T07:59:39Z</time>
      </trkpt>
      <trkpt lat="45.64396" lon="6.58597">
        <ele>1696.16</ele>
        <time>2019-06-24T07:59:54Z</time>
      </trkpt>
      <trkpt lat="45.64407" lon="6.58602">
        <ele>1698.96</ele>
        <time>2019-06-24T08:00:11Z</time>
      </trkpt>
      <trkpt lat="45.64413" lon="6.58613">
        <ele>1702</ele>
        <time>2019-06-24T08:00:30Z</time>
      </trkpt>
      <trkpt lat="45.64407" lon="6.58629">
        <ele>1704.8</ele>
        <time>2019-06-24T08:00:50Z</time>
      </trkpt>
      <trkpt lat="45.64399" lon="6.58642">
        <ele>1707.22</ele>
        <time>2019-06-24T08:01:10Z</time>
      </trkpt>
      <trkpt lat="45.64393" lon="6.58657">
        <ele>1709.23</ele>
        <time>2019-06-24T08:01:28Z</time>
      </trkpt>
      <trkpt lat="45.6439" lon="6.58669">
        <ele>1710.98</ele>
        <time>2019-06-24T08:01:45Z</time>
      </trkpt>
      <trkpt lat="45.64387" lon="6.58688">
        <ele>1714.17</ele>
        <time>2019-06-24T08:02:05Z</time>
      </trkpt>
      <trkpt lat="45.64386" lon="6.58701">
        <ele>1717.29</ele>
        <time>2019-06-24T08:02:22Z</time>
      </trkpt>
      <trkpt lat="45.64384" lon="6.58717">
        <ele>1720.1</ele>
        <time>2019-06-24T08:02:41Z</time>
      </trkpt>
      <trkpt lat="45.64392" lon="6.58722">
        <ele>1722.4</ele>
        <time>2019-06-24T08:03:01Z</time>
      </trkpt>
      <trkpt lat="45.64389" lon="6.58735">
        <ele>1725.54</ele>
        <time>2019-06-24T08:03:18Z</time>
      </trkpt>
      <trkpt lat="45.64389" lon="6.58751">
        <ele>1728.65</ele>
        <time>2019-06-24T08:03:38Z</time>
      </trkpt>
      <trkpt lat="45.64392" lon="6.58763">
        <ele>1730.22</ele>
        <time>2019-06-24T08:04:01Z</time>
      </trkpt>
      <trkpt lat="45.64388" lon="6.5877">
        <ele>1730.56</ele>
        <time>2019-06-24T08:04:14Z</time>
      </trkpt>
      <trkpt lat="45.64377" lon="6.58774">
        <ele>1733.64</ele>
        <time>2019-06-24T08:04:32Z</time>
      </trkpt>
      <trkpt lat="45.64372" lon="6.58784">
        <ele>1735.81</ele>
        <time>2019-06-24T08:04:51Z</time>
      </trkpt>
      <trkpt lat="45.64369" lon="6.58793">
        <ele>1738.96</ele>
        <time>2019-06-24T08:05:06Z</time>
      </trkpt>
      <trkpt lat="45.6438" lon="6.58798">
        <ele>1742.01</ele>
        <time>2019-06-24T08:05:28Z</time>
      </trkpt>
      <trkpt lat="45.64387" lon="6.58812">
        <ele>1744.68</ele>
        <time>2019-06-24T08:05:47Z</time>
      </trkpt>
      <trkpt lat="45.64394" lon="6.58822">
        <ele>1747.88</ele>
        <time>2019-06-24T08:06:03Z</time>
      </trkpt>
      <trkpt lat="45.64394" lon="6.58839">
        <ele>1751.02</ele>
        <time>2019-06-24T08:06:22Z</time>
      </trkpt>
      <trkpt lat="45.64397" lon="6.58853">
        <ele>1754.26</ele>
        <time>2019-06-24T08:06:39Z</time>
      </trkpt>
      <trkpt lat="45.64398" lon="6.58861">
        <ele>1756.07</ele>
        <time>2019-06-24T08:06:58Z</time>
      </trkpt>
      <trkpt lat="45.64394" lon="6.58865">
        <ele>1757.12</ele>
        <time>2019-06-24T08:07:17Z</time>
      </trkpt>
      <trkpt lat="45.64387" lon="6.58875">
        <ele>1760.24</ele>
        <time>2019-06-24T08:07:33Z</time>
      </trkpt>
      <trkpt lat="45.64395" lon="6.58888">
        <ele>1762.9</ele>
        <time>2019-06-24T08:07:53Z</time>
      </trkpt>
      <trkpt lat="45.64397" lon="6.58898">
        <ele>1765.28</ele>
        <time>2019-06-24T08:08:06Z</time>
      </trkpt>
      <trkpt lat="45.64399" lon="6.58908">
        <ele>1768.44</ele>
        <time>2019-06-24T08:08:21Z</time>
      </trkpt>
      <trkpt lat="45.64395" lon="6.58917">
        <ele>1769.91</ele>
        <time>2019-06-24T08:08:35Z</time>
      </trkpt>
      <trkpt lat="45.64391" lon="6.58925">
        <ele>1772.92</ele>
        <time>2019-06-24T08:08:50Z</time>
      </trkpt>
      <trkpt lat="45.64386" lon="6.58939">
        <ele>1776.01</ele>
        <time>2019-06-24T08:09:07Z</time>
      </trkpt>
      <trkpt lat="45.64393" lon="6.58947">
        <ele>1778.58</ele>
        <time>2019-06-24T08:09:24Z</time>
      </trkpt>
      <trkpt lat="45.64393" lon="6.58948">
        <ele>1778.49</ele>
        <time>2019-06-24T08:09:25Z</time>
      </trkpt>
      <trkpt lat="45.644" lon="6.58962">
        <ele>1781.16</ele>
        <time>2019-06-24T08:09:44Z</time>
      </trkpt>
      <trkpt lat="45.64404" lon="6.58964">
        <ele>1780.8</ele>
        <time>2019-06-24T08:10:00Z</time>
      </trkpt>
      <trkpt lat="45.64409" lon="6.5897">
        <ele>1781.49</ele>
        <time>2019-06-24T08:10:15Z</time>
      </trkpt>
      <trkpt lat="45.64413" lon="6.5898">
        <ele>1783.38</ele>
        <time>2019-06-24T08:10:33Z</time>
      </trkpt>
      <trkpt lat="45.64421" lon="6.58986">
        <ele>1786.26</ele>
        <time>2019-06-24T08:10:52Z</time>
      </trkpt>
      <trkpt lat="45.64433" lon="6.58989">
        <ele>1788</ele>
        <time>2019-06-24T08:11:07Z</time>
      </trkpt>
      <trkpt lat="45.6444" lon="6.5899">
        <ele>1788.56</ele>
        <time>2019-06-24T08:11:21Z</time>
      </trkpt>
      <trkpt lat="45.64449" lon="6.58991">
        <ele>1791.65</ele>
        <time>2019-06-24T08:11:37Z</time>
      </trkpt>
      <trkpt lat="45.64455" lon="6.58995">
        <ele>1793.62</ele>
        <time>2019-06-24T08:11:52Z</time>
      </trkpt>
      <trkpt lat="45.64464" lon="6.58999">
        <ele>1795.34</ele>
        <time>2019-06-24T08:12:07Z</time>
      </trkpt>
      <trkpt lat="45.64469" lon="6.59003">
        <ele>1797.01</ele>
        <time>2019-06-24T08:12:26Z</time>
      </trkpt>
      <trkpt lat="45.64477" lon="6.59012">
        <ele>1800.16</ele>
        <time>2019-06-24T08:12:44Z</time>
      </trkpt>
      <trkpt lat="45.64484" lon="6.59022">
        <ele>1803.17</ele>
        <time>2019-06-24T08:13:00Z</time>
      </trkpt>
      <trkpt lat="45.64493" lon="6.59033">
        <ele>1806.26</ele>
        <time>2019-06-24T08:13:18Z</time>
      </trkpt>
      <trkpt lat="45.64499" lon="6.5905">
        <ele>1808.93</ele>
        <time>2019-06-24T08:13:38Z</time>
      </trkpt>
      <trkpt lat="45.64507" lon="6.59062">
        <ele>1811.9</ele>
        <time>2019-06-24T08:14:00Z</time>
      </trkpt>
      <trkpt lat="45.64511" lon="6.59062">
        <ele>1811.33</ele>
        <time>2019-06-24T08:14:05Z</time>
      </trkpt>
      <trkpt lat="45.64523" lon="6.59066">
        <ele>1814.45</ele>
        <time>2019-06-24T08:14:22Z</time>
      </trkpt>
      <trkpt lat="45.64534" lon="6.59071">
        <ele>1817.02</ele>
        <time>2019-06-24T08:14:41Z</time>
      </trkpt>
      <trkpt lat="45.64544" lon="6.59077">
        <ele>1820.15</ele>
        <time>2019-06-24T08:15:02Z</time>
      </trkpt>
      <trkpt lat="45.64557" lon="6.5908">
        <ele>1823.26</ele>
        <time>2019-06-24T08:15:22Z</time>
      </trkpt>
      <trkpt lat="45.6457" lon="6.59075">
        <ele>1825.86</ele>
        <time>2019-06-24T08:15:43Z</time>
      </trkpt>
      <trkpt lat="45.64581" lon="6.59074">
        <ele>1828.39</ele>
        <time>2019-06-24T08:16:00Z</time>
      </trkpt>
      <trkpt lat="45.64587" lon="6.59076">
        <ele>1829.76</ele>
        <time>2019-06-24T08:16:17Z</time>
      </trkpt>
      <trkpt lat="45.64596" lon="6.59082">
        <ele>1832.39</ele>
        <time>2019-06-24T08:16:39Z</time>
      </trkpt>
      <trkpt lat="45.64591" lon="6.5909">
        <ele>1835.33</ele>
        <time>2019-06-24T08:16:59Z</time>
      </trkpt>
      <trkpt lat="45.64583" lon="6.59095">
        <ele>1838.68</ele>
        <time>2019-06-24T08:17:19Z</time>
      </trkpt>
      <trkpt lat="45.64586" lon="6.59108">
        <ele>1841.35</ele>
        <time>2019-06-24T08:17:40Z</time>
      </trkpt>
      <trkpt lat="45.64586" lon="6.59114">
        <ele>1843.62</ele>
        <time>2019-06-24T08:17:58Z</time>
      </trkpt>
      <trkpt lat="45.64588" lon="6.59121">
        <ele>1844.95</ele>
        <time>2019-06-24T08:18:19Z</time>
      </trkpt>
      <trkpt lat="45.64589" lon="6.59121">
        <ele>1844.49</ele>
        <time>2019-06-24T08:18:45Z</time>
      </trkpt>
      <trkpt lat="45.64591" lon="6.59123">
        <ele>1844.89</ele>
        <time>2019-06-24T08:18:52Z</time>
      </trkpt>
      <trkpt lat="45.646" lon="6.59134">
        <ele>1845.81</ele>
        <time>2019-06-24T08:19:10Z</time>
      </trkpt>
      <trkpt lat="45.64606" lon="6.59144">
        <ele>1848.26</ele>
        <time>2019-06-24T08:19:26Z</time>
      </trkpt>
      <trkpt lat="45.64611" lon="6.59157">
        <ele>1851.14</ele>
        <time>2019-06-24T08:19:47Z</time>
      </trkpt>
      <trkpt lat="45.64615" lon="6.59175">
        <ele>1853.48</ele>
        <time>2019-06-24T08:20:06Z</time>
      </trkpt>
      <trkpt lat="45.64625" lon="6.59194">
        <ele>1855.28</ele>
        <time>2019-06-24T08:20:23Z</time>
      </trkpt>
      <trkpt lat="45.64626" lon="6.59206">
        <ele>1858.32</ele>
        <time>2019-06-24T08:20:39Z</time>
      </trkpt>
      <trkpt lat="45.6463" lon="6.59218">
        <ele>1859.98</ele>
        <time>2019-06-24T08:20:54Z</time>
      </trkpt>
      <trkpt lat="45.64637" lon="6.59236">
        <ele>1862.74</ele>
        <time>2019-06-24T08:21:13Z</time>
      </trkpt>
      <trkpt lat="45.64641" lon="6.59253">
        <ele>1865.74</ele>
        <time>2019-06-24T08:21:34Z</time>
      </trkpt>
      <trkpt lat="45.64639" lon="6.59255">
        <ele>1868.02</ele>
        <time>2019-06-24T08:21:51Z</time>
      </trkpt>
      <trkpt lat="45.64626" lon="6.5925">
        <ele>1870.76</ele>
        <time>2019-06-24T08:22:13Z</time>
      </trkpt>
      <trkpt lat="45.64617" lon="6.59242">
        <ele>1873.29</ele>
        <time>2019-06-24T08:22:32Z</time>
      </trkpt>
      <trkpt lat="45.64606" lon="6.59234">
        <ele>1876.02</ele>
        <time>2019-06-24T08:22:54Z</time>
      </trkpt>
      <trkpt lat="45.64602" lon="6.59239">
        <ele>1878.7</ele>
        <time>2019-06-24T08:23:12Z</time>
      </trkpt>
      <trkpt lat="45.64603" lon="6.59255">
        <ele>1881.78</ele>
        <time>2019-06-24T08:23:34Z</time>
      </trkpt>
      <trkpt lat="45.64606" lon="6.59271">
        <ele>1884.01</ele>
        <time>2019-06-24T08:23:52Z</time>
      </trkpt>
      <trkpt lat="45.64608" lon="6.59283">
        <ele>1887.06</ele>
        <time>2019-06-24T08:24:13Z</time>
      </trkpt>
      <trkpt lat="45.64609" lon="6.59295">
        <ele>1889.95</ele>
        <time>2019-06-24T08:24:33Z</time>
      </trkpt>
      <trkpt lat="45.646" lon="6.593">
        <ele>1892.97</ele>
        <time>2019-06-24T08:24:55Z</time>
      </trkpt>
      <trkpt lat="45.64589" lon="6.59297">
        <ele>1895.81</ele>
        <time>2019-06-24T08:25:15Z</time>
      </trkpt>
      <trkpt lat="45.64574" lon="6.59277">
        <ele>1898.82</ele>
        <time>2019-06-24T08:25:41Z</time>
      </trkpt>
      <trkpt lat="45.64566" lon="6.59271">
        <ele>1901.82</ele>
        <time>2019-06-24T08:25:59Z</time>
      </trkpt>
      <trkpt lat="45.64554" lon="6.59263">
        <ele>1905</ele>
        <time>2019-06-24T08:26:23Z</time>
      </trkpt>
      <trkpt lat="45.64546" lon="6.59257">
        <ele>1907.59</ele>
        <time>2019-06-24T08:26:43Z</time>
      </trkpt>
      <trkpt lat="45.64538" lon="6.59252">
        <ele>1910.63</ele>
        <time>2019-06-24T08:27:01Z</time>
      </trkpt>
      <trkpt lat="45.64523" lon="6.59246">
        <ele>1913.26</ele>
        <time>2019-06-24T08:27:23Z</time>
      </trkpt>
      <trkpt lat="45.64513" lon="6.59238">
        <ele>1916.33</ele>
        <time>2019-06-24T08:27:44Z</time>
      </trkpt>
      <trkpt lat="45.64503" lon="6.59236">
        <ele>1919.35</ele>
        <time>2019-06-24T08:28:02Z</time>
      </trkpt>
      <trkpt lat="45.64494" lon="6.59234">
        <ele>1922.71</ele>
        <time>2019-06-24T08:28:19Z</time>
      </trkpt>
      <trkpt lat="45.6448" lon="6.59239">
        <ele>1925.72</ele>
        <time>2019-06-24T08:28:42Z</time>
      </trkpt>
      <trkpt lat="45.64472" lon="6.59238">
        <ele>1927.62</ele>
        <time>2019-06-24T08:28:58Z</time>
      </trkpt>
      <trkpt lat="45.64464" lon="6.59244">
        <ele>1930.74</ele>
        <time>2019-06-24T08:29:15Z</time>
      </trkpt>
      <trkpt lat="45.64456" lon="6.5925">
        <ele>1933.92</ele>
        <time>2019-06-24T08:29:33Z</time>
      </trkpt>
      <trkpt lat="45.64447" lon="6.59256">
        <ele>1937.1</ele>
        <time>2019-06-24T08:29:52Z</time>
      </trkpt>
      <trkpt lat="45.64433" lon="6.59262">
        <ele>1940.34</ele>
        <time>2019-06-24T08:30:14Z</time>
      </trkpt>
      <trkpt lat="45.64421" lon="6.59271">
        <ele>1943.39</ele>
        <time>2019-06-24T08:30:33Z</time>
      </trkpt>
      <trkpt lat="45.64415" lon="6.59275">
        <ele>1944.8</ele>
        <time>2019-06-24T08:30:41Z</time>
      </trkpt>
      <trkpt lat="45.64402" lon="6.59287">
        <ele>1947.11</ele>
        <time>2019-06-24T08:30:59Z</time>
      </trkpt>
      <trkpt lat="45.64396" lon="6.59293">
        <ele>1948.4</ele>
        <time>2019-06-24T08:31:18Z</time>
      </trkpt>
      <trkpt lat="45.64395" lon="6.59295">
        <ele>1948.16</ele>
        <time>2019-06-24T08:31:46Z</time>
      </trkpt>
      <trkpt lat="45.64394" lon="6.59296">
        <ele>1948.5</ele>
        <time>2019-06-24T08:32:30Z</time>
      </trkpt>
      <trkpt lat="45.64392" lon="6.59296">
        <ele>1948.87</ele>
        <time>2019-06-24T08:32:45Z</time>
      </trkpt>
      <trkpt lat="45.64392" lon="6.59299">
        <ele>1949.13</ele>
        <time>2019-06-24T08:33:04Z</time>
      </trkpt>
      <trkpt lat="45.64391" lon="6.593">
        <ele>1949.29</ele>
        <time>2019-06-24T08:33:45Z</time>
      </trkpt>
      <trkpt lat="45.64391" lon="6.59299">
        <ele>1949.48</ele>
        <time>2019-06-24T08:34:24Z</time>
      </trkpt>
      <trkpt lat="45.64392" lon="6.593">
        <ele>1950.1</ele>
        <time>2019-06-24T08:35:06Z</time>
      </trkpt>
      <trkpt lat="45.64393" lon="6.593">
        <ele>1950.15</ele>
        <time>2019-06-24T08:35:37Z</time>
      </trkpt>
      <trkpt lat="45.64391" lon="6.59301">
        <ele>1950.68</ele>
        <time>2019-06-24T08:36:10Z</time>
      </trkpt>
      <trkpt lat="45.64392" lon="6.593">
        <ele>1950.88</ele>
        <time>2019-06-24T08:36:38Z</time>
      </trkpt>
      <trkpt lat="45.64391" lon="6.59298">
        <ele>1950.87</ele>
        <time>2019-06-24T08:37:22Z</time>
      </trkpt>
      <trkpt lat="45.6439" lon="6.59298">
        <ele>1951.08</ele>
        <time>2019-06-24T08:38:08Z</time>
      </trkpt>
      <trkpt lat="45.64391" lon="6.59298">
        <ele>1951.46</ele>
        <time>2019-06-24T08:38:54Z</time>
      </trkpt>
      <trkpt lat="45.64391" lon="6.59299">
        <ele>1951.68</ele>
        <time>2019-06-24T08:39:47Z</time>
      </trkpt>
      <trkpt lat="45.64392" lon="6.59298">
        <ele>1952.12</ele>
        <time>2019-06-24T08:40:42Z</time>
      </trkpt>
      <trkpt lat="45.6439" lon="6.59299">
        <ele>1952.28</ele>
        <time>2019-06-24T08:41:31Z</time>
      </trkpt>
      <trkpt lat="45.6439" lon="6.59298">
        <ele>1953.34</ele>
        <time>2019-06-24T08:42:08Z</time>
      </trkpt>
      <trkpt lat="45.64391" lon="6.59299">
        <ele>1949.15</ele>
        <time>2019-06-24T08:42:17Z</time>
      </trkpt>
      <trkpt lat="45.64391" lon="6.59299">
        <ele>1955.91</ele>
        <time>2019-06-24T08:42:18Z</time>
      </trkpt>
      <trkpt lat="45.6439" lon="6.59299">
        <ele>1954.88</ele>
        <time>2019-06-24T08:42:19Z</time>
      </trkpt>
      <trkpt lat="45.64391" lon="6.59299">
        <ele>1950.44</ele>
        <time>2019-06-24T08:42:20Z</time>
      </trkpt>
      <trkpt lat="45.6439" lon="6.59299">
        <ele>1954.58</ele>
        <time>2019-06-24T08:42:21Z</time>
      </trkpt>
      <trkpt lat="45.64387" lon="6.59306">
        <ele>1954.46</ele>
        <time>2019-06-24T08:42:40Z</time>
      </trkpt>
      <trkpt lat="45.64381" lon="6.59321">
        <ele>1955.67</ele>
        <time>2019-06-24T08:42:57Z</time>
      </trkpt>
      <trkpt lat="45.64382" lon="6.5934">
        <ele>1958.69</ele>
        <time>2019-06-24T08:43:15Z</time>
      </trkpt>
      <trkpt lat="45.64385" lon="6.59355">
        <ele>1961.81</ele>
        <time>2019-06-24T08:43:35Z</time>
      </trkpt>
      <trkpt lat="45.64397" lon="6.5936">
        <ele>1964.89</ele>
        <time>2019-06-24T08:43:56Z</time>
      </trkpt>
      <trkpt lat="45.64407" lon="6.59364">
        <ele>1968.29</ele>
        <time>2019-06-24T08:44:15Z</time>
      </trkpt>
      <trkpt lat="45.64419" lon="6.59369">
        <ele>1971.32</ele>
        <time>2019-06-24T08:44:34Z</time>
      </trkpt>
      <trkpt lat="45.64427" lon="6.59372">
        <ele>1973.69</ele>
        <time>2019-06-24T08:44:54Z</time>
      </trkpt>
      <trkpt lat="45.64438" lon="6.59377">
        <ele>1976.93</ele>
        <time>2019-06-24T08:45:14Z</time>
      </trkpt>
      <trkpt lat="45.6445" lon="6.59391">
        <ele>1979.37</ele>
        <time>2019-06-24T08:45:38Z</time>
      </trkpt>
      <trkpt lat="45.64442" lon="6.59402">
        <ele>1982.4</ele>
        <time>2019-06-24T08:45:58Z</time>
      </trkpt>
      <trkpt lat="45.64433" lon="6.59417">
        <ele>1985.36</ele>
        <time>2019-06-24T08:46:18Z</time>
      </trkpt>
      <trkpt lat="45.64437" lon="6.59427">
        <ele>1988.65</ele>
        <time>2019-06-24T08:46:41Z</time>
      </trkpt>
      <trkpt lat="45.64452" lon="6.59429">
        <ele>1990.86</ele>
        <time>2019-06-24T08:47:04Z</time>
      </trkpt>
      <trkpt lat="45.64459" lon="6.59435">
        <ele>1993.99</ele>
        <time>2019-06-24T08:47:23Z</time>
      </trkpt>
      <trkpt lat="45.64465" lon="6.59443">
        <ele>1997.18</ele>
        <time>2019-06-24T08:47:42Z</time>
      </trkpt>
      <trkpt lat="45.64465" lon="6.59445">
        <ele>1997.52</ele>
        <time>2019-06-24T08:48:08Z</time>
      </trkpt>
      <trkpt lat="45.64463" lon="6.59445">
        <ele>1997.46</ele>
        <time>2019-06-24T08:48:28Z</time>
      </trkpt>
      <trkpt lat="45.64463" lon="6.59446">
        <ele>1997.55</ele>
        <time>2019-06-24T08:48:45Z</time>
      </trkpt>
      <trkpt lat="45.64463" lon="6.59445">
        <ele>1992.19</ele>
        <time>2019-06-24T08:48:56Z</time>
      </trkpt>
      <trkpt lat="45.64463" lon="6.59445">
        <ele>1992.2</ele>
        <time>2019-06-24T08:48:57Z</time>
      </trkpt>
      <trkpt lat="45.64463" lon="6.59445">
        <ele>1997.51</ele>
        <time>2019-06-24T08:49:00Z</time>
      </trkpt>
      <trkpt lat="45.64463" lon="6.59445">
        <ele>1997.56</ele>
        <time>2019-06-24T08:49:01Z</time>
      </trkpt>
      <trkpt lat="45.64464" lon="6.59448">
        <ele>1998.45</ele>
        <time>2019-06-24T08:49:33Z</time>
      </trkpt>
      <trkpt lat="45.64461" lon="6.59449">
        <ele>1998.39</ele>
        <time>2019-06-24T08:49:48Z</time>
      </trkpt>
      <trkpt lat="45.64447" lon="6.59456">
        <ele>2000.38</ele>
        <time>2019-06-24T08:50:05Z</time>
      </trkpt>
      <trkpt lat="45.64441" lon="6.59462">
        <ele>2001.74</ele>
        <time>2019-06-24T08:50:14Z</time>
      </trkpt>
      <trkpt lat="45.64438" lon="6.59466">
        <ele>2002.2</ele>
        <time>2019-06-24T08:50:19Z</time>
      </trkpt>
      <trkpt lat="45.64428" lon="6.59475">
        <ele>2004.18</ele>
        <time>2019-06-24T08:50:31Z</time>
      </trkpt>
      <trkpt lat="45.64422" lon="6.59482">
        <ele>2005.27</ele>
        <time>2019-06-24T08:50:48Z</time>
      </trkpt>
      <trkpt lat="45.64415" lon="6.59497">
        <ele>2007.05</ele>
        <time>2019-06-24T08:51:06Z</time>
      </trkpt>
      <trkpt lat="45.64412" lon="6.59514">
        <ele>2008.86</ele>
        <time>2019-06-24T08:51:20Z</time>
      </trkpt>
      <trkpt lat="45.64407" lon="6.59531">
        <ele>2010.61</ele>
        <time>2019-06-24T08:51:36Z</time>
      </trkpt>
      <trkpt lat="45.64399" lon="6.59547">
        <ele>2012.56</ele>
        <time>2019-06-24T08:51:52Z</time>
      </trkpt>
      <trkpt lat="45.64391" lon="6.59562">
        <ele>2014.05</ele>
        <time>2019-06-24T08:52:08Z</time>
      </trkpt>
      <trkpt lat="45.6438" lon="6.59574">
        <ele>2016.34</ele>
        <time>2019-06-24T08:52:25Z</time>
      </trkpt>
      <trkpt lat="45.64369" lon="6.59591">
        <ele>2018.62</ele>
        <time>2019-06-24T08:52:45Z</time>
      </trkpt>
      <trkpt lat="45.64364" lon="6.59603">
        <ele>2020.18</ele>
        <time>2019-06-24T08:52:59Z</time>
      </trkpt>
      <trkpt lat="45.64359" lon="6.59624">
        <ele>2022.53</ele>
        <time>2019-06-24T08:53:18Z</time>
      </trkpt>
      <trkpt lat="45.64357" lon="6.59646">
        <ele>2024.76</ele>
        <time>2019-06-24T08:53:36Z</time>
      </trkpt>
      <trkpt lat="45.64362" lon="6.5965">
        <ele>2025.56</ele>
        <time>2019-06-24T08:53:45Z</time>
      </trkpt>
      <trkpt lat="45.64364" lon="6.59648">
        <ele>2025.69</ele>
        <time>2019-06-24T08:53:48Z</time>
      </trkpt>
      <trkpt lat="45.64368" lon="6.5964">
        <ele>2026.69</ele>
        <time>2019-06-24T08:53:55Z</time>
      </trkpt>
      <trkpt lat="45.64371" lon="6.59634">
        <ele>2027.67</ele>
        <time>2019-06-24T08:54:02Z</time>
      </trkpt>
      <trkpt lat="45.64386" lon="6.59624">
        <ele>2029.94</ele>
        <time>2019-06-24T08:54:21Z</time>
      </trkpt>
      <trkpt lat="45.64398" lon="6.5962">
        <ele>2032.33</ele>
        <time>2019-06-24T08:54:38Z</time>
      </trkpt>
      <trkpt lat="45.64413" lon="6.59621">
        <ele>2035.13</ele>
        <time>2019-06-24T08:54:57Z</time>
      </trkpt>
      <trkpt lat="45.64429" lon="6.59621">
        <ele>2037.69</ele>
        <time>2019-06-24T08:55:16Z</time>
      </trkpt>
      <trkpt lat="45.64442" lon="6.59623">
        <ele>2039.47</ele>
        <time>2019-06-24T08:55:31Z</time>
      </trkpt>
      <trkpt lat="45.64453" lon="6.5963">
        <ele>2042</ele>
        <time>2019-06-24T08:55:45Z</time>
      </trkpt>
      <trkpt lat="45.64461" lon="6.59638">
        <ele>2043.01</ele>
        <time>2019-06-24T08:55:54Z</time>
      </trkpt>
      <trkpt lat="45.64471" lon="6.59643">
        <ele>2043.79</ele>
        <time>2019-06-24T08:56:05Z</time>
      </trkpt>
      <trkpt lat="45.64474" lon="6.59653">
        <ele>2044.4</ele>
        <time>2019-06-24T08:56:14Z</time>
      </trkpt>
      <trkpt lat="45.64477" lon="6.59665">
        <ele>2046</ele>
        <time>2019-06-24T08:56:30Z</time>
      </trkpt>
      <trkpt lat="45.64475" lon="6.59664">
        <ele>2046.24</ele>
        <time>2019-06-24T08:56:47Z</time>
      </trkpt>
      <trkpt lat="45.64477" lon="6.59665">
        <ele>2046.42</ele>
        <time>2019-06-24T08:57:09Z</time>
      </trkpt>
      <trkpt lat="45.64475" lon="6.59679">
        <ele>2047.92</ele>
        <time>2019-06-24T08:57:19Z</time>
      </trkpt>
      <trkpt lat="45.64478" lon="6.59705">
        <ele>2047.52</ele>
        <time>2019-06-24T08:57:35Z</time>
      </trkpt>
      <trkpt lat="45.64475" lon="6.59716">
        <ele>2048.82</ele>
        <time>2019-06-24T08:57:45Z</time>
      </trkpt>
      <trkpt lat="45.64474" lon="6.5973">
        <ele>2050.51</ele>
        <time>2019-06-24T08:57:56Z</time>
      </trkpt>
      <trkpt lat="45.64473" lon="6.59734">
        <ele>2051.03</ele>
        <time>2019-06-24T08:57:59Z</time>
      </trkpt>
      <trkpt lat="45.64471" lon="6.59739">
        <ele>2051.8</ele>
        <time>2019-06-24T08:58:03Z</time>
      </trkpt>
      <trkpt lat="45.6447" lon="6.59758">
        <ele>2052.68</ele>
        <time>2019-06-24T08:58:15Z</time>
      </trkpt>
      <trkpt lat="45.6447" lon="6.59762">
        <ele>2052.8</ele>
        <time>2019-06-24T08:58:18Z</time>
      </trkpt>
      <trkpt lat="45.64473" lon="6.59786">
        <ele>2052.71</ele>
        <time>2019-06-24T08:58:33Z</time>
      </trkpt>
      <trkpt lat="45.64476" lon="6.59805">
        <ele>2052.14</ele>
        <time>2019-06-24T08:58:47Z</time>
      </trkpt>
      <trkpt lat="45.64476" lon="6.5982">
        <ele>2052.31</ele>
        <time>2019-06-24T08:58:57Z</time>
      </trkpt>
      <trkpt lat="45.64483" lon="6.59841">
        <ele>2050.94</ele>
        <time>2019-06-24T08:59:12Z</time>
      </trkpt>
      <trkpt lat="45.64482" lon="6.59848">
        <ele>2051.1</ele>
        <time>2019-06-24T08:59:16Z</time>
      </trkpt>
      <trkpt lat="45.64483" lon="6.59855">
        <ele>2050.25</ele>
        <time>2019-06-24T08:59:21Z</time>
      </trkpt>
      <trkpt lat="45.64486" lon="6.59863">
        <ele>2050.08</ele>
        <time>2019-06-24T08:59:27Z</time>
      </trkpt>
      <trkpt lat="45.64492" lon="6.59876">
        <ele>2052.07</ele>
        <time>2019-06-24T08:59:42Z</time>
      </trkpt>
      <trkpt lat="45.64494" lon="6.59889">
        <ele>2054.73</ele>
        <time>2019-06-24T08:59:56Z</time>
      </trkpt>
      <trkpt lat="45.64495" lon="6.59891">
        <ele>2055.09</ele>
        <time>2019-06-24T08:59:58Z</time>
      </trkpt>
      <trkpt lat="45.64498" lon="6.59909">
        <ele>2056.92</ele>
        <time>2019-06-24T09:00:14Z</time>
      </trkpt>
      <trkpt lat="45.645" lon="6.59914">
        <ele>2057.74</ele>
        <time>2019-06-24T09:00:19Z</time>
      </trkpt>
      <trkpt lat="45.645" lon="6.59933">
        <ele>2058.6</ele>
        <time>2019-06-24T09:00:33Z</time>
      </trkpt>
      <trkpt lat="45.64501" lon="6.59934">
        <ele>2058.72</ele>
        <time>2019-06-24T09:00:34Z</time>
      </trkpt>
      <trkpt lat="45.64506" lon="6.59948">
        <ele>2061.14</ele>
        <time>2019-06-24T09:00:50Z</time>
      </trkpt>
      <trkpt lat="45.64506" lon="6.59957">
        <ele>2061.93</ele>
        <time>2019-06-24T09:01:10Z</time>
      </trkpt>
      <trkpt lat="45.64506" lon="6.59974">
        <ele>2064</ele>
        <time>2019-06-24T09:01:27Z</time>
      </trkpt>
      <trkpt lat="45.64509" lon="6.5999">
        <ele>2067</ele>
        <time>2019-06-24T09:01:44Z</time>
      </trkpt>
      <trkpt lat="45.6451" lon="6.59998">
        <ele>2068.31</ele>
        <time>2019-06-24T09:01:52Z</time>
      </trkpt>
      <trkpt lat="45.64515" lon="6.60004">
        <ele>2068.81</ele>
        <time>2019-06-24T09:02:06Z</time>
      </trkpt>
      <trkpt lat="45.64527" lon="6.60002">
        <ele>2071.13</ele>
        <time>2019-06-24T09:02:23Z</time>
      </trkpt>
      <trkpt lat="45.6454" lon="6.60005">
        <ele>2073.88</ele>
        <time>2019-06-24T09:02:40Z</time>
      </trkpt>
      <trkpt lat="45.64554" lon="6.60009">
        <ele>2075.79</ele>
        <time>2019-06-24T09:02:57Z</time>
      </trkpt>
      <trkpt lat="45.64563" lon="6.60017">
        <ele>2078.7</ele>
        <time>2019-06-24T09:03:15Z</time>
      </trkpt>
      <trkpt lat="45.64569" lon="6.60025">
        <ele>2081.83</ele>
        <time>2019-06-24T09:03:30Z</time>
      </trkpt>
      <trkpt lat="45.6458" lon="6.6003">
        <ele>2084.58</ele>
        <time>2019-06-24T09:03:48Z</time>
      </trkpt>
      <trkpt lat="45.64591" lon="6.60037">
        <ele>2086.62</ele>
        <time>2019-06-24T09:04:06Z</time>
      </trkpt>
      <trkpt lat="45.64603" lon="6.60049">
        <ele>2089.45</ele>
        <time>2019-06-24T09:04:26Z</time>
      </trkpt>
      <trkpt lat="45.64615" lon="6.6006">
        <ele>2090.39</ele>
        <time>2019-06-24T09:04:43Z</time>
      </trkpt>
      <trkpt lat="45.64626" lon="6.60073">
        <ele>2092.66</ele>
        <time>2019-06-24T09:05:00Z</time>
      </trkpt>
      <trkpt lat="45.64636" lon="6.60083">
        <ele>2093.99</ele>
        <time>2019-06-24T09:05:16Z</time>
      </trkpt>
      <trkpt lat="45.6464" lon="6.60086">
        <ele>2094.5</ele>
        <time>2019-06-24T09:05:21Z</time>
      </trkpt>
      <trkpt lat="45.64652" lon="6.60096">
        <ele>2094.13</ele>
        <time>2019-06-24T09:05:36Z</time>
      </trkpt>
      <trkpt lat="45.64652" lon="6.60097">
        <ele>2094</ele>
        <time>2019-06-24T09:05:37Z</time>
      </trkpt>
      <trkpt lat="45.64665" lon="6.60097">
        <ele>2095.29</ele>
        <time>2019-06-24T09:05:53Z</time>
      </trkpt>
      <trkpt lat="45.64672" lon="6.60094">
        <ele>2095.59</ele>
        <time>2019-06-24T09:06:09Z</time>
      </trkpt>
      <trkpt lat="45.64685" lon="6.60092">
        <ele>2098.59</ele>
        <time>2019-06-24T09:06:29Z</time>
      </trkpt>
      <trkpt lat="45.64691" lon="6.60092">
        <ele>2099.81</ele>
        <time>2019-06-24T09:06:36Z</time>
      </trkpt>
      <trkpt lat="45.64705" lon="6.60086">
        <ele>2101.3</ele>
        <time>2019-06-24T09:06:54Z</time>
      </trkpt>
      <trkpt lat="45.64715" lon="6.60083">
        <ele>2103.26</ele>
        <time>2019-06-24T09:07:10Z</time>
      </trkpt>
      <trkpt lat="45.64725" lon="6.60075">
        <ele>2104.13</ele>
        <time>2019-06-24T09:07:22Z</time>
      </trkpt>
      <trkpt lat="45.64738" lon="6.6007">
        <ele>2107.36</ele>
        <time>2019-06-24T09:07:41Z</time>
      </trkpt>
      <trkpt lat="45.6475" lon="6.60066">
        <ele>2110.23</ele>
        <time>2019-06-24T09:07:59Z</time>
      </trkpt>
      <trkpt lat="45.64759" lon="6.60066">
        <ele>2112.26</ele>
        <time>2019-06-24T09:08:16Z</time>
      </trkpt>
      <trkpt lat="45.6477" lon="6.60065">
        <ele>2115.33</ele>
        <time>2019-06-24T09:08:34Z</time>
      </trkpt>
      <trkpt lat="45.64779" lon="6.60061">
        <ele>2118.35</ele>
        <time>2019-06-24T09:08:51Z</time>
      </trkpt>
      <trkpt lat="45.64789" lon="6.60065">
        <ele>2120.64</ele>
        <time>2019-06-24T09:09:08Z</time>
      </trkpt>
      <trkpt lat="45.648" lon="6.60059">
        <ele>2122.52</ele>
        <time>2019-06-24T09:09:27Z</time>
      </trkpt>
      <trkpt lat="45.64814" lon="6.60054">
        <ele>2125.61</ele>
        <time>2019-06-24T09:09:49Z</time>
      </trkpt>
      <trkpt lat="45.64825" lon="6.60049">
        <ele>2127.8</ele>
        <time>2019-06-24T09:10:08Z</time>
      </trkpt>
      <trkpt lat="45.64836" lon="6.6005">
        <ele>2130.36</ele>
        <time>2019-06-24T09:10:28Z</time>
      </trkpt>
      <trkpt lat="45.6484" lon="6.60059">
        <ele>2132.91</ele>
        <time>2019-06-24T09:10:49Z</time>
      </trkpt>
      <trkpt lat="45.6484" lon="6.60066">
        <ele>2136.06</ele>
        <time>2019-06-24T09:11:02Z</time>
      </trkpt>
      <trkpt lat="45.6485" lon="6.6007">
        <ele>2138.72</ele>
        <time>2019-06-24T09:11:20Z</time>
      </trkpt>
      <trkpt lat="45.64858" lon="6.60075">
        <ele>2140.87</ele>
        <time>2019-06-24T09:11:42Z</time>
      </trkpt>
      <trkpt lat="45.64858" lon="6.60073">
        <ele>2141.25</ele>
        <time>2019-06-24T09:12:11Z</time>
      </trkpt>
      <trkpt lat="45.64858" lon="6.60071">
        <ele>2141.63</ele>
        <time>2019-06-24T09:12:47Z</time>
      </trkpt>
      <trkpt lat="45.64859" lon="6.60071">
        <ele>2140.93</ele>
        <time>2019-06-24T09:13:04Z</time>
      </trkpt>
      <trkpt lat="45.64858" lon="6.60071">
        <ele>2141.07</ele>
        <time>2019-06-24T09:13:32Z</time>
      </trkpt>
      <trkpt lat="45.64857" lon="6.60071">
        <ele>2141.27</ele>
        <time>2019-06-24T09:14:44Z</time>
      </trkpt>
      <trkpt lat="45.64856" lon="6.6007">
        <ele>2142</ele>
        <time>2019-06-24T09:15:30Z</time>
      </trkpt>
      <trkpt lat="45.64857" lon="6.60068">
        <ele>2142.33</ele>
        <time>2019-06-24T09:16:17Z</time>
      </trkpt>
      <trkpt lat="45.64856" lon="6.60068">
        <ele>2142.63</ele>
        <time>2019-06-24T09:16:46Z</time>
      </trkpt>
      <trkpt lat="45.64855" lon="6.60069">
        <ele>2143.36</ele>
        <time>2019-06-24T09:16:59Z</time>
      </trkpt>
      <trkpt lat="45.64856" lon="6.60071">
        <ele>2144.06</ele>
        <time>2019-06-24T09:17:28Z</time>
      </trkpt>
      <trkpt lat="45.64857" lon="6.6007">
        <ele>2144.27</ele>
        <time>2019-06-24T09:17:50Z</time>
      </trkpt>
      <trkpt lat="45.64858" lon="6.60072">
        <ele>2144.29</ele>
        <time>2019-06-24T09:18:10Z</time>
      </trkpt>
      <trkpt lat="45.64856" lon="6.60075">
        <ele>2144.5</ele>
        <time>2019-06-24T09:18:40Z</time>
      </trkpt>
      <trkpt lat="45.64857" lon="6.60072">
        <ele>2144.52</ele>
        <time>2019-06-24T09:19:09Z</time>
      </trkpt>
      <trkpt lat="45.64855" lon="6.60072">
        <ele>2144.74</ele>
        <time>2019-06-24T09:19:42Z</time>
      </trkpt>
      <trkpt lat="45.64854" lon="6.60068">
        <ele>2144.94</ele>
        <time>2019-06-24T09:20:01Z</time>
      </trkpt>
      <trkpt lat="45.64856" lon="6.60069">
        <ele>2145.29</ele>
        <time>2019-06-24T09:20:29Z</time>
      </trkpt>
      <trkpt lat="45.64855" lon="6.6007">
        <ele>2145.24</ele>
        <time>2019-06-24T09:21:04Z</time>
      </trkpt>
      <trkpt lat="45.64854" lon="6.60071">
        <ele>2145.82</ele>
        <time>2019-06-24T09:21:37Z</time>
      </trkpt>
      <trkpt lat="45.64855" lon="6.60071">
        <ele>2146.01</ele>
        <time>2019-06-24T09:22:06Z</time>
      </trkpt>
      <trkpt lat="45.64855" lon="6.60071">
        <ele>2146.18</ele>
        <time>2019-06-24T09:22:34Z</time>
      </trkpt>
      <trkpt lat="45.64856" lon="6.6007">
        <ele>2146.4</ele>
        <time>2019-06-24T09:23:08Z</time>
      </trkpt>
      <trkpt lat="45.64856" lon="6.6007">
        <ele>2146.71</ele>
        <time>2019-06-24T09:23:41Z</time>
      </trkpt>
      <trkpt lat="45.64858" lon="6.60071">
        <ele>2147.49</ele>
        <time>2019-06-24T09:24:06Z</time>
      </trkpt>
      <trkpt lat="45.6487" lon="6.60074">
        <ele>2150.51</ele>
        <time>2019-06-24T09:24:24Z</time>
      </trkpt>
      <trkpt lat="45.64879" lon="6.60077">
        <ele>2153.42</ele>
        <time>2019-06-24T09:24:44Z</time>
      </trkpt>
      <trkpt lat="45.64891" lon="6.60073">
        <ele>2156.38</ele>
        <time>2019-06-24T09:25:04Z</time>
      </trkpt>
      <trkpt lat="45.64896" lon="6.6007">
        <ele>2157.05</ele>
        <time>2019-06-24T09:25:10Z</time>
      </trkpt>
      <trkpt lat="45.64907" lon="6.60062">
        <ele>2158.68</ele>
        <time>2019-06-24T09:25:24Z</time>
      </trkpt>
      <trkpt lat="45.64926" lon="6.60052">
        <ele>2161.45</ele>
        <time>2019-06-24T09:25:45Z</time>
      </trkpt>
      <trkpt lat="45.64938" lon="6.60042">
        <ele>2162.81</ele>
        <time>2019-06-24T09:26:02Z</time>
      </trkpt>
      <trkpt lat="45.64942" lon="6.60034">
        <ele>2163.93</ele>
        <time>2019-06-24T09:26:09Z</time>
      </trkpt>
      <trkpt lat="45.6495" lon="6.60015">
        <ele>2166.02</ele>
        <time>2019-06-24T09:26:26Z</time>
      </trkpt>
      <trkpt lat="45.6496" lon="6.6">
        <ele>2167.71</ele>
        <time>2019-06-24T09:26:43Z</time>
      </trkpt>
      <trkpt lat="45.64963" lon="6.59995">
        <ele>2168.39</ele>
        <time>2019-06-24T09:27:01Z</time>
      </trkpt>
      <trkpt lat="45.64962" lon="6.59993">
        <ele>2168.57</ele>
        <time>2019-06-24T09:27:23Z</time>
      </trkpt>
      <trkpt lat="45.64962" lon="6.59993">
        <ele>2168.68</ele>
        <time>2019-06-24T09:27:45Z</time>
      </trkpt>
      <trkpt lat="45.64963" lon="6.59994">
        <ele>2168.8</ele>
        <time>2019-06-24T09:28:10Z</time>
      </trkpt>
      <trkpt lat="45.64963" lon="6.59995">
        <ele>2168.47</ele>
        <time>2019-06-24T09:28:46Z</time>
      </trkpt>
      <trkpt lat="45.64964" lon="6.59995">
        <ele>2168.88</ele>
        <time>2019-06-24T09:29:11Z</time>
      </trkpt>
      <trkpt lat="45.64964" lon="6.59995">
        <ele>2168.85</ele>
        <time>2019-06-24T09:29:32Z</time>
      </trkpt>
      <trkpt lat="45.64963" lon="6.60007">
        <ele>2170.44</ele>
        <time>2019-06-24T09:29:48Z</time>
      </trkpt>
      <trkpt lat="45.64961" lon="6.60016">
        <ele>2171.14</ele>
        <time>2019-06-24T09:29:55Z</time>
      </trkpt>
      <trkpt lat="45.64959" lon="6.60026">
        <ele>2171.49</ele>
        <time>2019-06-24T09:30:02Z</time>
      </trkpt>
      <trkpt lat="45.64956" lon="6.60048">
        <ele>2172.18</ele>
        <time>2019-06-24T09:30:19Z</time>
      </trkpt>
      <trkpt lat="45.64952" lon="6.60064">
        <ele>2173.53</ele>
        <time>2019-06-24T09:30:35Z</time>
      </trkpt>
      <trkpt lat="45.64948" lon="6.60076">
        <ele>2175.88</ele>
        <time>2019-06-24T09:30:54Z</time>
      </trkpt>
      <trkpt lat="45.64947" lon="6.60077">
        <ele>2175.67</ele>
        <time>2019-06-24T09:31:16Z</time>
      </trkpt>
      <trkpt lat="45.64945" lon="6.6008">
        <ele>2175.64</ele>
        <time>2019-06-24T09:31:44Z</time>
      </trkpt>
      <trkpt lat="45.64945" lon="6.6008">
        <ele>2174.83</ele>
        <time>2019-06-24T09:32:07Z</time>
      </trkpt>
      <trkpt lat="45.64945" lon="6.60078">
        <ele>2175.1</ele>
        <time>2019-06-24T09:32:55Z</time>
      </trkpt>
      <trkpt lat="45.64944" lon="6.60077">
        <ele>2175.22</ele>
        <time>2019-06-24T09:33:51Z</time>
      </trkpt>
      <trkpt lat="45.64944" lon="6.60077">
        <ele>2175.75</ele>
        <time>2019-06-24T09:34:55Z</time>
      </trkpt>
      <trkpt lat="45.64944" lon="6.60077">
        <ele>2176.21</ele>
        <time>2019-06-24T09:36:00Z</time>
      </trkpt>
      <trkpt lat="45.64944" lon="6.60077">
        <ele>2176.84</ele>
        <time>2019-06-24T09:37:11Z</time>
      </trkpt>
      <trkpt lat="45.64944" lon="6.60078">
        <ele>2177.34</ele>
        <time>2019-06-24T09:38:12Z</time>
      </trkpt>
      <trkpt lat="45.64945" lon="6.60079">
        <ele>2177.64</ele>
        <time>2019-06-24T09:38:34Z</time>
      </trkpt>
      <trkpt lat="45.64944" lon="6.60078">
        <ele>2177.79</ele>
        <time>2019-06-24T09:39:01Z</time>
      </trkpt>
      <trkpt lat="45.64944" lon="6.60079">
        <ele>2178.57</ele>
        <time>2019-06-24T09:39:57Z</time>
      </trkpt>
      <trkpt lat="45.64944" lon="6.60079">
        <ele>2178.65</ele>
        <time>2019-06-24T09:40:20Z</time>
      </trkpt>
      <trkpt lat="45.64944" lon="6.60078">
        <ele>2178.77</ele>
        <time>2019-06-24T09:40:53Z</time>
      </trkpt>
      <trkpt lat="45.64943" lon="6.60079">
        <ele>2178.87</ele>
        <time>2019-06-24T09:41:16Z</time>
      </trkpt>
      <trkpt lat="45.64944" lon="6.60073">
        <ele>2177.82</ele>
        <time>2019-06-24T09:41:37Z</time>
      </trkpt>
      <trkpt lat="45.64947" lon="6.60068">
        <ele>2177.82</ele>
        <time>2019-06-24T09:41:51Z</time>
      </trkpt>
      <trkpt lat="45.64951" lon="6.60063">
        <ele>2177.42</ele>
        <time>2019-06-24T09:41:58Z</time>
      </trkpt>
      <trkpt lat="45.64957" lon="6.60038">
        <ele>2175.72</ele>
        <time>2019-06-24T09:42:14Z</time>
      </trkpt>
      <trkpt lat="45.64958" lon="6.60035">
        <ele>2176.03</ele>
        <time>2019-06-24T09:42:20Z</time>
      </trkpt>
      <trkpt lat="45.64959" lon="6.60029">
        <ele>2175.95</ele>
        <time>2019-06-24T09:42:24Z</time>
      </trkpt>
      <trkpt lat="45.64964" lon="6.59996">
        <ele>2173.5</ele>
        <time>2019-06-24T09:42:43Z</time>
      </trkpt>
      <trkpt lat="45.64964" lon="6.59995">
        <ele>2173.25</ele>
        <time>2019-06-24T09:42:47Z</time>
      </trkpt>
      <trkpt lat="45.6497" lon="6.59984">
        <ele>2172.93</ele>
        <time>2019-06-24T09:42:55Z</time>
      </trkpt>
      <trkpt lat="45.64974" lon="6.59975">
        <ele>2173.24</ele>
        <time>2019-06-24T09:43:05Z</time>
      </trkpt>
      <trkpt lat="45.64979" lon="6.59968">
        <ele>2172.55</ele>
        <time>2019-06-24T09:43:11Z</time>
      </trkpt>
      <trkpt lat="45.64989" lon="6.59947">
        <ele>2172.27</ele>
        <time>2019-06-24T09:43:29Z</time>
      </trkpt>
      <trkpt lat="45.64992" lon="6.59941">
        <ele>2171.84</ele>
        <time>2019-06-24T09:43:33Z</time>
      </trkpt>
      <trkpt lat="45.64997" lon="6.59932">
        <ele>2171.79</ele>
        <time>2019-06-24T09:43:42Z</time>
      </trkpt>
      <trkpt lat="45.65002" lon="6.59926">
        <ele>2171.55</ele>
        <time>2019-06-24T09:43:47Z</time>
      </trkpt>
      <trkpt lat="45.65011" lon="6.59905">
        <ele>2171.54</ele>
        <time>2019-06-24T09:44:04Z</time>
      </trkpt>
      <trkpt lat="45.65018" lon="6.59889">
        <ele>2170.15</ele>
        <time>2019-06-24T09:44:16Z</time>
      </trkpt>
      <trkpt lat="45.65023" lon="6.5987">
        <ele>2168.53</ele>
        <time>2019-06-24T09:44:30Z</time>
      </trkpt>
      <trkpt lat="45.65026" lon="6.59862">
        <ele>2167.92</ele>
        <time>2019-06-24T09:44:35Z</time>
      </trkpt>
      <trkpt lat="45.65036" lon="6.59832">
        <ele>2165.95</ele>
        <time>2019-06-24T09:44:53Z</time>
      </trkpt>
      <trkpt lat="45.65048" lon="6.59811">
        <ele>2163.94</ele>
        <time>2019-06-24T09:45:09Z</time>
      </trkpt>
      <trkpt lat="45.65055" lon="6.59803">
        <ele>2162.14</ele>
        <time>2019-06-24T09:45:23Z</time>
      </trkpt>
      <trkpt lat="45.65065" lon="6.59797">
        <ele>2160.44</ele>
        <time>2019-06-24T09:45:35Z</time>
      </trkpt>
      <trkpt lat="45.65081" lon="6.59785">
        <ele>2158.13</ele>
        <time>2019-06-24T09:45:50Z</time>
      </trkpt>
      <trkpt lat="45.65094" lon="6.59774">
        <ele>2159.45</ele>
        <time>2019-06-24T09:46:04Z</time>
      </trkpt>
      <trkpt lat="45.651" lon="6.5977">
        <ele>2160.32</ele>
        <time>2019-06-24T09:46:14Z</time>
      </trkpt>
      <trkpt lat="45.65116" lon="6.59758">
        <ele>2163.15</ele>
        <time>2019-06-24T09:46:33Z</time>
      </trkpt>
      <trkpt lat="45.65122" lon="6.59752">
        <ele>2164.09</ele>
        <time>2019-06-24T09:46:52Z</time>
      </trkpt>
      <trkpt lat="45.65122" lon="6.59751">
        <ele>2164.45</ele>
        <time>2019-06-24T09:47:16Z</time>
      </trkpt>
      <trkpt lat="45.65126" lon="6.59751">
        <ele>2165.02</ele>
        <time>2019-06-24T09:47:23Z</time>
      </trkpt>
      <trkpt lat="45.65141" lon="6.59741">
        <ele>2167.6</ele>
        <time>2019-06-24T09:47:41Z</time>
      </trkpt>
      <trkpt lat="45.65142" lon="6.59743">
        <ele>2167.39</ele>
        <time>2019-06-24T09:47:52Z</time>
      </trkpt>
      <trkpt lat="45.65146" lon="6.59736">
        <ele>2167.79</ele>
        <time>2019-06-24T09:48:17Z</time>
      </trkpt>
      <trkpt lat="45.65158" lon="6.5972">
        <ele>2169.78</ele>
        <time>2019-06-24T09:48:34Z</time>
      </trkpt>
      <trkpt lat="45.65176" lon="6.59702">
        <ele>2170.66</ele>
        <time>2019-06-24T09:48:52Z</time>
      </trkpt>
      <trkpt lat="45.65184" lon="6.59697">
        <ele>2170.25</ele>
        <time>2019-06-24T09:49:07Z</time>
      </trkpt>
      <trkpt lat="45.65189" lon="6.59692">
        <ele>2169.75</ele>
        <time>2019-06-24T09:49:14Z</time>
      </trkpt>
      <trkpt lat="45.65203" lon="6.59677">
        <ele>2169.11</ele>
        <time>2019-06-24T09:49:30Z</time>
      </trkpt>
      <trkpt lat="45.65217" lon="6.59665">
        <ele>2169.37</ele>
        <time>2019-06-24T09:49:45Z</time>
      </trkpt>
      <trkpt lat="45.65218" lon="6.59664">
        <ele>2169.47</ele>
        <time>2019-06-24T09:49:46Z</time>
      </trkpt>
      <trkpt lat="45.65222" lon="6.59661">
        <ele>2169.38</ele>
        <time>2019-06-24T09:49:50Z</time>
      </trkpt>
      <trkpt lat="45.65232" lon="6.5966">
        <ele>2169.76</ele>
        <time>2019-06-24T09:50:03Z</time>
      </trkpt>
      <trkpt lat="45.65249" lon="6.59655">
        <ele>2171.56</ele>
        <time>2019-06-24T09:50:19Z</time>
      </trkpt>
      <trkpt lat="45.65265" lon="6.59644">
        <ele>2170.69</ele>
        <time>2019-06-24T09:50:34Z</time>
      </trkpt>
      <trkpt lat="45.65268" lon="6.59645">
        <ele>2170.75</ele>
        <time>2019-06-24T09:50:52Z</time>
      </trkpt>
      <trkpt lat="45.65268" lon="6.59648">
        <ele>2171.51</ele>
        <time>2019-06-24T09:51:38Z</time>
      </trkpt>
      <trkpt lat="45.65264" lon="6.59652">
        <ele>2172.54</ele>
        <time>2019-06-24T09:51:52Z</time>
      </trkpt>
      <trkpt lat="45.65264" lon="6.59653">
        <ele>2172.13</ele>
        <time>2019-06-24T09:52:16Z</time>
      </trkpt>
      <trkpt lat="45.65264" lon="6.59652">
        <ele>2172.66</ele>
        <time>2019-06-24T09:52:41Z</time>
      </trkpt>
      <trkpt lat="45.65264" lon="6.5965">
        <ele>2173.85</ele>
        <time>2019-06-24T09:53:05Z</time>
      </trkpt>
      <trkpt lat="45.65265" lon="6.5965">
        <ele>2173.73</ele>
        <time>2019-06-24T09:53:06Z</time>
      </trkpt>
      <trkpt lat="45.65266" lon="6.59648">
        <ele>2172.26</ele>
        <time>2019-06-24T09:53:28Z</time>
      </trkpt>
      <trkpt lat="45.6527" lon="6.59647">
        <ele>2171.25</ele>
        <time>2019-06-24T09:53:41Z</time>
      </trkpt>
      <trkpt lat="45.6527" lon="6.5964">
        <ele>2170.03</ele>
        <time>2019-06-24T09:53:46Z</time>
      </trkpt>
      <trkpt lat="45.6527" lon="6.59633">
        <ele>2167.23</ele>
        <time>2019-06-24T09:53:52Z</time>
      </trkpt>
      <trkpt lat="45.65275" lon="6.59624">
        <ele>2163.93</ele>
        <time>2019-06-24T09:54:02Z</time>
      </trkpt>
      <trkpt lat="45.65282" lon="6.59616">
        <ele>2160.73</ele>
        <time>2019-06-24T09:54:11Z</time>
      </trkpt>
      <trkpt lat="45.65294" lon="6.59601">
        <ele>2157.65</ele>
        <time>2019-06-24T09:54:24Z</time>
      </trkpt>
      <trkpt lat="45.65302" lon="6.59593">
        <ele>2155.2</ele>
        <time>2019-06-24T09:54:38Z</time>
      </trkpt>
      <trkpt lat="45.65303" lon="6.59592">
        <ele>2155.51</ele>
        <time>2019-06-24T09:54:40Z</time>
      </trkpt>
      <trkpt lat="45.65305" lon="6.59588">
        <ele>2154.94</ele>
        <time>2019-06-24T09:54:43Z</time>
      </trkpt>
      <trkpt lat="45.65312" lon="6.59583">
        <ele>2153.44</ele>
        <time>2019-06-24T09:54:49Z</time>
      </trkpt>
      <trkpt lat="45.65336" lon="6.59562">
        <ele>2151.62</ele>
        <time>2019-06-24T09:55:11Z</time>
      </trkpt>
      <trkpt lat="45.65354" lon="6.59543">
        <ele>2151.48</ele>
        <time>2019-06-24T09:55:30Z</time>
      </trkpt>
      <trkpt lat="45.65354" lon="6.5954">
        <ele>2151.63</ele>
        <time>2019-06-24T09:55:49Z</time>
      </trkpt>
      <trkpt lat="45.65357" lon="6.5954">
        <ele>2151.89</ele>
        <time>2019-06-24T09:56:03Z</time>
      </trkpt>
      <trkpt lat="45.6536" lon="6.59539">
        <ele>2152.2</ele>
        <time>2019-06-24T09:56:06Z</time>
      </trkpt>
      <trkpt lat="45.65374" lon="6.59533">
        <ele>2152.92</ele>
        <time>2019-06-24T09:56:21Z</time>
      </trkpt>
      <trkpt lat="45.65388" lon="6.59525">
        <ele>2152.2</ele>
        <time>2019-06-24T09:56:36Z</time>
      </trkpt>
      <trkpt lat="45.6539" lon="6.59523">
        <ele>2152.4</ele>
        <time>2019-06-24T09:56:53Z</time>
      </trkpt>
      <trkpt lat="45.65391" lon="6.59522">
        <ele>2152.67</ele>
        <time>2019-06-24T09:56:57Z</time>
      </trkpt>
      <trkpt lat="45.65394" lon="6.59518">
        <ele>2152.74</ele>
        <time>2019-06-24T09:57:12Z</time>
      </trkpt>
      <trkpt lat="45.65399" lon="6.59512">
        <ele>2152.94</ele>
        <time>2019-06-24T09:57:23Z</time>
      </trkpt>
      <trkpt lat="45.65411" lon="6.595">
        <ele>2154.34</ele>
        <time>2019-06-24T09:57:38Z</time>
      </trkpt>
      <trkpt lat="45.65427" lon="6.59487">
        <ele>2156.19</ele>
        <time>2019-06-24T09:57:55Z</time>
      </trkpt>
      <trkpt lat="45.65439" lon="6.59485">
        <ele>2156.82</ele>
        <time>2019-06-24T09:58:08Z</time>
      </trkpt>
      <trkpt lat="45.65441" lon="6.59487">
        <ele>2156.4</ele>
        <time>2019-06-24T09:58:19Z</time>
      </trkpt>
      <trkpt lat="45.6544" lon="6.59482">
        <ele>2157.26</ele>
        <time>2019-06-24T09:58:29Z</time>
      </trkpt>
      <trkpt lat="45.65455" lon="6.59465">
        <ele>2158.8</ele>
        <time>2019-06-24T09:58:48Z</time>
      </trkpt>
      <trkpt lat="45.65458" lon="6.59463">
        <ele>2158.99</ele>
        <time>2019-06-24T09:58:51Z</time>
      </trkpt>
      <trkpt lat="45.65464" lon="6.59463">
        <ele>2159.58</ele>
        <time>2019-06-24T09:58:58Z</time>
      </trkpt>
      <trkpt lat="45.65478" lon="6.59458">
        <ele>2161.25</ele>
        <time>2019-06-24T09:59:12Z</time>
      </trkpt>
      <trkpt lat="45.65481" lon="6.59456">
        <ele>2161.48</ele>
        <time>2019-06-24T09:59:17Z</time>
      </trkpt>
      <trkpt lat="45.65489" lon="6.5944">
        <ele>2162.71</ele>
        <time>2019-06-24T09:59:32Z</time>
      </trkpt>
      <trkpt lat="45.65493" lon="6.59441">
        <ele>2163.12</ele>
        <time>2019-06-24T09:59:49Z</time>
      </trkpt>
      <trkpt lat="45.65497" lon="6.5944">
        <ele>2162.48</ele>
        <time>2019-06-24T09:59:55Z</time>
      </trkpt>
      <trkpt lat="45.65502" lon="6.59438">
        <ele>2162.92</ele>
        <time>2019-06-24T10:00:11Z</time>
      </trkpt>
      <trkpt lat="45.65505" lon="6.59437">
        <ele>2163.1</ele>
        <time>2019-06-24T10:00:18Z</time>
      </trkpt>
      <trkpt lat="45.65521" lon="6.5943">
        <ele>2162.47</ele>
        <time>2019-06-24T10:00:34Z</time>
      </trkpt>
      <trkpt lat="45.65527" lon="6.59423">
        <ele>2161.46</ele>
        <time>2019-06-24T10:00:49Z</time>
      </trkpt>
      <trkpt lat="45.65529" lon="6.59423">
        <ele>2161.74</ele>
        <time>2019-06-24T10:00:59Z</time>
      </trkpt>
      <trkpt lat="45.65533" lon="6.59418">
        <ele>2160.74</ele>
        <time>2019-06-24T10:01:04Z</time>
      </trkpt>
      <trkpt lat="45.6555" lon="6.59411">
        <ele>2163.04</ele>
        <time>2019-06-24T10:01:21Z</time>
      </trkpt>
      <trkpt lat="45.65553" lon="6.59411">
        <ele>2163.4</ele>
        <time>2019-06-24T10:01:37Z</time>
      </trkpt>
      <trkpt lat="45.65553" lon="6.5941">
        <ele>2163.33</ele>
        <time>2019-06-24T10:02:14Z</time>
      </trkpt>
      <trkpt lat="45.65553" lon="6.5941">
        <ele>2163.29</ele>
        <time>2019-06-24T10:02:53Z</time>
      </trkpt>
      <trkpt lat="45.65554" lon="6.59409">
        <ele>2163.13</ele>
        <time>2019-06-24T10:02:57Z</time>
      </trkpt>
      <trkpt lat="45.65556" lon="6.59408">
        <ele>2162.42</ele>
        <time>2019-06-24T10:02:59Z</time>
      </trkpt>
      <trkpt lat="45.65571" lon="6.59399">
        <ele>2158.99</ele>
        <time>2019-06-24T10:03:13Z</time>
      </trkpt>
      <trkpt lat="45.65587" lon="6.59391">
        <ele>2157.6</ele>
        <time>2019-06-24T10:03:27Z</time>
      </trkpt>
      <trkpt lat="45.65604" lon="6.59373">
        <ele>2156.1</ele>
        <time>2019-06-24T10:03:45Z</time>
      </trkpt>
      <trkpt lat="45.65609" lon="6.59368">
        <ele>2156</ele>
        <time>2019-06-24T10:03:55Z</time>
      </trkpt>
      <trkpt lat="45.65629" lon="6.59362">
        <ele>2154.01</ele>
        <time>2019-06-24T10:04:12Z</time>
      </trkpt>
      <trkpt lat="45.65645" lon="6.59351">
        <ele>2151.95</ele>
        <time>2019-06-24T10:04:28Z</time>
      </trkpt>
      <trkpt lat="45.65645" lon="6.59351">
        <ele>2151.82</ele>
        <time>2019-06-24T10:04:33Z</time>
      </trkpt>
      <trkpt lat="45.65653" lon="6.59345">
        <ele>2148.31</ele>
        <time>2019-06-24T10:04:42Z</time>
      </trkpt>
      <trkpt lat="45.65659" lon="6.59338">
        <ele>2145.15</ele>
        <time>2019-06-24T10:04:49Z</time>
      </trkpt>
      <trkpt lat="45.65662" lon="6.5933">
        <ele>2143.13</ele>
        <time>2019-06-24T10:04:55Z</time>
      </trkpt>
      <trkpt lat="45.65664" lon="6.59325">
        <ele>2142.16</ele>
        <time>2019-06-24T10:04:58Z</time>
      </trkpt>
      <trkpt lat="45.65684" lon="6.59327">
        <ele>2142.21</ele>
        <time>2019-06-24T10:05:15Z</time>
      </trkpt>
      <trkpt lat="45.65686" lon="6.59327">
        <ele>2142.11</ele>
        <time>2019-06-24T10:05:16Z</time>
      </trkpt>
      <trkpt lat="45.6569" lon="6.59325">
        <ele>2141.28</ele>
        <time>2019-06-24T10:05:33Z</time>
      </trkpt>
      <trkpt lat="45.65689" lon="6.59324">
        <ele>2141.19</ele>
        <time>2019-06-24T10:06:32Z</time>
      </trkpt>
      <trkpt lat="45.65688" lon="6.59325">
        <ele>2140.99</ele>
        <time>2019-06-24T10:07:26Z</time>
      </trkpt>
      <trkpt lat="45.65688" lon="6.59324">
        <ele>2141.14</ele>
        <time>2019-06-24T10:08:07Z</time>
      </trkpt>
      <trkpt lat="45.65688" lon="6.59325">
        <ele>2141.25</ele>
        <time>2019-06-24T10:09:05Z</time>
      </trkpt>
      <trkpt lat="45.65688" lon="6.59327">
        <ele>2141.88</ele>
        <time>2019-06-24T10:09:50Z</time>
      </trkpt>
      <trkpt lat="45.65691" lon="6.59328">
        <ele>2141.89</ele>
        <time>2019-06-24T10:10:16Z</time>
      </trkpt>
      <trkpt lat="45.65703" lon="6.59326">
        <ele>2140.67</ele>
        <time>2019-06-24T10:10:31Z</time>
      </trkpt>
      <trkpt lat="45.65722" lon="6.59324">
        <ele>2140.66</ele>
        <time>2019-06-24T10:10:50Z</time>
      </trkpt>
      <trkpt lat="45.6574" lon="6.59321">
        <ele>2141.23</ele>
        <time>2019-06-24T10:11:09Z</time>
      </trkpt>
      <trkpt lat="45.6575" lon="6.5932">
        <ele>2138.62</ele>
        <time>2019-06-24T10:11:24Z</time>
      </trkpt>
      <trkpt lat="45.65758" lon="6.59317">
        <ele>2136.15</ele>
        <time>2019-06-24T10:11:37Z</time>
      </trkpt>
      <trkpt lat="45.65759" lon="6.59318">
        <ele>2136.33</ele>
        <time>2019-06-24T10:11:50Z</time>
      </trkpt>
      <trkpt lat="45.65762" lon="6.59316">
        <ele>2135.52</ele>
        <time>2019-06-24T10:11:53Z</time>
      </trkpt>
      <trkpt lat="45.65768" lon="6.59315">
        <ele>2132.93</ele>
        <time>2019-06-24T10:11:59Z</time>
      </trkpt>
      <trkpt lat="45.65772" lon="6.59317">
        <ele>2130.86</ele>
        <time>2019-06-24T10:12:03Z</time>
      </trkpt>
      <trkpt lat="45.65776" lon="6.59315">
        <ele>2129.13</ele>
        <time>2019-06-24T10:12:07Z</time>
      </trkpt>
      <trkpt lat="45.6578" lon="6.59316">
        <ele>2127.57</ele>
        <time>2019-06-24T10:12:11Z</time>
      </trkpt>
      <trkpt lat="45.65786" lon="6.59321">
        <ele>2125.81</ele>
        <time>2019-06-24T10:12:18Z</time>
      </trkpt>
      <trkpt lat="45.65786" lon="6.59324">
        <ele>2125.31</ele>
        <time>2019-06-24T10:12:20Z</time>
      </trkpt>
      <trkpt lat="45.6579" lon="6.59327">
        <ele>2123.85</ele>
        <time>2019-06-24T10:12:37Z</time>
      </trkpt>
      <trkpt lat="45.65789" lon="6.59328">
        <ele>2124.16</ele>
        <time>2019-06-24T10:12:52Z</time>
      </trkpt>
      <trkpt lat="45.65796" lon="6.59332">
        <ele>2122.74</ele>
        <time>2019-06-24T10:13:05Z</time>
      </trkpt>
      <trkpt lat="45.65801" lon="6.59335">
        <ele>2122.19</ele>
        <time>2019-06-24T10:13:09Z</time>
      </trkpt>
      <trkpt lat="45.65813" lon="6.59341">
        <ele>2121.39</ele>
        <time>2019-06-24T10:13:24Z</time>
      </trkpt>
      <trkpt lat="45.65813" lon="6.59342">
        <ele>2121.37</ele>
        <time>2019-06-24T10:13:28Z</time>
      </trkpt>
      <trkpt lat="45.65819" lon="6.59345">
        <ele>2120.12</ele>
        <time>2019-06-24T10:13:34Z</time>
      </trkpt>
      <trkpt lat="45.6582" lon="6.59346">
        <ele>2119.6</ele>
        <time>2019-06-24T10:13:50Z</time>
      </trkpt>
      <trkpt lat="45.65823" lon="6.59347">
        <ele>2118.73</ele>
        <time>2019-06-24T10:13:53Z</time>
      </trkpt>
      <trkpt lat="45.65831" lon="6.59348">
        <ele>2116.31</ele>
        <time>2019-06-24T10:14:01Z</time>
      </trkpt>
      <trkpt lat="45.65841" lon="6.59346">
        <ele>2113.65</ele>
        <time>2019-06-24T10:14:14Z</time>
      </trkpt>
      <trkpt lat="45.65843" lon="6.59346">
        <ele>2113.32</ele>
        <time>2019-06-24T10:14:16Z</time>
      </trkpt>
      <trkpt lat="45.65848" lon="6.59348">
        <ele>2112.22</ele>
        <time>2019-06-24T10:14:20Z</time>
      </trkpt>
      <trkpt lat="45.65864" lon="6.59353">
        <ele>2110.46</ele>
        <time>2019-06-24T10:14:34Z</time>
      </trkpt>
      <trkpt lat="45.65879" lon="6.59356">
        <ele>2107.39</ele>
        <time>2019-06-24T10:14:48Z</time>
      </trkpt>
      <trkpt lat="45.65881" lon="6.59356">
        <ele>2106.38</ele>
        <time>2019-06-24T10:14:51Z</time>
      </trkpt>
      <trkpt lat="45.65889" lon="6.59358">
        <ele>2103.11</ele>
        <time>2019-06-24T10:15:01Z</time>
      </trkpt>
      <trkpt lat="45.65892" lon="6.59359">
        <ele>2101.43</ele>
        <time>2019-06-24T10:15:05Z</time>
      </trkpt>
      <trkpt lat="45.65903" lon="6.59357">
        <ele>2098.43</ele>
        <time>2019-06-24T10:15:17Z</time>
      </trkpt>
      <trkpt lat="45.65908" lon="6.59357">
        <ele>2097.08</ele>
        <time>2019-06-24T10:15:21Z</time>
      </trkpt>
      <trkpt lat="45.65912" lon="6.59358">
        <ele>2095.82</ele>
        <time>2019-06-24T10:15:24Z</time>
      </trkpt>
      <trkpt lat="45.65927" lon="6.59358">
        <ele>2092.71</ele>
        <time>2019-06-24T10:15:36Z</time>
      </trkpt>
      <trkpt lat="45.65935" lon="6.59363">
        <ele>2091.86</ele>
        <time>2019-06-24T10:15:50Z</time>
      </trkpt>
      <trkpt lat="45.65933" lon="6.59363">
        <ele>2092.06</ele>
        <time>2019-06-24T10:16:09Z</time>
      </trkpt>
      <trkpt lat="45.65934" lon="6.59363">
        <ele>2091.74</ele>
        <time>2019-06-24T10:16:29Z</time>
      </trkpt>
      <trkpt lat="45.65936" lon="6.59364">
        <ele>2091.52</ele>
        <time>2019-06-24T10:16:42Z</time>
      </trkpt>
      <trkpt lat="45.6594" lon="6.59366">
        <ele>2090.86</ele>
        <time>2019-06-24T10:16:46Z</time>
      </trkpt>
      <trkpt lat="45.65958" lon="6.5937">
        <ele>2094.02</ele>
        <time>2019-06-24T10:17:03Z</time>
      </trkpt>
      <trkpt lat="45.65974" lon="6.59376">
        <ele>2094.69</ele>
        <time>2019-06-24T10:17:19Z</time>
      </trkpt>
      <trkpt lat="45.65991" lon="6.59386">
        <ele>2096.86</ele>
        <time>2019-06-24T10:17:37Z</time>
      </trkpt>
      <trkpt lat="45.66006" lon="6.59392">
        <ele>2098.68</ele>
        <time>2019-06-24T10:17:52Z</time>
      </trkpt>
      <trkpt lat="45.66022" lon="6.59396">
        <ele>2098.96</ele>
        <time>2019-06-24T10:18:06Z</time>
      </trkpt>
      <trkpt lat="45.66036" lon="6.59397">
        <ele>2098.97</ele>
        <time>2019-06-24T10:18:19Z</time>
      </trkpt>
      <trkpt lat="45.66049" lon="6.59398">
        <ele>2099.07</ele>
        <time>2019-06-24T10:18:32Z</time>
      </trkpt>
      <trkpt lat="45.66051" lon="6.59398">
        <ele>2099.17</ele>
        <time>2019-06-24T10:18:41Z</time>
      </trkpt>
      <trkpt lat="45.66067" lon="6.59396">
        <ele>2097.42</ele>
        <time>2019-06-24T10:18:55Z</time>
      </trkpt>
      <trkpt lat="45.6608" lon="6.59395">
        <ele>2095.9</ele>
        <time>2019-06-24T10:19:07Z</time>
      </trkpt>
      <trkpt lat="45.66083" lon="6.59394">
        <ele>2095.89</ele>
        <time>2019-06-24T10:19:10Z</time>
      </trkpt>
      <trkpt lat="45.66086" lon="6.59393">
        <ele>2095.51</ele>
        <time>2019-06-24T10:19:13Z</time>
      </trkpt>
      <trkpt lat="45.66101" lon="6.59392">
        <ele>2094.84</ele>
        <time>2019-06-24T10:19:27Z</time>
      </trkpt>
      <trkpt lat="45.66119" lon="6.59391">
        <ele>2093.22</ele>
        <time>2019-06-24T10:19:43Z</time>
      </trkpt>
      <trkpt lat="45.66138" lon="6.59391">
        <ele>2091.02</ele>
        <time>2019-06-24T10:19:58Z</time>
      </trkpt>
      <trkpt lat="45.66156" lon="6.59394">
        <ele>2088.6</ele>
        <time>2019-06-24T10:20:17Z</time>
      </trkpt>
      <trkpt lat="45.66168" lon="6.59399">
        <ele>2086.25</ele>
        <time>2019-06-24T10:20:30Z</time>
      </trkpt>
      <trkpt lat="45.66177" lon="6.59406">
        <ele>2082.97</ele>
        <time>2019-06-24T10:20:40Z</time>
      </trkpt>
      <trkpt lat="45.66183" lon="6.59411">
        <ele>2081.08</ele>
        <time>2019-06-24T10:20:47Z</time>
      </trkpt>
      <trkpt lat="45.66185" lon="6.59412">
        <ele>2080.47</ele>
        <time>2019-06-24T10:20:49Z</time>
      </trkpt>
      <trkpt lat="45.66194" lon="6.59417">
        <ele>2077.31</ele>
        <time>2019-06-24T10:20:59Z</time>
      </trkpt>
      <trkpt lat="45.66201" lon="6.59417">
        <ele>2075.48</ele>
        <time>2019-06-24T10:21:10Z</time>
      </trkpt>
      <trkpt lat="45.66206" lon="6.59418">
        <ele>2074.69</ele>
        <time>2019-06-24T10:21:14Z</time>
      </trkpt>
      <trkpt lat="45.66223" lon="6.59427">
        <ele>2071.59</ele>
        <time>2019-06-24T10:21:28Z</time>
      </trkpt>
      <trkpt lat="45.66231" lon="6.59428">
        <ele>2070.45</ele>
        <time>2019-06-24T10:21:35Z</time>
      </trkpt>
      <trkpt lat="45.66243" lon="6.59433">
        <ele>2068.95</ele>
        <time>2019-06-24T10:21:46Z</time>
      </trkpt>
      <trkpt lat="45.6625" lon="6.59438">
        <ele>2068.12</ele>
        <time>2019-06-24T10:21:53Z</time>
      </trkpt>
      <trkpt lat="45.66259" lon="6.59446">
        <ele>2066.68</ele>
        <time>2019-06-24T10:22:02Z</time>
      </trkpt>
      <trkpt lat="45.66263" lon="6.59451">
        <ele>2066.09</ele>
        <time>2019-06-24T10:22:06Z</time>
      </trkpt>
      <trkpt lat="45.66268" lon="6.59455">
        <ele>2065.31</ele>
        <time>2019-06-24T10:22:10Z</time>
      </trkpt>
      <trkpt lat="45.66273" lon="6.59467">
        <ele>2063.85</ele>
        <time>2019-06-24T10:22:25Z</time>
      </trkpt>
      <trkpt lat="45.66272" lon="6.59467">
        <ele>2063.81</ele>
        <time>2019-06-24T10:22:47Z</time>
      </trkpt>
      <trkpt lat="45.66274" lon="6.59464">
        <ele>2063.64</ele>
        <time>2019-06-24T10:23:03Z</time>
      </trkpt>
      <trkpt lat="45.66274" lon="6.59468">
        <ele>2063.29</ele>
        <time>2019-06-24T10:23:21Z</time>
      </trkpt>
      <trkpt lat="45.66277" lon="6.59468">
        <ele>2063.24</ele>
        <time>2019-06-24T10:23:30Z</time>
      </trkpt>
      <trkpt lat="45.66281" lon="6.59464">
        <ele>2063.28</ele>
        <time>2019-06-24T10:23:35Z</time>
      </trkpt>
      <trkpt lat="45.66288" lon="6.59457">
        <ele>2062.51</ele>
        <time>2019-06-24T10:23:44Z</time>
      </trkpt>
      <trkpt lat="45.6629" lon="6.5945">
        <ele>2061.82</ele>
        <time>2019-06-24T10:23:49Z</time>
      </trkpt>
      <trkpt lat="45.66297" lon="6.59441">
        <ele>2059.96</ele>
        <time>2019-06-24T10:23:58Z</time>
      </trkpt>
      <trkpt lat="45.66299" lon="6.59439">
        <ele>2059</ele>
        <time>2019-06-24T10:24:01Z</time>
      </trkpt>
      <trkpt lat="45.66302" lon="6.59437">
        <ele>2058.21</ele>
        <time>2019-06-24T10:24:04Z</time>
      </trkpt>
      <trkpt lat="45.66314" lon="6.59439">
        <ele>2055.47</ele>
        <time>2019-06-24T10:24:20Z</time>
      </trkpt>
      <trkpt lat="45.66319" lon="6.59438">
        <ele>2055.67</ele>
        <time>2019-06-24T10:24:43Z</time>
      </trkpt>
      <trkpt lat="45.6632" lon="6.59435">
        <ele>2055.36</ele>
        <time>2019-06-24T10:25:03Z</time>
      </trkpt>
      <trkpt lat="45.66317" lon="6.59436">
        <ele>2056.46</ele>
        <time>2019-06-24T10:25:20Z</time>
      </trkpt>
      <trkpt lat="45.66313" lon="6.59433">
        <ele>2056.02</ele>
        <time>2019-06-24T10:25:45Z</time>
      </trkpt>
      <trkpt lat="45.6631" lon="6.59433">
        <ele>2056.84</ele>
        <time>2019-06-24T10:25:49Z</time>
      </trkpt>
      <trkpt lat="45.66297" lon="6.59435">
        <ele>2059.84</ele>
        <time>2019-06-24T10:26:05Z</time>
      </trkpt>
      <trkpt lat="45.66287" lon="6.59446">
        <ele>2062.45</ele>
        <time>2019-06-24T10:26:22Z</time>
      </trkpt>
      <trkpt lat="45.66285" lon="6.59449">
        <ele>2062.56</ele>
        <time>2019-06-24T10:26:26Z</time>
      </trkpt>
      <trkpt lat="45.66272" lon="6.59463">
        <ele>2063.41</ele>
        <time>2019-06-24T10:26:43Z</time>
      </trkpt>
      <trkpt lat="45.66273" lon="6.59466">
        <ele>2063.38</ele>
        <time>2019-06-24T10:26:56Z</time>
      </trkpt>
      <trkpt lat="45.66283" lon="6.59475">
        <ele>2063.47</ele>
        <time>2019-06-24T10:27:09Z</time>
      </trkpt>
      <trkpt lat="45.66293" lon="6.59481">
        <ele>2064.64</ele>
        <time>2019-06-24T10:27:23Z</time>
      </trkpt>
      <trkpt lat="45.66305" lon="6.5949">
        <ele>2067.03</ele>
        <time>2019-06-24T10:27:40Z</time>
      </trkpt>
      <trkpt lat="45.66311" lon="6.59491">
        <ele>2067.47</ele>
        <time>2019-06-24T10:28:07Z</time>
      </trkpt>
      <trkpt lat="45.66323" lon="6.59496">
        <ele>2069.71</ele>
        <time>2019-06-24T10:28:26Z</time>
      </trkpt>
      <trkpt lat="45.66326" lon="6.59497">
        <ele>2070.29</ele>
        <time>2019-06-24T10:28:30Z</time>
      </trkpt>
      <trkpt lat="45.66332" lon="6.59499">
        <ele>2070.71</ele>
        <time>2019-06-24T10:28:36Z</time>
      </trkpt>
      <trkpt lat="45.66347" lon="6.59506">
        <ele>2069.91</ele>
        <time>2019-06-24T10:28:51Z</time>
      </trkpt>
      <trkpt lat="45.66359" lon="6.59512">
        <ele>2069.28</ele>
        <time>2019-06-24T10:29:04Z</time>
      </trkpt>
      <trkpt lat="45.66374" lon="6.59518">
        <ele>2068.88</ele>
        <time>2019-06-24T10:29:18Z</time>
      </trkpt>
      <trkpt lat="45.6639" lon="6.59525">
        <ele>2067.08</ele>
        <time>2019-06-24T10:29:32Z</time>
      </trkpt>
      <trkpt lat="45.66393" lon="6.59528">
        <ele>2066.81</ele>
        <time>2019-06-24T10:29:35Z</time>
      </trkpt>
      <trkpt lat="45.66408" lon="6.59536">
        <ele>2067.54</ele>
        <time>2019-06-24T10:29:48Z</time>
      </trkpt>
      <trkpt lat="45.66421" lon="6.59543">
        <ele>2068.12</ele>
        <time>2019-06-24T10:30:01Z</time>
      </trkpt>
      <trkpt lat="45.66435" lon="6.59548">
        <ele>2068.92</ele>
        <time>2019-06-24T10:30:13Z</time>
      </trkpt>
      <trkpt lat="45.66449" lon="6.59551">
        <ele>2070.41</ele>
        <time>2019-06-24T10:30:26Z</time>
      </trkpt>
      <trkpt lat="45.66458" lon="6.59554">
        <ele>2071.46</ele>
        <time>2019-06-24T10:30:35Z</time>
      </trkpt>
      <trkpt lat="45.66461" lon="6.59554">
        <ele>2072.01</ele>
        <time>2019-06-24T10:30:38Z</time>
      </trkpt>
      <trkpt lat="45.66475" lon="6.59559">
        <ele>2073.66</ele>
        <time>2019-06-24T10:30:53Z</time>
      </trkpt>
      <trkpt lat="45.66479" lon="6.5956">
        <ele>2074.12</ele>
        <time>2019-06-24T10:30:57Z</time>
      </trkpt>
      <trkpt lat="45.66487" lon="6.59564">
        <ele>2074.95</ele>
        <time>2019-06-24T10:31:05Z</time>
      </trkpt>
      <trkpt lat="45.66497" lon="6.59562">
        <ele>2076</ele>
        <time>2019-06-24T10:31:19Z</time>
      </trkpt>
      <trkpt lat="45.66503" lon="6.59562">
        <ele>2075.81</ele>
        <time>2019-06-24T10:31:45Z</time>
      </trkpt>
      <trkpt lat="45.665" lon="6.5956">
        <ele>2073.89</ele>
        <time>2019-06-24T10:32:01Z</time>
      </trkpt>
      <trkpt lat="45.665" lon="6.5956">
        <ele>2077.71</ele>
        <time>2019-06-24T10:32:03Z</time>
      </trkpt>
      <trkpt lat="45.66499" lon="6.59563">
        <ele>2075.61</ele>
        <time>2019-06-24T10:32:20Z</time>
      </trkpt>
      <trkpt lat="45.66499" lon="6.59559">
        <ele>2075.98</ele>
        <time>2019-06-24T10:32:34Z</time>
      </trkpt>
      <trkpt lat="45.66501" lon="6.59559">
        <ele>2074.88</ele>
        <time>2019-06-24T10:32:56Z</time>
      </trkpt>
      <trkpt lat="45.66502" lon="6.59556">
        <ele>2074.9</ele>
        <time>2019-06-24T10:34:01Z</time>
      </trkpt>
      <trkpt lat="45.66503" lon="6.59557">
        <ele>2076.02</ele>
        <time>2019-06-24T10:34:24Z</time>
      </trkpt>
      <trkpt lat="45.66505" lon="6.59559">
        <ele>2076.12</ele>
        <time>2019-06-24T10:34:44Z</time>
      </trkpt>
      <trkpt lat="45.6651" lon="6.59565">
        <ele>2079.2</ele>
        <time>2019-06-24T10:35:00Z</time>
      </trkpt>
      <trkpt lat="45.66522" lon="6.5957">
        <ele>2082.17</ele>
        <time>2019-06-24T10:35:19Z</time>
      </trkpt>
      <trkpt lat="45.66534" lon="6.5957">
        <ele>2084.59</ele>
        <time>2019-06-24T10:35:38Z</time>
      </trkpt>
      <trkpt lat="45.66545" lon="6.59574">
        <ele>2086.87</ele>
        <time>2019-06-24T10:35:54Z</time>
      </trkpt>
      <trkpt lat="45.6656" lon="6.59578">
        <ele>2088.66</ele>
        <time>2019-06-24T10:36:12Z</time>
      </trkpt>
      <trkpt lat="45.66572" lon="6.59581">
        <ele>2090.71</ele>
        <time>2019-06-24T10:36:29Z</time>
      </trkpt>
      <trkpt lat="45.66587" lon="6.59585">
        <ele>2092.16</ele>
        <time>2019-06-24T10:36:46Z</time>
      </trkpt>
      <trkpt lat="45.66603" lon="6.59591">
        <ele>2093.73</ele>
        <time>2019-06-24T10:37:05Z</time>
      </trkpt>
      <trkpt lat="45.66617" lon="6.59598">
        <ele>2095.59</ele>
        <time>2019-06-24T10:37:24Z</time>
      </trkpt>
      <trkpt lat="45.66629" lon="6.59607">
        <ele>2098.77</ele>
        <time>2019-06-24T10:37:42Z</time>
      </trkpt>
      <trkpt lat="45.66639" lon="6.59613">
        <ele>2101.52</ele>
        <time>2019-06-24T10:38:00Z</time>
      </trkpt>
      <trkpt lat="45.66654" lon="6.59624">
        <ele>2104.74</ele>
        <time>2019-06-24T10:38:24Z</time>
      </trkpt>
      <trkpt lat="45.66662" lon="6.59628">
        <ele>2107.9</ele>
        <time>2019-06-24T10:38:42Z</time>
      </trkpt>
      <trkpt lat="45.66669" lon="6.5963">
        <ele>2109.37</ele>
        <time>2019-06-24T10:38:53Z</time>
      </trkpt>
      <trkpt lat="45.66671" lon="6.59632">
        <ele>2109.34</ele>
        <time>2019-06-24T10:38:55Z</time>
      </trkpt>
      <trkpt lat="45.66682" lon="6.59642">
        <ele>2109.37</ele>
        <time>2019-06-24T10:39:12Z</time>
      </trkpt>
      <trkpt lat="45.66691" lon="6.59651">
        <ele>2109.44</ele>
        <time>2019-06-24T10:39:27Z</time>
      </trkpt>
      <trkpt lat="45.66691" lon="6.59654">
        <ele>2108.77</ele>
        <time>2019-06-24T10:39:42Z</time>
      </trkpt>
      <trkpt lat="45.66694" lon="6.59659">
        <ele>2107.76</ele>
        <time>2019-06-24T10:39:55Z</time>
      </trkpt>
      <trkpt lat="45.66698" lon="6.59664">
        <ele>2107.3</ele>
        <time>2019-06-24T10:40:02Z</time>
      </trkpt>
      <trkpt lat="45.66706" lon="6.59672">
        <ele>2106.04</ele>
        <time>2019-06-24T10:40:10Z</time>
      </trkpt>
      <trkpt lat="45.66705" lon="6.59677">
        <ele>2105.77</ele>
        <time>2019-06-24T10:40:23Z</time>
      </trkpt>
      <trkpt lat="45.66712" lon="6.5968">
        <ele>2105.78</ele>
        <time>2019-06-24T10:40:34Z</time>
      </trkpt>
      <trkpt lat="45.66719" lon="6.59692">
        <ele>2106.27</ele>
        <time>2019-06-24T10:40:51Z</time>
      </trkpt>
      <trkpt lat="45.66721" lon="6.59693">
        <ele>2107.16</ele>
        <time>2019-06-24T10:41:10Z</time>
      </trkpt>
      <trkpt lat="45.66722" lon="6.59692">
        <ele>2107.13</ele>
        <time>2019-06-24T10:41:36Z</time>
      </trkpt>
      <trkpt lat="45.66725" lon="6.59695">
        <ele>2107.49</ele>
        <time>2019-06-24T10:41:56Z</time>
      </trkpt>
      <trkpt lat="45.66731" lon="6.59704">
        <ele>2108.83</ele>
        <time>2019-06-24T10:42:12Z</time>
      </trkpt>
      <trkpt lat="45.66733" lon="6.59705">
        <ele>2108.77</ele>
        <time>2019-06-24T10:42:19Z</time>
      </trkpt>
      <trkpt lat="45.66737" lon="6.59709">
        <ele>2107.97</ele>
        <time>2019-06-24T10:42:24Z</time>
      </trkpt>
      <trkpt lat="45.66743" lon="6.59716">
        <ele>2107.76</ele>
        <time>2019-06-24T10:42:40Z</time>
      </trkpt>
      <trkpt lat="45.66742" lon="6.59716">
        <ele>2107.76</ele>
        <time>2019-06-24T10:42:50Z</time>
      </trkpt>
      <trkpt lat="45.66744" lon="6.59718">
        <ele>2107.73</ele>
        <time>2019-06-24T10:42:56Z</time>
      </trkpt>
      <trkpt lat="45.66746" lon="6.5972">
        <ele>2107.59</ele>
        <time>2019-06-24T10:42:58Z</time>
      </trkpt>
      <trkpt lat="45.6675" lon="6.59723">
        <ele>2107.27</ele>
        <time>2019-06-24T10:43:02Z</time>
      </trkpt>
      <trkpt lat="45.66765" lon="6.5973">
        <ele>2105.5</ele>
        <time>2019-06-24T10:43:15Z</time>
      </trkpt>
      <trkpt lat="45.66771" lon="6.59733">
        <ele>2105.35</ele>
        <time>2019-06-24T10:43:27Z</time>
      </trkpt>
      <trkpt lat="45.66781" lon="6.59741">
        <ele>2103.1</ele>
        <time>2019-06-24T10:43:36Z</time>
      </trkpt>
      <trkpt lat="45.66789" lon="6.59753">
        <ele>2100.4</ele>
        <time>2019-06-24T10:43:49Z</time>
      </trkpt>
      <trkpt lat="45.66796" lon="6.59758">
        <ele>2099.46</ele>
        <time>2019-06-24T10:43:55Z</time>
      </trkpt>
      <trkpt lat="45.66807" lon="6.59772">
        <ele>2097.97</ele>
        <time>2019-06-24T10:44:09Z</time>
      </trkpt>
      <trkpt lat="45.66806" lon="6.59773">
        <ele>2098.15</ele>
        <time>2019-06-24T10:44:36Z</time>
      </trkpt>
      <trkpt lat="45.66806" lon="6.59772">
        <ele>2097.17</ele>
        <time>2019-06-24T10:45:00Z</time>
      </trkpt>
      <trkpt lat="45.66806" lon="6.59771">
        <ele>2097.06</ele>
        <time>2019-06-24T10:45:48Z</time>
      </trkpt>
      <trkpt lat="45.66806" lon="6.59769">
        <ele>2097.1</ele>
        <time>2019-06-24T10:46:34Z</time>
      </trkpt>
      <trkpt lat="45.66806" lon="6.59769">
        <ele>2096.97</ele>
        <time>2019-06-24T10:47:33Z</time>
      </trkpt>
      <trkpt lat="45.66807" lon="6.59769">
        <ele>2096.99</ele>
        <time>2019-06-24T10:48:35Z</time>
      </trkpt>
      <trkpt lat="45.66806" lon="6.59771">
        <ele>2097.6</ele>
        <time>2019-06-24T10:49:42Z</time>
      </trkpt>
      <trkpt lat="45.66805" lon="6.59773">
        <ele>2097.37</ele>
        <time>2019-06-24T10:51:01Z</time>
      </trkpt>
      <trkpt lat="45.66805" lon="6.59772">
        <ele>2097.37</ele>
        <time>2019-06-24T10:52:09Z</time>
      </trkpt>
      <trkpt lat="45.66805" lon="6.59773">
        <ele>2097.46</ele>
        <time>2019-06-24T10:53:16Z</time>
      </trkpt>
      <trkpt lat="45.66805" lon="6.59773">
        <ele>2097.49</ele>
        <time>2019-06-24T10:54:15Z</time>
      </trkpt>
      <trkpt lat="45.66805" lon="6.59773">
        <ele>2097.48</ele>
        <time>2019-06-24T10:55:12Z</time>
      </trkpt>
      <trkpt lat="45.66805" lon="6.59773">
        <ele>2097.65</ele>
        <time>2019-06-24T10:56:18Z</time>
      </trkpt>
      <trkpt lat="45.66805" lon="6.59774">
        <ele>2097.82</ele>
        <time>2019-06-24T10:57:25Z</time>
      </trkpt>
      <trkpt lat="45.66804" lon="6.59774">
        <ele>2097.63</ele>
        <time>2019-06-24T10:58:35Z</time>
      </trkpt>
      <trkpt lat="45.66804" lon="6.59774">
        <ele>2097.63</ele>
        <time>2019-06-24T10:59:38Z</time>
      </trkpt>
      <trkpt lat="45.66804" lon="6.59773">
        <ele>2097.78</ele>
        <time>2019-06-24T11:00:39Z</time>
      </trkpt>
      <trkpt lat="45.66805" lon="6.59774">
        <ele>2097.8</ele>
        <time>2019-06-24T11:01:40Z</time>
      </trkpt>
      <trkpt lat="45.66805" lon="6.59774">
        <ele>2097.51</ele>
        <time>2019-06-24T11:02:37Z</time>
      </trkpt>
      <trkpt lat="45.66805" lon="6.59774">
        <ele>2097.3</ele>
        <time>2019-06-24T11:03:40Z</time>
      </trkpt>
      <trkpt lat="45.66805" lon="6.59774">
        <ele>2097.46</ele>
        <time>2019-06-24T11:04:34Z</time>
      </trkpt>
      <trkpt lat="45.66805" lon="6.59774">
        <ele>2097.57</ele>
        <time>2019-06-24T11:05:38Z</time>
      </trkpt>
      <trkpt lat="45.66805" lon="6.59774">
        <ele>2097.58</ele>
        <time>2019-06-24T11:06:38Z</time>
      </trkpt>
      <trkpt lat="45.66805" lon="6.59774">
        <ele>2097.32</ele>
        <time>2019-06-24T11:07:40Z</time>
      </trkpt>
      <trkpt lat="45.66805" lon="6.59774">
        <ele>2097.49</ele>
        <time>2019-06-24T11:08:40Z</time>
      </trkpt>
      <trkpt lat="45.66806" lon="6.59774">
        <ele>2097.63</ele>
        <time>2019-06-24T11:09:37Z</time>
      </trkpt>
      <trkpt lat="45.66806" lon="6.59774">
        <ele>2097.81</ele>
        <time>2019-06-24T11:10:42Z</time>
      </trkpt>
      <trkpt lat="45.66806" lon="6.59775">
        <ele>2097.38</ele>
        <time>2019-06-24T11:11:44Z</time>
      </trkpt>
      <trkpt lat="45.66806" lon="6.59775">
        <ele>2097.32</ele>
        <time>2019-06-24T11:12:42Z</time>
      </trkpt>
      <trkpt lat="45.66806" lon="6.59775">
        <ele>2097.63</ele>
        <time>2019-06-24T11:13:40Z</time>
      </trkpt>
      <trkpt lat="45.66806" lon="6.59774">
        <ele>2097.73</ele>
        <time>2019-06-24T11:14:37Z</time>
      </trkpt>
      <trkpt lat="45.66807" lon="6.59771">
        <ele>2097.84</ele>
        <time>2019-06-24T11:15:27Z</time>
      </trkpt>
      <trkpt lat="45.66807" lon="6.59771">
        <ele>2097.81</ele>
        <time>2019-06-24T11:16:13Z</time>
      </trkpt>
      <trkpt lat="45.66806" lon="6.59772">
        <ele>2098.01</ele>
        <time>2019-06-24T11:16:34Z</time>
      </trkpt>
      <trkpt lat="45.66805" lon="6.5977">
        <ele>2097.89</ele>
        <time>2019-06-24T11:17:16Z</time>
      </trkpt>
      <trkpt lat="45.66805" lon="6.5977">
        <ele>2097.75</ele>
        <time>2019-06-24T11:18:07Z</time>
      </trkpt>
      <trkpt lat="45.66805" lon="6.59771">
        <ele>2097.87</ele>
        <time>2019-06-24T11:18:51Z</time>
      </trkpt>
      <trkpt lat="45.66805" lon="6.59771">
        <ele>2097.64</ele>
        <time>2019-06-24T11:19:42Z</time>
      </trkpt>
      <trkpt lat="45.66806" lon="6.5977">
        <ele>2098.09</ele>
        <time>2019-06-24T11:20:08Z</time>
      </trkpt>
      <trkpt lat="45.66805" lon="6.5977">
        <ele>2097.94</ele>
        <time>2019-06-24T11:21:09Z</time>
      </trkpt>
      <trkpt lat="45.66805" lon="6.59771">
        <ele>2097.79</ele>
        <time>2019-06-24T11:21:54Z</time>
      </trkpt>
      <trkpt lat="45.66806" lon="6.59772">
        <ele>2097.89</ele>
        <time>2019-06-24T11:22:52Z</time>
      </trkpt>
      <trkpt lat="45.66806" lon="6.59772">
        <ele>2097.92</ele>
        <time>2019-06-24T11:23:51Z</time>
      </trkpt>
      <trkpt lat="45.66806" lon="6.59771">
        <ele>2097.91</ele>
        <time>2019-06-24T11:24:44Z</time>
      </trkpt>
      <trkpt lat="45.66806" lon="6.59771">
        <ele>2097.8</ele>
        <time>2019-06-24T11:25:44Z</time>
      </trkpt>
      <trkpt lat="45.66806" lon="6.5977">
        <ele>2097.89</ele>
        <time>2019-06-24T11:26:34Z</time>
      </trkpt>
      <trkpt lat="45.66806" lon="6.59771">
        <ele>2098.15</ele>
        <time>2019-06-24T11:27:40Z</time>
      </trkpt>
      <trkpt lat="45.66806" lon="6.59771">
        <ele>2097.8</ele>
        <time>2019-06-24T11:28:41Z</time>
      </trkpt>
      <trkpt lat="45.66807" lon="6.5977">
        <ele>2097.68</ele>
        <time>2019-06-24T11:29:44Z</time>
      </trkpt>
      <trkpt lat="45.66806" lon="6.59769">
        <ele>2097.68</ele>
        <time>2019-06-24T11:30:21Z</time>
      </trkpt>
      <trkpt lat="45.66806" lon="6.5977">
        <ele>2097.81</ele>
        <time>2019-06-24T11:31:19Z</time>
      </trkpt>
      <trkpt lat="45.66807" lon="6.59768">
        <ele>2098.67</ele>
        <time>2019-06-24T11:31:34Z</time>
      </trkpt>
      <trkpt lat="45.66808" lon="6.5977">
        <ele>2099.15</ele>
        <time>2019-06-24T11:32:10Z</time>
      </trkpt>
      <trkpt lat="45.66806" lon="6.59774">
        <ele>2098.82</ele>
        <time>2019-06-24T11:32:48Z</time>
      </trkpt>
      <trkpt lat="45.66806" lon="6.59774">
        <ele>2098.39</ele>
        <time>2019-06-24T11:33:00Z</time>
      </trkpt>
      <trkpt lat="45.66806" lon="6.59773">
        <ele>2098.2</ele>
        <time>2019-06-24T11:33:26Z</time>
      </trkpt>
      <trkpt lat="45.66806" lon="6.59773">
        <ele>2098</ele>
        <time>2019-06-24T11:34:23Z</time>
      </trkpt>
      <trkpt lat="45.66805" lon="6.59772">
        <ele>2098.16</ele>
        <time>2019-06-24T11:34:59Z</time>
      </trkpt>
      <trkpt lat="45.66805" lon="6.59772">
        <ele>2098.87</ele>
        <time>2019-06-24T11:36:01Z</time>
      </trkpt>
      <trkpt lat="45.66805" lon="6.59772">
        <ele>2098.89</ele>
        <time>2019-06-24T11:37:01Z</time>
      </trkpt>
      <trkpt lat="45.66806" lon="6.59771">
        <ele>2099.09</ele>
        <time>2019-06-24T11:37:50Z</time>
      </trkpt>
      <trkpt lat="45.66806" lon="6.59771">
        <ele>2099.07</ele>
        <time>2019-06-24T11:38:54Z</time>
      </trkpt>
      <trkpt lat="45.66806" lon="6.59772">
        <ele>2099.2</ele>
        <time>2019-06-24T11:39:51Z</time>
      </trkpt>
      <trkpt lat="45.66806" lon="6.59771">
        <ele>2099.19</ele>
        <time>2019-06-24T11:40:46Z</time>
      </trkpt>
      <trkpt lat="45.66806" lon="6.59772">
        <ele>2099.16</ele>
        <time>2019-06-24T11:41:45Z</time>
      </trkpt>
      <trkpt lat="45.66807" lon="6.59772">
        <ele>2099.39</ele>
        <time>2019-06-24T11:42:25Z</time>
      </trkpt>
      <trkpt lat="45.66809" lon="6.59774">
        <ele>2099.66</ele>
        <time>2019-06-24T11:42:48Z</time>
      </trkpt>
      <trkpt lat="45.66808" lon="6.59775">
        <ele>2099.44</ele>
        <time>2019-06-24T11:43:14Z</time>
      </trkpt>
      <trkpt lat="45.66808" lon="6.59775">
        <ele>2099.18</ele>
        <time>2019-06-24T11:43:30Z</time>
      </trkpt>
      <trkpt lat="45.66808" lon="6.59774">
        <ele>2098.62</ele>
        <time>2019-06-24T11:43:50Z</time>
      </trkpt>
      <trkpt lat="45.66807" lon="6.59773">
        <ele>2098.68</ele>
        <time>2019-06-24T11:44:29Z</time>
      </trkpt>
      <trkpt lat="45.66807" lon="6.59772">
        <ele>2099.03</ele>
        <time>2019-06-24T11:45:18Z</time>
      </trkpt>
      <trkpt lat="45.66808" lon="6.59772">
        <ele>2099</ele>
        <time>2019-06-24T11:46:13Z</time>
      </trkpt>
      <trkpt lat="45.66808" lon="6.59773">
        <ele>2099.06</ele>
        <time>2019-06-24T11:46:46Z</time>
      </trkpt>
      <trkpt lat="45.66808" lon="6.59774">
        <ele>2099.53</ele>
        <time>2019-06-24T11:46:59Z</time>
      </trkpt>
      <trkpt lat="45.66808" lon="6.59773">
        <ele>2099.8</ele>
        <time>2019-06-24T11:47:23Z</time>
      </trkpt>
      <trkpt lat="45.66813" lon="6.5977">
        <ele>2098.98</ele>
        <time>2019-06-24T11:47:44Z</time>
      </trkpt>
      <trkpt lat="45.6681" lon="6.59769">
        <ele>2098.98</ele>
        <time>2019-06-24T11:48:16Z</time>
      </trkpt>
      <trkpt lat="45.66809" lon="6.59767">
        <ele>2098.67</ele>
        <time>2019-06-24T11:48:43Z</time>
      </trkpt>
      <trkpt lat="45.6681" lon="6.59761">
        <ele>2098.19</ele>
        <time>2019-06-24T11:48:47Z</time>
      </trkpt>
      <trkpt lat="45.66814" lon="6.5975">
        <ele>2096.57</ele>
        <time>2019-06-24T11:48:57Z</time>
      </trkpt>
      <trkpt lat="45.66825" lon="6.59752">
        <ele>2095.09</ele>
        <time>2019-06-24T11:49:13Z</time>
      </trkpt>
      <trkpt lat="45.66825" lon="6.59751">
        <ele>2093.97</ele>
        <time>2019-06-24T11:49:43Z</time>
      </trkpt>
      <trkpt lat="45.66826" lon="6.5975">
        <ele>2093.8</ele>
        <time>2019-06-24T11:50:31Z</time>
      </trkpt>
      <trkpt lat="45.66825" lon="6.5975">
        <ele>2094.61</ele>
        <time>2019-06-24T11:51:00Z</time>
      </trkpt>
      <trkpt lat="45.66825" lon="6.5975">
        <ele>2094.44</ele>
        <time>2019-06-24T11:51:26Z</time>
      </trkpt>
      <trkpt lat="45.66829" lon="6.59749">
        <ele>2093.66</ele>
        <time>2019-06-24T11:51:54Z</time>
      </trkpt>
      <trkpt lat="45.66834" lon="6.59748">
        <ele>2093.09</ele>
        <time>2019-06-24T11:52:05Z</time>
      </trkpt>
      <trkpt lat="45.66837" lon="6.59747">
        <ele>2092.77</ele>
        <time>2019-06-24T11:52:13Z</time>
      </trkpt>
      <trkpt lat="45.66841" lon="6.59747">
        <ele>2092.83</ele>
        <time>2019-06-24T11:52:17Z</time>
      </trkpt>
      <trkpt lat="45.66856" lon="6.59745">
        <ele>2091.08</ele>
        <time>2019-06-24T11:52:33Z</time>
      </trkpt>
      <trkpt lat="45.6687" lon="6.59744">
        <ele>2088.04</ele>
        <time>2019-06-24T11:52:50Z</time>
      </trkpt>
      <trkpt lat="45.6688" lon="6.59743">
        <ele>2085.17</ele>
        <time>2019-06-24T11:53:08Z</time>
      </trkpt>
      <trkpt lat="45.66887" lon="6.59742">
        <ele>2082.05</ele>
        <time>2019-06-24T11:53:18Z</time>
      </trkpt>
      <trkpt lat="45.66892" lon="6.59737">
        <ele>2079.56</ele>
        <time>2019-06-24T11:53:34Z</time>
      </trkpt>
      <trkpt lat="45.66896" lon="6.59738">
        <ele>2077.46</ele>
        <time>2019-06-24T11:53:43Z</time>
      </trkpt>
      <trkpt lat="45.66899" lon="6.59741">
        <ele>2076.61</ele>
        <time>2019-06-24T11:53:47Z</time>
      </trkpt>
      <trkpt lat="45.66905" lon="6.59742">
        <ele>2074.24</ele>
        <time>2019-06-24T11:53:52Z</time>
      </trkpt>
      <trkpt lat="45.66906" lon="6.59742">
        <ele>2073.77</ele>
        <time>2019-06-24T11:53:53Z</time>
      </trkpt>
      <trkpt lat="45.66915" lon="6.59736">
        <ele>2070.56</ele>
        <time>2019-06-24T11:54:04Z</time>
      </trkpt>
      <trkpt lat="45.66915" lon="6.59735">
        <ele>2070.71</ele>
        <time>2019-06-24T11:54:09Z</time>
      </trkpt>
      <trkpt lat="45.66918" lon="6.59734">
        <ele>2070.17</ele>
        <time>2019-06-24T11:54:12Z</time>
      </trkpt>
      <trkpt lat="45.66924" lon="6.59732">
        <ele>2069.37</ele>
        <time>2019-06-24T11:54:17Z</time>
      </trkpt>
      <trkpt lat="45.66938" lon="6.59729">
        <ele>2067.35</ele>
        <time>2019-06-24T11:54:29Z</time>
      </trkpt>
      <trkpt lat="45.66941" lon="6.59728">
        <ele>2067.32</ele>
        <time>2019-06-24T11:54:40Z</time>
      </trkpt>
      <trkpt lat="45.6695" lon="6.59733">
        <ele>2066.62</ele>
        <time>2019-06-24T11:54:51Z</time>
      </trkpt>
      <trkpt lat="45.66965" lon="6.59745">
        <ele>2065.52</ele>
        <time>2019-06-24T11:55:07Z</time>
      </trkpt>
      <trkpt lat="45.6698" lon="6.5975">
        <ele>2065.55</ele>
        <time>2019-06-24T11:55:21Z</time>
      </trkpt>
      <trkpt lat="45.66984" lon="6.5975">
        <ele>2065.56</ele>
        <time>2019-06-24T11:55:30Z</time>
      </trkpt>
      <trkpt lat="45.66989" lon="6.59752">
        <ele>2065.34</ele>
        <time>2019-06-24T11:55:36Z</time>
      </trkpt>
      <trkpt lat="45.66992" lon="6.59752">
        <ele>2065.15</ele>
        <time>2019-06-24T11:55:39Z</time>
      </trkpt>
      <trkpt lat="45.66995" lon="6.59754">
        <ele>2064.95</ele>
        <time>2019-06-24T11:55:42Z</time>
      </trkpt>
      <trkpt lat="45.67007" lon="6.59757">
        <ele>2063.99</ele>
        <time>2019-06-24T11:55:57Z</time>
      </trkpt>
      <trkpt lat="45.67018" lon="6.59763">
        <ele>2063.5</ele>
        <time>2019-06-24T11:56:10Z</time>
      </trkpt>
      <trkpt lat="45.67024" lon="6.59763">
        <ele>2063.37</ele>
        <time>2019-06-24T11:56:17Z</time>
      </trkpt>
      <trkpt lat="45.6704" lon="6.59762">
        <ele>2063.31</ele>
        <time>2019-06-24T11:56:33Z</time>
      </trkpt>
      <trkpt lat="45.67043" lon="6.59761">
        <ele>2063.22</ele>
        <time>2019-06-24T11:56:37Z</time>
      </trkpt>
      <trkpt lat="45.67047" lon="6.5976">
        <ele>2062.74</ele>
        <time>2019-06-24T11:56:42Z</time>
      </trkpt>
      <trkpt lat="45.67056" lon="6.59757">
        <ele>2061.74</ele>
        <time>2019-06-24T11:56:53Z</time>
      </trkpt>
      <trkpt lat="45.67066" lon="6.5976">
        <ele>2062.52</ele>
        <time>2019-06-24T11:57:02Z</time>
      </trkpt>
      <trkpt lat="45.67077" lon="6.59763">
        <ele>2063.12</ele>
        <time>2019-06-24T11:57:14Z</time>
      </trkpt>
      <trkpt lat="45.67086" lon="6.59767">
        <ele>2064.28</ele>
        <time>2019-06-24T11:57:24Z</time>
      </trkpt>
      <trkpt lat="45.6709" lon="6.59769">
        <ele>2065.06</ele>
        <time>2019-06-24T11:57:29Z</time>
      </trkpt>
      <trkpt lat="45.67092" lon="6.59769">
        <ele>2065.22</ele>
        <time>2019-06-24T11:57:31Z</time>
      </trkpt>
      <trkpt lat="45.67102" lon="6.59774">
        <ele>2066.54</ele>
        <time>2019-06-24T11:57:43Z</time>
      </trkpt>
      <trkpt lat="45.67112" lon="6.59781">
        <ele>2068.2</ele>
        <time>2019-06-24T11:57:59Z</time>
      </trkpt>
      <trkpt lat="45.67121" lon="6.59787">
        <ele>2071.34</ele>
        <time>2019-06-24T11:58:15Z</time>
      </trkpt>
      <trkpt lat="45.67129" lon="6.5979">
        <ele>2073.79</ele>
        <time>2019-06-24T11:58:30Z</time>
      </trkpt>
      <trkpt lat="45.67138" lon="6.59796">
        <ele>2077.12</ele>
        <time>2019-06-24T11:58:46Z</time>
      </trkpt>
      <trkpt lat="45.67146" lon="6.59799">
        <ele>2079.57</ele>
        <time>2019-06-24T11:59:01Z</time>
      </trkpt>
      <trkpt lat="45.67155" lon="6.59804">
        <ele>2081.63</ele>
        <time>2019-06-24T11:59:19Z</time>
      </trkpt>
      <trkpt lat="45.6716" lon="6.59808">
        <ele>2081.41</ele>
        <time>2019-06-24T11:59:35Z</time>
      </trkpt>
      <trkpt lat="45.67162" lon="6.59812">
        <ele>2081.44</ele>
        <time>2019-06-24T11:59:40Z</time>
      </trkpt>
      <trkpt lat="45.67168" lon="6.59818">
        <ele>2082.04</ele>
        <time>2019-06-24T11:59:46Z</time>
      </trkpt>
      <trkpt lat="45.67179" lon="6.59829">
        <ele>2083.23</ele>
        <time>2019-06-24T11:59:59Z</time>
      </trkpt>
      <trkpt lat="45.67181" lon="6.5983">
        <ele>2083.34</ele>
        <time>2019-06-24T12:00:01Z</time>
      </trkpt>
      <trkpt lat="45.67193" lon="6.59841">
        <ele>2086.45</ele>
        <time>2019-06-24T12:00:18Z</time>
      </trkpt>
      <trkpt lat="45.67203" lon="6.59844">
        <ele>2089.55</ele>
        <time>2019-06-24T12:00:31Z</time>
      </trkpt>
      <trkpt lat="45.67207" lon="6.59846">
        <ele>2090.36</ele>
        <time>2019-06-24T12:00:36Z</time>
      </trkpt>
      <trkpt lat="45.67212" lon="6.59848">
        <ele>2090.37</ele>
        <time>2019-06-24T12:00:41Z</time>
      </trkpt>
      <trkpt lat="45.67223" lon="6.5986">
        <ele>2091.95</ele>
        <time>2019-06-24T12:00:56Z</time>
      </trkpt>
      <trkpt lat="45.67231" lon="6.59866">
        <ele>2092.69</ele>
        <time>2019-06-24T12:01:06Z</time>
      </trkpt>
      <trkpt lat="45.6724" lon="6.59873">
        <ele>2094.62</ele>
        <time>2019-06-24T12:01:18Z</time>
      </trkpt>
      <trkpt lat="45.67253" lon="6.59881">
        <ele>2097.25</ele>
        <time>2019-06-24T12:01:36Z</time>
      </trkpt>
      <trkpt lat="45.67257" lon="6.5988">
        <ele>2097.79</ele>
        <time>2019-06-24T12:01:42Z</time>
      </trkpt>
      <trkpt lat="45.6727" lon="6.59884">
        <ele>2100.05</ele>
        <time>2019-06-24T12:01:57Z</time>
      </trkpt>
      <trkpt lat="45.67271" lon="6.59885">
        <ele>2100.54</ele>
        <time>2019-06-24T12:01:59Z</time>
      </trkpt>
      <trkpt lat="45.67284" lon="6.59893">
        <ele>2100.92</ele>
        <time>2019-06-24T12:02:12Z</time>
      </trkpt>
      <trkpt lat="45.67292" lon="6.59895">
        <ele>2100.27</ele>
        <time>2019-06-24T12:02:19Z</time>
      </trkpt>
      <trkpt lat="45.67304" lon="6.59902">
        <ele>2100.3</ele>
        <time>2019-06-24T12:02:32Z</time>
      </trkpt>
      <trkpt lat="45.67318" lon="6.59911">
        <ele>2101.47</ele>
        <time>2019-06-24T12:02:47Z</time>
      </trkpt>
      <trkpt lat="45.67322" lon="6.59914">
        <ele>2102.13</ele>
        <time>2019-06-24T12:02:51Z</time>
      </trkpt>
      <trkpt lat="45.67327" lon="6.59927">
        <ele>2103.69</ele>
        <time>2019-06-24T12:03:04Z</time>
      </trkpt>
      <trkpt lat="45.67331" lon="6.5993">
        <ele>2104.41</ele>
        <time>2019-06-24T12:03:20Z</time>
      </trkpt>
      <trkpt lat="45.67333" lon="6.59935">
        <ele>2104.51</ele>
        <time>2019-06-24T12:03:40Z</time>
      </trkpt>
      <trkpt lat="45.67336" lon="6.59939">
        <ele>2103.35</ele>
        <time>2019-06-24T12:03:48Z</time>
      </trkpt>
      <trkpt lat="45.67339" lon="6.59945">
        <ele>2102.7</ele>
        <time>2019-06-24T12:03:53Z</time>
      </trkpt>
      <trkpt lat="45.67342" lon="6.59948">
        <ele>2102.23</ele>
        <time>2019-06-24T12:03:56Z</time>
      </trkpt>
      <trkpt lat="45.67347" lon="6.59952">
        <ele>2101.81</ele>
        <time>2019-06-24T12:04:04Z</time>
      </trkpt>
      <trkpt lat="45.67359" lon="6.59959">
        <ele>2102.16</ele>
        <time>2019-06-24T12:04:15Z</time>
      </trkpt>
      <trkpt lat="45.67372" lon="6.5997">
        <ele>2101.73</ele>
        <time>2019-06-24T12:04:27Z</time>
      </trkpt>
      <trkpt lat="45.67373" lon="6.59973">
        <ele>2101.55</ele>
        <time>2019-06-24T12:04:29Z</time>
      </trkpt>
      <trkpt lat="45.67388" lon="6.59988">
        <ele>2099.5</ele>
        <time>2019-06-24T12:04:44Z</time>
      </trkpt>
      <trkpt lat="45.67399" lon="6.59996">
        <ele>2098.51</ele>
        <time>2019-06-24T12:04:55Z</time>
      </trkpt>
      <trkpt lat="45.67417" lon="6.6">
        <ele>2099.49</ele>
        <time>2019-06-24T12:05:10Z</time>
      </trkpt>
      <trkpt lat="45.67429" lon="6.60003">
        <ele>2102.6</ele>
        <time>2019-06-24T12:05:22Z</time>
      </trkpt>
      <trkpt lat="45.67434" lon="6.60004">
        <ele>2102.61</ele>
        <time>2019-06-24T12:05:39Z</time>
      </trkpt>
      <trkpt lat="45.67438" lon="6.60007">
        <ele>2102.79</ele>
        <time>2019-06-24T12:05:54Z</time>
      </trkpt>
      <trkpt lat="45.67459" lon="6.60017">
        <ele>2102.72</ele>
        <time>2019-06-24T12:06:12Z</time>
      </trkpt>
      <trkpt lat="45.67475" lon="6.60025">
        <ele>2101.78</ele>
        <time>2019-06-24T12:06:24Z</time>
      </trkpt>
      <trkpt lat="45.67491" lon="6.6003">
        <ele>2101.49</ele>
        <time>2019-06-24T12:06:37Z</time>
      </trkpt>
      <trkpt lat="45.67502" lon="6.60035">
        <ele>2102.73</ele>
        <time>2019-06-24T12:06:47Z</time>
      </trkpt>
      <trkpt lat="45.67515" lon="6.6004">
        <ele>2105.6</ele>
        <time>2019-06-24T12:07:00Z</time>
      </trkpt>
      <trkpt lat="45.67524" lon="6.60045">
        <ele>2108.22</ele>
        <time>2019-06-24T12:07:12Z</time>
      </trkpt>
      <trkpt lat="45.67525" lon="6.60045">
        <ele>2108.4</ele>
        <time>2019-06-24T12:07:13Z</time>
      </trkpt>
      <trkpt lat="45.67526" lon="6.60047">
        <ele>2108.64</ele>
        <time>2019-06-24T12:07:15Z</time>
      </trkpt>
      <trkpt lat="45.67529" lon="6.6005">
        <ele>2108.91</ele>
        <time>2019-06-24T12:07:18Z</time>
      </trkpt>
      <trkpt lat="45.6754" lon="6.60061">
        <ele>2110.2</ele>
        <time>2019-06-24T12:07:31Z</time>
      </trkpt>
      <trkpt lat="45.67543" lon="6.60063">
        <ele>2110.24</ele>
        <time>2019-06-24T12:07:48Z</time>
      </trkpt>
      <trkpt lat="45.67557" lon="6.60072">
        <ele>2109.89</ele>
        <time>2019-06-24T12:08:01Z</time>
      </trkpt>
      <trkpt lat="45.67575" lon="6.60069">
        <ele>2110.46</ele>
        <time>2019-06-24T12:08:19Z</time>
      </trkpt>
      <trkpt lat="45.6758" lon="6.6007">
        <ele>2110.85</ele>
        <time>2019-06-24T12:08:32Z</time>
      </trkpt>
      <trkpt lat="45.67586" lon="6.60073">
        <ele>2110.62</ele>
        <time>2019-06-24T12:08:44Z</time>
      </trkpt>
      <trkpt lat="45.67586" lon="6.60072">
        <ele>2110.46</ele>
        <time>2019-06-24T12:09:08Z</time>
      </trkpt>
      <trkpt lat="45.67587" lon="6.60074">
        <ele>2110.59</ele>
        <time>2019-06-24T12:09:34Z</time>
      </trkpt>
      <trkpt lat="45.67588" lon="6.60073">
        <ele>2110.08</ele>
        <time>2019-06-24T12:09:51Z</time>
      </trkpt>
      <trkpt lat="45.67589" lon="6.60072">
        <ele>2110.56</ele>
        <time>2019-06-24T12:10:18Z</time>
      </trkpt>
      <trkpt lat="45.67591" lon="6.60073">
        <ele>2109.85</ele>
        <time>2019-06-24T12:10:34Z</time>
      </trkpt>
      <trkpt lat="45.67591" lon="6.60073">
        <ele>2109.49</ele>
        <time>2019-06-24T12:10:56Z</time>
      </trkpt>
      <trkpt lat="45.67592" lon="6.60073">
        <ele>2109.67</ele>
        <time>2019-06-24T12:11:35Z</time>
      </trkpt>
      <trkpt lat="45.67592" lon="6.60074">
        <ele>2110.21</ele>
        <time>2019-06-24T12:12:28Z</time>
      </trkpt>
      <trkpt lat="45.67591" lon="6.60072">
        <ele>2109.89</ele>
        <time>2019-06-24T12:12:48Z</time>
      </trkpt>
      <trkpt lat="45.67589" lon="6.60072">
        <ele>2109.8</ele>
        <time>2019-06-24T12:13:45Z</time>
      </trkpt>
      <trkpt lat="45.6759" lon="6.60072">
        <ele>2109.73</ele>
        <time>2019-06-24T12:14:42Z</time>
      </trkpt>
      <trkpt lat="45.6759" lon="6.60072">
        <ele>2110.11</ele>
        <time>2019-06-24T12:15:36Z</time>
      </trkpt>
      <trkpt lat="45.6759" lon="6.60072">
        <ele>2109.99</ele>
        <time>2019-06-24T12:16:39Z</time>
      </trkpt>
      <trkpt lat="45.6759" lon="6.60073">
        <ele>2109.6</ele>
        <time>2019-06-24T12:17:42Z</time>
      </trkpt>
      <trkpt lat="45.67589" lon="6.60073">
        <ele>2109.47</ele>
        <time>2019-06-24T12:18:42Z</time>
      </trkpt>
      <trkpt lat="45.6759" lon="6.60074">
        <ele>2110.02</ele>
        <time>2019-06-24T12:19:33Z</time>
      </trkpt>
      <trkpt lat="45.67591" lon="6.60073">
        <ele>2110.32</ele>
        <time>2019-06-24T12:19:53Z</time>
      </trkpt>
      <trkpt lat="45.67592" lon="6.6007">
        <ele>2111.16</ele>
        <time>2019-06-24T12:20:16Z</time>
      </trkpt>
      <trkpt lat="45.67593" lon="6.60068">
        <ele>2111.3</ele>
        <time>2019-06-24T12:20:39Z</time>
      </trkpt>
      <trkpt lat="45.67593" lon="6.6007">
        <ele>2110.49</ele>
        <time>2019-06-24T12:21:05Z</time>
      </trkpt>
      <trkpt lat="45.67591" lon="6.6007">
        <ele>2110.47</ele>
        <time>2019-06-24T12:21:35Z</time>
      </trkpt>
      <trkpt lat="45.6759" lon="6.60073">
        <ele>2110.4</ele>
        <time>2019-06-24T12:21:57Z</time>
      </trkpt>
      <trkpt lat="45.67589" lon="6.60072">
        <ele>2110.08</ele>
        <time>2019-06-24T12:22:22Z</time>
      </trkpt>
      <trkpt lat="45.6759" lon="6.60072">
        <ele>2110.05</ele>
        <time>2019-06-24T12:22:51Z</time>
      </trkpt>
      <trkpt lat="45.67589" lon="6.60072">
        <ele>2110.19</ele>
        <time>2019-06-24T12:23:15Z</time>
      </trkpt>
      <trkpt lat="45.67585" lon="6.6007">
        <ele>2109.94</ele>
        <time>2019-06-24T12:23:32Z</time>
      </trkpt>
      <trkpt lat="45.67581" lon="6.60068">
        <ele>2110.67</ele>
        <time>2019-06-24T12:23:48Z</time>
      </trkpt>
      <trkpt lat="45.67584" lon="6.60069">
        <ele>2110.48</ele>
        <time>2019-06-24T12:24:13Z</time>
      </trkpt>
      <trkpt lat="45.67586" lon="6.60068">
        <ele>2110.63</ele>
        <time>2019-06-24T12:24:34Z</time>
      </trkpt>
      <trkpt lat="45.67588" lon="6.60067">
        <ele>2110.68</ele>
        <time>2019-06-24T12:24:58Z</time>
      </trkpt>
      <trkpt lat="45.67589" lon="6.60067">
        <ele>2110.42</ele>
        <time>2019-06-24T12:25:25Z</time>
      </trkpt>
      <trkpt lat="45.6759" lon="6.60069">
        <ele>2110.76</ele>
        <time>2019-06-24T12:25:49Z</time>
      </trkpt>
      <trkpt lat="45.6759" lon="6.60069">
        <ele>2110.62</ele>
        <time>2019-06-24T12:26:12Z</time>
      </trkpt>
      <trkpt lat="45.67589" lon="6.60068">
        <ele>2110.93</ele>
        <time>2019-06-24T12:26:35Z</time>
      </trkpt>
      <trkpt lat="45.67587" lon="6.6007">
        <ele>2110.29</ele>
        <time>2019-06-24T12:26:40Z</time>
      </trkpt>
      <trkpt lat="45.67583" lon="6.60068">
        <ele>2110.53</ele>
        <time>2019-06-24T12:26:46Z</time>
      </trkpt>
      <trkpt lat="45.67577" lon="6.60067">
        <ele>2110.76</ele>
        <time>2019-06-24T12:26:56Z</time>
      </trkpt>
      <trkpt lat="45.67574" lon="6.60068">
        <ele>2109.9</ele>
        <time>2019-06-24T12:26:59Z</time>
      </trkpt>
      <trkpt lat="45.67565" lon="6.60071">
        <ele>2108.65</ele>
        <time>2019-06-24T12:27:06Z</time>
      </trkpt>
      <trkpt lat="45.67546" lon="6.60066">
        <ele>2110.38</ele>
        <time>2019-06-24T12:27:26Z</time>
      </trkpt>
      <trkpt lat="45.67545" lon="6.60065">
        <ele>2110.01</ele>
        <time>2019-06-24T12:27:30Z</time>
      </trkpt>
      <trkpt lat="45.67542" lon="6.6006">
        <ele>2110.34</ele>
        <time>2019-06-24T12:27:38Z</time>
      </trkpt>
      <trkpt lat="45.67532" lon="6.60052">
        <ele>2108.52</ele>
        <time>2019-06-24T12:27:48Z</time>
      </trkpt>
      <trkpt lat="45.67514" lon="6.60038">
        <ele>2105.19</ele>
        <time>2019-06-24T12:28:05Z</time>
      </trkpt>
      <trkpt lat="45.67501" lon="6.60034">
        <ele>2102.17</ele>
        <time>2019-06-24T12:28:16Z</time>
      </trkpt>
      <trkpt lat="45.67481" lon="6.60025">
        <ele>2101.11</ele>
        <time>2019-06-24T12:28:33Z</time>
      </trkpt>
      <trkpt lat="45.67463" lon="6.60019">
        <ele>2102.26</ele>
        <time>2019-06-24T12:28:50Z</time>
      </trkpt>
      <trkpt lat="45.67443" lon="6.60008">
        <ele>2103.25</ele>
        <time>2019-06-24T12:29:08Z</time>
      </trkpt>
      <trkpt lat="45.6742" lon="6.6">
        <ele>2101.17</ele>
        <time>2019-06-24T12:29:28Z</time>
      </trkpt>
      <trkpt lat="45.67399" lon="6.59994">
        <ele>2098.79</ele>
        <time>2019-06-24T12:29:46Z</time>
      </trkpt>
      <trkpt lat="45.67388" lon="6.59986">
        <ele>2099.81</ele>
        <time>2019-06-24T12:30:02Z</time>
      </trkpt>
      <trkpt lat="45.67385" lon="6.59984">
        <ele>2099.7</ele>
        <time>2019-06-24T12:30:06Z</time>
      </trkpt>
      <trkpt lat="45.67375" lon="6.59974">
        <ele>2101.13</ele>
        <time>2019-06-24T12:30:17Z</time>
      </trkpt>
      <trkpt lat="45.67374" lon="6.59971">
        <ele>2101.74</ele>
        <time>2019-06-24T12:30:19Z</time>
      </trkpt>
      <trkpt lat="45.67369" lon="6.59965">
        <ele>2101.94</ele>
        <time>2019-06-24T12:30:26Z</time>
      </trkpt>
      <trkpt lat="45.67365" lon="6.59963">
        <ele>2102.19</ele>
        <time>2019-06-24T12:30:30Z</time>
      </trkpt>
      <trkpt lat="45.67341" lon="6.59946">
        <ele>2102.47</ele>
        <time>2019-06-24T12:30:52Z</time>
      </trkpt>
      <trkpt lat="45.67329" lon="6.5993">
        <ele>2104.46</ele>
        <time>2019-06-24T12:31:08Z</time>
      </trkpt>
      <trkpt lat="45.67321" lon="6.59913">
        <ele>2102.5</ele>
        <time>2019-06-24T12:31:22Z</time>
      </trkpt>
      <trkpt lat="45.67316" lon="6.59909">
        <ele>2101.05</ele>
        <time>2019-06-24T12:31:27Z</time>
      </trkpt>
      <trkpt lat="45.67294" lon="6.59895">
        <ele>2100.8</ele>
        <time>2019-06-24T12:31:46Z</time>
      </trkpt>
      <trkpt lat="45.67292" lon="6.59894">
        <ele>2100.73</ele>
        <time>2019-06-24T12:31:52Z</time>
      </trkpt>
      <trkpt lat="45.67286" lon="6.59891">
        <ele>2100.74</ele>
        <time>2019-06-24T12:31:58Z</time>
      </trkpt>
      <trkpt lat="45.67268" lon="6.59879">
        <ele>2100.07</ele>
        <time>2019-06-24T12:32:16Z</time>
      </trkpt>
      <trkpt lat="45.67266" lon="6.59879">
        <ele>2099.98</ele>
        <time>2019-06-24T12:32:22Z</time>
      </trkpt>
      <trkpt lat="45.67262" lon="6.59879">
        <ele>2099.17</ele>
        <time>2019-06-24T12:32:26Z</time>
      </trkpt>
      <trkpt lat="45.67244" lon="6.59876">
        <ele>2096.56</ele>
        <time>2019-06-24T12:32:42Z</time>
      </trkpt>
      <trkpt lat="45.67237" lon="6.59868">
        <ele>2094.34</ele>
        <time>2019-06-24T12:32:50Z</time>
      </trkpt>
      <trkpt lat="45.67231" lon="6.59865">
        <ele>2093.49</ele>
        <time>2019-06-24T12:32:55Z</time>
      </trkpt>
      <trkpt lat="45.67212" lon="6.59849">
        <ele>2090.9</ele>
        <time>2019-06-24T12:33:13Z</time>
      </trkpt>
      <trkpt lat="45.67195" lon="6.59841">
        <ele>2088.56</ele>
        <time>2019-06-24T12:33:29Z</time>
      </trkpt>
      <trkpt lat="45.67194" lon="6.5984">
        <ele>2088.06</ele>
        <time>2019-06-24T12:33:30Z</time>
      </trkpt>
      <trkpt lat="45.67189" lon="6.59837">
        <ele>2086.64</ele>
        <time>2019-06-24T12:33:35Z</time>
      </trkpt>
      <trkpt lat="45.67187" lon="6.59836">
        <ele>2085.64</ele>
        <time>2019-06-24T12:33:37Z</time>
      </trkpt>
      <trkpt lat="45.67186" lon="6.59834">
        <ele>2085.24</ele>
        <time>2019-06-24T12:33:39Z</time>
      </trkpt>
      <trkpt lat="45.67183" lon="6.59832">
        <ele>2083.9</ele>
        <time>2019-06-24T12:33:42Z</time>
      </trkpt>
      <trkpt lat="45.67181" lon="6.59831">
        <ele>2083.44</ele>
        <time>2019-06-24T12:33:44Z</time>
      </trkpt>
      <trkpt lat="45.67172" lon="6.59819">
        <ele>2082.88</ele>
        <time>2019-06-24T12:34:00Z</time>
      </trkpt>
      <trkpt lat="45.67164" lon="6.59812">
        <ele>2082.36</ele>
        <time>2019-06-24T12:34:09Z</time>
      </trkpt>
      <trkpt lat="45.67157" lon="6.59805">
        <ele>2081.92</ele>
        <time>2019-06-24T12:34:16Z</time>
      </trkpt>
      <trkpt lat="45.67141" lon="6.59795">
        <ele>2078.9</ele>
        <time>2019-06-24T12:34:31Z</time>
      </trkpt>
      <trkpt lat="45.67133" lon="6.59789">
        <ele>2075.77</ele>
        <time>2019-06-24T12:34:42Z</time>
      </trkpt>
      <trkpt lat="45.67129" lon="6.59789">
        <ele>2075.24</ele>
        <time>2019-06-24T12:34:48Z</time>
      </trkpt>
      <trkpt lat="45.67124" lon="6.59788">
        <ele>2074.14</ele>
        <time>2019-06-24T12:34:53Z</time>
      </trkpt>
      <trkpt lat="45.67116" lon="6.59782">
        <ele>2071.22</ele>
        <time>2019-06-24T12:35:04Z</time>
      </trkpt>
      <trkpt lat="45.6711" lon="6.59777">
        <ele>2069.08</ele>
        <time>2019-06-24T12:35:10Z</time>
      </trkpt>
      <trkpt lat="45.67106" lon="6.59776">
        <ele>2068.38</ele>
        <time>2019-06-24T12:35:15Z</time>
      </trkpt>
      <trkpt lat="45.67103" lon="6.59775">
        <ele>2067.8</ele>
        <time>2019-06-24T12:35:18Z</time>
      </trkpt>
      <trkpt lat="45.67099" lon="6.59774">
        <ele>2067.07</ele>
        <time>2019-06-24T12:35:22Z</time>
      </trkpt>
      <trkpt lat="45.67096" lon="6.59773">
        <ele>2066.67</ele>
        <time>2019-06-24T12:35:25Z</time>
      </trkpt>
      <trkpt lat="45.67078" lon="6.59764">
        <ele>2064.42</ele>
        <time>2019-06-24T12:35:42Z</time>
      </trkpt>
      <trkpt lat="45.67075" lon="6.59763">
        <ele>2063.92</ele>
        <time>2019-06-24T12:35:45Z</time>
      </trkpt>
      <trkpt lat="45.67054" lon="6.59756">
        <ele>2062.21</ele>
        <time>2019-06-24T12:36:03Z</time>
      </trkpt>
      <trkpt lat="45.67037" lon="6.5976">
        <ele>2064.05</ele>
        <time>2019-06-24T12:36:20Z</time>
      </trkpt>
      <trkpt lat="45.67019" lon="6.5976">
        <ele>2064.05</ele>
        <time>2019-06-24T12:36:36Z</time>
      </trkpt>
      <trkpt lat="45.66998" lon="6.59755">
        <ele>2064.87</ele>
        <time>2019-06-24T12:36:54Z</time>
      </trkpt>
      <trkpt lat="45.66978" lon="6.5975">
        <ele>2066.33</ele>
        <time>2019-06-24T12:37:14Z</time>
      </trkpt>
      <trkpt lat="45.66963" lon="6.59746">
        <ele>2065.8</ele>
        <time>2019-06-24T12:37:30Z</time>
      </trkpt>
      <trkpt lat="45.66946" lon="6.59735">
        <ele>2066.53</ele>
        <time>2019-06-24T12:37:47Z</time>
      </trkpt>
      <trkpt lat="45.66928" lon="6.59728">
        <ele>2068.44</ele>
        <time>2019-06-24T12:38:05Z</time>
      </trkpt>
      <trkpt lat="45.66914" lon="6.5973">
        <ele>2071.36</ele>
        <time>2019-06-24T12:38:21Z</time>
      </trkpt>
      <trkpt lat="45.66904" lon="6.59735">
        <ele>2074.59</ele>
        <time>2019-06-24T12:38:36Z</time>
      </trkpt>
      <trkpt lat="45.66896" lon="6.59738">
        <ele>2077.8</ele>
        <time>2019-06-24T12:38:54Z</time>
      </trkpt>
      <trkpt lat="45.6689" lon="6.59738">
        <ele>2080.88</ele>
        <time>2019-06-24T12:39:09Z</time>
      </trkpt>
      <trkpt lat="45.66883" lon="6.59742">
        <ele>2083.96</ele>
        <time>2019-06-24T12:39:24Z</time>
      </trkpt>
      <trkpt lat="45.66874" lon="6.59743">
        <ele>2086.99</ele>
        <time>2019-06-24T12:39:42Z</time>
      </trkpt>
      <trkpt lat="45.66861" lon="6.59745">
        <ele>2089.8</ele>
        <time>2019-06-24T12:40:02Z</time>
      </trkpt>
      <trkpt lat="45.66844" lon="6.59743">
        <ele>2092.53</ele>
        <time>2019-06-24T12:40:23Z</time>
      </trkpt>
      <trkpt lat="45.66827" lon="6.59748">
        <ele>2093.69</ele>
        <time>2019-06-24T12:40:41Z</time>
      </trkpt>
      <trkpt lat="45.66814" lon="6.59749">
        <ele>2096.8</ele>
        <time>2019-06-24T12:40:56Z</time>
      </trkpt>
      <trkpt lat="45.66801" lon="6.59749">
        <ele>2099.14</ele>
        <time>2019-06-24T12:41:14Z</time>
      </trkpt>
      <trkpt lat="45.66792" lon="6.59747">
        <ele>2102.34</ele>
        <time>2019-06-24T12:41:31Z</time>
      </trkpt>
      <trkpt lat="45.66783" lon="6.59743">
        <ele>2105.34</ele>
        <time>2019-06-24T12:41:46Z</time>
      </trkpt>
      <trkpt lat="45.6677" lon="6.59734">
        <ele>2107.72</ele>
        <time>2019-06-24T12:42:05Z</time>
      </trkpt>
      <trkpt lat="45.66754" lon="6.59725">
        <ele>2109.16</ele>
        <time>2019-06-24T12:42:23Z</time>
      </trkpt>
      <trkpt lat="45.6674" lon="6.59712">
        <ele>2109.69</ele>
        <time>2019-06-24T12:42:41Z</time>
      </trkpt>
      <trkpt lat="45.66726" lon="6.59699">
        <ele>2109.43</ele>
        <time>2019-06-24T12:42:58Z</time>
      </trkpt>
      <trkpt lat="45.66718" lon="6.59683">
        <ele>2107.53</ele>
        <time>2019-06-24T12:43:13Z</time>
      </trkpt>
      <trkpt lat="45.66704" lon="6.59665">
        <ele>2108.91</ele>
        <time>2019-06-24T12:43:31Z</time>
      </trkpt>
      <trkpt lat="45.66693" lon="6.59653">
        <ele>2110.98</ele>
        <time>2019-06-24T12:43:48Z</time>
      </trkpt>
      <trkpt lat="45.66684" lon="6.59641">
        <ele>2111.13</ele>
        <time>2019-06-24T12:44:01Z</time>
      </trkpt>
      <trkpt lat="45.6667" lon="6.59632">
        <ele>2110.73</ele>
        <time>2019-06-24T12:44:20Z</time>
      </trkpt>
      <trkpt lat="45.66667" lon="6.5963">
        <ele>2110.05</ele>
        <time>2019-06-24T12:44:29Z</time>
      </trkpt>
      <trkpt lat="45.66657" lon="6.59626">
        <ele>2107.37</ele>
        <time>2019-06-24T12:44:41Z</time>
      </trkpt>
      <trkpt lat="45.66643" lon="6.59616">
        <ele>2104.44</ele>
        <time>2019-06-24T12:45:00Z</time>
      </trkpt>
      <trkpt lat="45.66637" lon="6.59609">
        <ele>2101.37</ele>
        <time>2019-06-24T12:45:14Z</time>
      </trkpt>
      <trkpt lat="45.66635" lon="6.59608">
        <ele>2100.41</ele>
        <time>2019-06-24T12:45:16Z</time>
      </trkpt>
      <trkpt lat="45.66622" lon="6.59599">
        <ele>2097.39</ele>
        <time>2019-06-24T12:45:31Z</time>
      </trkpt>
      <trkpt lat="45.66605" lon="6.5959">
        <ele>2095.61</ele>
        <time>2019-06-24T12:45:47Z</time>
      </trkpt>
      <trkpt lat="45.66586" lon="6.59582">
        <ele>2093.01</ele>
        <time>2019-06-24T12:46:04Z</time>
      </trkpt>
      <trkpt lat="45.66568" lon="6.59579">
        <ele>2091.65</ele>
        <time>2019-06-24T12:46:20Z</time>
      </trkpt>
      <trkpt lat="45.66552" lon="6.59574">
        <ele>2089.04</ele>
        <time>2019-06-24T12:46:36Z</time>
      </trkpt>
      <trkpt lat="45.66546" lon="6.59572">
        <ele>2087.95</ele>
        <time>2019-06-24T12:46:43Z</time>
      </trkpt>
      <trkpt lat="45.66536" lon="6.59569">
        <ele>2085.58</ele>
        <time>2019-06-24T12:46:54Z</time>
      </trkpt>
      <trkpt lat="45.6652" lon="6.59571">
        <ele>2082.66</ele>
        <time>2019-06-24T12:47:11Z</time>
      </trkpt>
      <trkpt lat="45.66515" lon="6.59564">
        <ele>2079.52</ele>
        <time>2019-06-24T12:47:25Z</time>
      </trkpt>
      <trkpt lat="45.66507" lon="6.59564">
        <ele>2078.03</ele>
        <time>2019-06-24T12:47:39Z</time>
      </trkpt>
      <trkpt lat="45.66489" lon="6.59558">
        <ele>2075.7</ele>
        <time>2019-06-24T12:47:55Z</time>
      </trkpt>
      <trkpt lat="45.6647" lon="6.59554">
        <ele>2073.78</ele>
        <time>2019-06-24T12:48:11Z</time>
      </trkpt>
      <trkpt lat="45.66462" lon="6.59552">
        <ele>2072.93</ele>
        <time>2019-06-24T12:48:19Z</time>
      </trkpt>
      <trkpt lat="45.66458" lon="6.59552">
        <ele>2072.49</ele>
        <time>2019-06-24T12:48:22Z</time>
      </trkpt>
      <trkpt lat="45.66452" lon="6.59551">
        <ele>2071.57</ele>
        <time>2019-06-24T12:48:27Z</time>
      </trkpt>
      <trkpt lat="45.66431" lon="6.59544">
        <ele>2070.03</ele>
        <time>2019-06-24T12:48:45Z</time>
      </trkpt>
      <trkpt lat="45.66412" lon="6.59535">
        <ele>2069</ele>
        <time>2019-06-24T12:49:03Z</time>
      </trkpt>
      <trkpt lat="45.66393" lon="6.59525">
        <ele>2068.8</ele>
        <time>2019-06-24T12:49:19Z</time>
      </trkpt>
      <trkpt lat="45.66378" lon="6.59518">
        <ele>2070.35</ele>
        <time>2019-06-24T12:49:34Z</time>
      </trkpt>
      <trkpt lat="45.66375" lon="6.59517">
        <ele>2070.42</ele>
        <time>2019-06-24T12:49:36Z</time>
      </trkpt>
      <trkpt lat="45.66371" lon="6.59515">
        <ele>2071.18</ele>
        <time>2019-06-24T12:49:40Z</time>
      </trkpt>
      <trkpt lat="45.66354" lon="6.59509">
        <ele>2070.74</ele>
        <time>2019-06-24T12:49:56Z</time>
      </trkpt>
      <trkpt lat="45.66343" lon="6.59503">
        <ele>2072.1</ele>
        <time>2019-06-24T12:50:09Z</time>
      </trkpt>
      <trkpt lat="45.66339" lon="6.59502">
        <ele>2072.12</ele>
        <time>2019-06-24T12:50:12Z</time>
      </trkpt>
      <trkpt lat="45.66321" lon="6.59493">
        <ele>2069.96</ele>
        <time>2019-06-24T12:50:29Z</time>
      </trkpt>
      <trkpt lat="45.66318" lon="6.59492">
        <ele>2069.43</ele>
        <time>2019-06-24T12:50:34Z</time>
      </trkpt>
      <trkpt lat="45.66303" lon="6.59485">
        <ele>2066.19</ele>
        <time>2019-06-24T12:50:48Z</time>
      </trkpt>
      <trkpt lat="45.66285" lon="6.59474">
        <ele>2063.97</ele>
        <time>2019-06-24T12:51:06Z</time>
      </trkpt>
      <trkpt lat="45.66276" lon="6.59471">
        <ele>2064.35</ele>
        <time>2019-06-24T12:51:22Z</time>
      </trkpt>
      <trkpt lat="45.66279" lon="6.59467">
        <ele>2064.44</ele>
        <time>2019-06-24T12:51:32Z</time>
      </trkpt>
      <trkpt lat="45.66295" lon="6.59451">
        <ele>2063.18</ele>
        <time>2019-06-24T12:51:49Z</time>
      </trkpt>
      <trkpt lat="45.66303" lon="6.59444">
        <ele>2061.34</ele>
        <time>2019-06-24T12:51:58Z</time>
      </trkpt>
      <trkpt lat="45.66309" lon="6.5944">
        <ele>2059.68</ele>
        <time>2019-06-24T12:52:04Z</time>
      </trkpt>
      <trkpt lat="45.66313" lon="6.5944">
        <ele>2058.46</ele>
        <time>2019-06-24T12:52:09Z</time>
      </trkpt>
      <trkpt lat="45.66318" lon="6.5944">
        <ele>2057.28</ele>
        <time>2019-06-24T12:52:22Z</time>
      </trkpt>
      <trkpt lat="45.6632" lon="6.5944">
        <ele>2056.71</ele>
        <time>2019-06-24T12:52:25Z</time>
      </trkpt>
      <trkpt lat="45.66328" lon="6.59438">
        <ele>2055.26</ele>
        <time>2019-06-24T12:52:39Z</time>
      </trkpt>
      <trkpt lat="45.66331" lon="6.59438">
        <ele>2054.7</ele>
        <time>2019-06-24T12:52:42Z</time>
      </trkpt>
      <trkpt lat="45.66346" lon="6.59444">
        <ele>2052.58</ele>
        <time>2019-06-24T12:52:56Z</time>
      </trkpt>
      <trkpt lat="45.66361" lon="6.59448">
        <ele>2049.64</ele>
        <time>2019-06-24T12:53:09Z</time>
      </trkpt>
      <trkpt lat="45.66377" lon="6.59449">
        <ele>2046.47</ele>
        <time>2019-06-24T12:53:23Z</time>
      </trkpt>
      <trkpt lat="45.66381" lon="6.59449">
        <ele>2045.71</ele>
        <time>2019-06-24T12:53:27Z</time>
      </trkpt>
      <trkpt lat="45.66388" lon="6.59452">
        <ele>2044.33</ele>
        <time>2019-06-24T12:53:35Z</time>
      </trkpt>
      <trkpt lat="45.66395" lon="6.59455">
        <ele>2043.41</ele>
        <time>2019-06-24T12:53:43Z</time>
      </trkpt>
      <trkpt lat="45.66403" lon="6.59457">
        <ele>2042.07</ele>
        <time>2019-06-24T12:53:57Z</time>
      </trkpt>
      <trkpt lat="45.66407" lon="6.59457">
        <ele>2041.9</ele>
        <time>2019-06-24T12:54:16Z</time>
      </trkpt>
      <trkpt lat="45.66407" lon="6.59458">
        <ele>2040.71</ele>
        <time>2019-06-24T12:54:35Z</time>
      </trkpt>
      <trkpt lat="45.6641" lon="6.59462">
        <ele>2040.56</ele>
        <time>2019-06-24T12:55:18Z</time>
      </trkpt>
      <trkpt lat="45.66409" lon="6.59461">
        <ele>2040.61</ele>
        <time>2019-06-24T12:55:39Z</time>
      </trkpt>
      <trkpt lat="45.66408" lon="6.59461">
        <ele>2040.17</ele>
        <time>2019-06-24T12:56:44Z</time>
      </trkpt>
      <trkpt lat="45.66407" lon="6.59462">
        <ele>2040.29</ele>
        <time>2019-06-24T12:57:42Z</time>
      </trkpt>
      <trkpt lat="45.66406" lon="6.59462">
        <ele>2041</ele>
        <time>2019-06-24T12:58:25Z</time>
      </trkpt>
      <trkpt lat="45.66405" lon="6.59462">
        <ele>2041.07</ele>
        <time>2019-06-24T12:58:50Z</time>
      </trkpt>
      <trkpt lat="45.66406" lon="6.59461">
        <ele>2040.9</ele>
        <time>2019-06-24T12:59:23Z</time>
      </trkpt>
      <trkpt lat="45.66408" lon="6.59461">
        <ele>2040.2</ele>
        <time>2019-06-24T12:59:58Z</time>
      </trkpt>
      <trkpt lat="45.66408" lon="6.5946">
        <ele>2040.9</ele>
        <time>2019-06-24T13:00:28Z</time>
      </trkpt>
      <trkpt lat="45.66413" lon="6.59461">
        <ele>2038.96</ele>
        <time>2019-06-24T13:00:56Z</time>
      </trkpt>
      <trkpt lat="45.66414" lon="6.59461">
        <ele>2038.84</ele>
        <time>2019-06-24T13:00:57Z</time>
      </trkpt>
      <trkpt lat="45.66418" lon="6.59464">
        <ele>2037.66</ele>
        <time>2019-06-24T13:01:02Z</time>
      </trkpt>
      <trkpt lat="45.66426" lon="6.59471">
        <ele>2034.27</ele>
        <time>2019-06-24T13:01:14Z</time>
      </trkpt>
      <trkpt lat="45.66438" lon="6.59471">
        <ele>2031.7</ele>
        <time>2019-06-24T13:01:30Z</time>
      </trkpt>
      <trkpt lat="45.66443" lon="6.59466">
        <ele>2030.48</ele>
        <time>2019-06-24T13:01:37Z</time>
      </trkpt>
      <trkpt lat="45.66449" lon="6.59465">
        <ele>2029.62</ele>
        <time>2019-06-24T13:01:42Z</time>
      </trkpt>
      <trkpt lat="45.66452" lon="6.59459">
        <ele>2026.69</ele>
        <time>2019-06-24T13:01:55Z</time>
      </trkpt>
      <trkpt lat="45.66447" lon="6.59452">
        <ele>2023.47</ele>
        <time>2019-06-24T13:02:08Z</time>
      </trkpt>
      <trkpt lat="45.66447" lon="6.59451">
        <ele>2023.42</ele>
        <time>2019-06-24T13:02:09Z</time>
      </trkpt>
      <trkpt lat="45.6645" lon="6.59449">
        <ele>2023.27</ele>
        <time>2019-06-24T13:02:12Z</time>
      </trkpt>
      <trkpt lat="45.66458" lon="6.59446">
        <ele>2020.92</ele>
        <time>2019-06-24T13:02:28Z</time>
      </trkpt>
      <trkpt lat="45.66466" lon="6.59442">
        <ele>2017.63</ele>
        <time>2019-06-24T13:02:41Z</time>
      </trkpt>
      <trkpt lat="45.66476" lon="6.59436">
        <ele>2015.46</ele>
        <time>2019-06-24T13:03:00Z</time>
      </trkpt>
      <trkpt lat="45.66486" lon="6.59429">
        <ele>2012.38</ele>
        <time>2019-06-24T13:03:15Z</time>
      </trkpt>
      <trkpt lat="45.66486" lon="6.59425">
        <ele>2011.26</ele>
        <time>2019-06-24T13:03:19Z</time>
      </trkpt>
      <trkpt lat="45.66477" lon="6.5942">
        <ele>2008.08</ele>
        <time>2019-06-24T13:03:33Z</time>
      </trkpt>
      <trkpt lat="45.66479" lon="6.59419">
        <ele>2007.31</ele>
        <time>2019-06-24T13:03:37Z</time>
      </trkpt>
      <trkpt lat="45.66488" lon="6.59416">
        <ele>2004.57</ele>
        <time>2019-06-24T13:03:54Z</time>
      </trkpt>
      <trkpt lat="45.6649" lon="6.59416">
        <ele>2003.98</ele>
        <time>2019-06-24T13:03:56Z</time>
      </trkpt>
      <trkpt lat="45.66499" lon="6.59411">
        <ele>2002.21</ele>
        <time>2019-06-24T13:04:08Z</time>
      </trkpt>
      <trkpt lat="45.66503" lon="6.59407">
        <ele>2002.37</ele>
        <time>2019-06-24T13:04:12Z</time>
      </trkpt>
      <trkpt lat="45.66513" lon="6.59399">
        <ele>1999.33</ele>
        <time>2019-06-24T13:04:24Z</time>
      </trkpt>
      <trkpt lat="45.66517" lon="6.59398">
        <ele>1998.17</ele>
        <time>2019-06-24T13:04:28Z</time>
      </trkpt>
      <trkpt lat="45.66528" lon="6.5939">
        <ele>1994.69</ele>
        <time>2019-06-24T13:04:41Z</time>
      </trkpt>
      <trkpt lat="45.66529" lon="6.59389">
        <ele>1994.31</ele>
        <time>2019-06-24T13:04:42Z</time>
      </trkpt>
      <trkpt lat="45.66544" lon="6.59381">
        <ele>1991.35</ele>
        <time>2019-06-24T13:04:57Z</time>
      </trkpt>
      <trkpt lat="45.6655" lon="6.59375">
        <ele>1991.23</ele>
        <time>2019-06-24T13:05:14Z</time>
      </trkpt>
      <trkpt lat="45.66551" lon="6.5937">
        <ele>1991.12</ele>
        <time>2019-06-24T13:05:34Z</time>
      </trkpt>
      <trkpt lat="45.66551" lon="6.5937">
        <ele>1990.54</ele>
        <time>2019-06-24T13:05:59Z</time>
      </trkpt>
      <trkpt lat="45.66549" lon="6.59365">
        <ele>1989.42</ele>
        <time>2019-06-24T13:06:19Z</time>
      </trkpt>
      <trkpt lat="45.6655" lon="6.59363">
        <ele>1990.06</ele>
        <time>2019-06-24T13:06:44Z</time>
      </trkpt>
      <trkpt lat="45.66547" lon="6.5936">
        <ele>1987.34</ele>
        <time>2019-06-24T13:07:06Z</time>
      </trkpt>
      <trkpt lat="45.66542" lon="6.59356">
        <ele>1985.03</ele>
        <time>2019-06-24T13:07:13Z</time>
      </trkpt>
      <trkpt lat="45.66541" lon="6.59356">
        <ele>1984.47</ele>
        <time>2019-06-24T13:07:14Z</time>
      </trkpt>
      <trkpt lat="45.6653" lon="6.59358">
        <ele>1981.82</ele>
        <time>2019-06-24T13:07:26Z</time>
      </trkpt>
      <trkpt lat="45.66527" lon="6.59358">
        <ele>1981.85</ele>
        <time>2019-06-24T13:07:28Z</time>
      </trkpt>
      <trkpt lat="45.66512" lon="6.59355">
        <ele>1979.57</ele>
        <time>2019-06-24T13:07:45Z</time>
      </trkpt>
      <trkpt lat="45.66495" lon="6.59355">
        <ele>1977.41</ele>
        <time>2019-06-24T13:08:05Z</time>
      </trkpt>
      <trkpt lat="45.6648" lon="6.59348">
        <ele>1976.63</ele>
        <time>2019-06-24T13:08:23Z</time>
      </trkpt>
      <trkpt lat="45.66473" lon="6.59339">
        <ele>1976.33</ele>
        <time>2019-06-24T13:08:43Z</time>
      </trkpt>
      <trkpt lat="45.66469" lon="6.59334">
        <ele>1972.94</ele>
        <time>2019-06-24T13:08:58Z</time>
      </trkpt>
      <trkpt lat="45.6647" lon="6.59333">
        <ele>1972.15</ele>
        <time>2019-06-24T13:09:00Z</time>
      </trkpt>
      <trkpt lat="45.66465" lon="6.59326">
        <ele>1968.79</ele>
        <time>2019-06-24T13:09:14Z</time>
      </trkpt>
      <trkpt lat="45.66467" lon="6.59319">
        <ele>1965.96</ele>
        <time>2019-06-24T13:09:29Z</time>
      </trkpt>
      <trkpt lat="45.66468" lon="6.59312">
        <ele>1965.32</ele>
        <time>2019-06-24T13:09:42Z</time>
      </trkpt>
      <trkpt lat="45.66471" lon="6.59302">
        <ele>1962.03</ele>
        <time>2019-06-24T13:09:55Z</time>
      </trkpt>
      <trkpt lat="45.66464" lon="6.59295">
        <ele>1960.02</ele>
        <time>2019-06-24T13:10:15Z</time>
      </trkpt>
      <trkpt lat="45.66463" lon="6.59293">
        <ele>1960.1</ele>
        <time>2019-06-24T13:10:40Z</time>
      </trkpt>
      <trkpt lat="45.66462" lon="6.59278">
        <ele>1958.72</ele>
        <time>2019-06-24T13:10:56Z</time>
      </trkpt>
      <trkpt lat="45.6646" lon="6.59272">
        <ele>1957.93</ele>
        <time>2019-06-24T13:11:00Z</time>
      </trkpt>
      <trkpt lat="45.66456" lon="6.59262">
        <ele>1956.02</ele>
        <time>2019-06-24T13:11:18Z</time>
      </trkpt>
      <trkpt lat="45.66453" lon="6.59262">
        <ele>1955.54</ele>
        <time>2019-06-24T13:11:34Z</time>
      </trkpt>
      <trkpt lat="45.66452" lon="6.5926">
        <ele>1955</ele>
        <time>2019-06-24T13:12:08Z</time>
      </trkpt>
      <trkpt lat="45.66454" lon="6.59258">
        <ele>1955.79</ele>
        <time>2019-06-24T13:12:26Z</time>
      </trkpt>
      <trkpt lat="45.66454" lon="6.59258">
        <ele>1955.68</ele>
        <time>2019-06-24T13:12:56Z</time>
      </trkpt>
      <trkpt lat="45.66454" lon="6.59261">
        <ele>1955.79</ele>
        <time>2019-06-24T13:13:10Z</time>
      </trkpt>
      <trkpt lat="45.66456" lon="6.59262">
        <ele>1956.61</ele>
        <time>2019-06-24T13:13:43Z</time>
      </trkpt>
      <trkpt lat="45.66455" lon="6.59262">
        <ele>1956.77</ele>
        <time>2019-06-24T13:14:03Z</time>
      </trkpt>
      <trkpt lat="45.66457" lon="6.59264">
        <ele>1957.11</ele>
        <time>2019-06-24T13:14:06Z</time>
      </trkpt>
      <trkpt lat="45.66459" lon="6.59282">
        <ele>1960.12</ele>
        <time>2019-06-24T13:14:20Z</time>
      </trkpt>
      <trkpt lat="45.66451" lon="6.5928">
        <ele>1962.91</ele>
        <time>2019-06-24T13:14:34Z</time>
      </trkpt>
      <trkpt lat="45.66439" lon="6.59279">
        <ele>1965.47</ele>
        <time>2019-06-24T13:14:53Z</time>
      </trkpt>
      <trkpt lat="45.66438" lon="6.5928">
        <ele>1965.56</ele>
        <time>2019-06-24T13:15:21Z</time>
      </trkpt>
      <trkpt lat="45.66438" lon="6.59281">
        <ele>1964.99</ele>
        <time>2019-06-24T13:15:44Z</time>
      </trkpt>
      <trkpt lat="45.66438" lon="6.59278">
        <ele>1964.8</ele>
        <time>2019-06-24T13:16:17Z</time>
      </trkpt>
      <trkpt lat="45.66438" lon="6.59276">
        <ele>1964.68</ele>
        <time>2019-06-24T13:17:08Z</time>
      </trkpt>
      <trkpt lat="45.66438" lon="6.59277">
        <ele>1965.39</ele>
        <time>2019-06-24T13:17:45Z</time>
      </trkpt>
      <trkpt lat="45.66437" lon="6.59279">
        <ele>1965.59</ele>
        <time>2019-06-24T13:18:12Z</time>
      </trkpt>
      <trkpt lat="45.6644" lon="6.59279">
        <ele>1964.73</ele>
        <time>2019-06-24T13:18:25Z</time>
      </trkpt>
      <trkpt lat="45.6645" lon="6.59281">
        <ele>1962.6</ele>
        <time>2019-06-24T13:18:35Z</time>
      </trkpt>
      <trkpt lat="45.66461" lon="6.59283">
        <ele>1959.72</ele>
        <time>2019-06-24T13:18:53Z</time>
      </trkpt>
      <trkpt lat="45.66461" lon="6.59277">
        <ele>1958.59</ele>
        <time>2019-06-24T13:18:57Z</time>
      </trkpt>
      <trkpt lat="45.66453" lon="6.59261">
        <ele>1955.36</ele>
        <time>2019-06-24T13:19:10Z</time>
      </trkpt>
      <trkpt lat="45.6645" lon="6.59256">
        <ele>1953.71</ele>
        <time>2019-06-24T13:19:14Z</time>
      </trkpt>
      <trkpt lat="45.66455" lon="6.59252">
        <ele>1950.92</ele>
        <time>2019-06-24T13:19:22Z</time>
      </trkpt>
      <trkpt lat="45.66458" lon="6.59255">
        <ele>1949.8</ele>
        <time>2019-06-24T13:19:25Z</time>
      </trkpt>
      <trkpt lat="45.6646" lon="6.59253">
        <ele>1949.05</ele>
        <time>2019-06-24T13:19:31Z</time>
      </trkpt>
      <trkpt lat="45.66457" lon="6.59245">
        <ele>1948.57</ele>
        <time>2019-06-24T13:19:36Z</time>
      </trkpt>
      <trkpt lat="45.66444" lon="6.59234">
        <ele>1945.25</ele>
        <time>2019-06-24T13:19:52Z</time>
      </trkpt>
      <trkpt lat="45.66437" lon="6.59232">
        <ele>1943.82</ele>
        <time>2019-06-24T13:20:12Z</time>
      </trkpt>
      <trkpt lat="45.66436" lon="6.5923">
        <ele>1944.16</ele>
        <time>2019-06-24T13:20:35Z</time>
      </trkpt>
      <trkpt lat="45.66435" lon="6.59228">
        <ele>1943.39</ele>
        <time>2019-06-24T13:20:57Z</time>
      </trkpt>
      <trkpt lat="45.66434" lon="6.59221">
        <ele>1941.36</ele>
        <time>2019-06-24T13:21:17Z</time>
      </trkpt>
      <trkpt lat="45.66431" lon="6.59214">
        <ele>1939.57</ele>
        <time>2019-06-24T13:21:23Z</time>
      </trkpt>
      <trkpt lat="45.66431" lon="6.59205">
        <ele>1936.47</ele>
        <time>2019-06-24T13:21:33Z</time>
      </trkpt>
      <trkpt lat="45.66431" lon="6.59205">
        <ele>1936.29</ele>
        <time>2019-06-24T13:21:34Z</time>
      </trkpt>
      <trkpt lat="45.66434" lon="6.59199">
        <ele>1933.21</ele>
        <time>2019-06-24T13:21:46Z</time>
      </trkpt>
      <trkpt lat="45.66434" lon="6.59197">
        <ele>1933.14</ele>
        <time>2019-06-24T13:21:47Z</time>
      </trkpt>
      <trkpt lat="45.66429" lon="6.5919">
        <ele>1931.31</ele>
        <time>2019-06-24T13:22:05Z</time>
      </trkpt>
      <trkpt lat="45.66425" lon="6.59185">
        <ele>1929.85</ele>
        <time>2019-06-24T13:22:22Z</time>
      </trkpt>
      <trkpt lat="45.66423" lon="6.59182">
        <ele>1928.58</ele>
        <time>2019-06-24T13:22:25Z</time>
      </trkpt>
      <trkpt lat="45.66427" lon="6.59176">
        <ele>1927.16</ele>
        <time>2019-06-24T13:22:38Z</time>
      </trkpt>
      <trkpt lat="45.66432" lon="6.59176">
        <ele>1925.6</ele>
        <time>2019-06-24T13:22:52Z</time>
      </trkpt>
      <trkpt lat="45.66443" lon="6.59175">
        <ele>1922.76</ele>
        <time>2019-06-24T13:23:08Z</time>
      </trkpt>
      <trkpt lat="45.66437" lon="6.59165">
        <ele>1920.51</ele>
        <time>2019-06-24T13:23:25Z</time>
      </trkpt>
      <trkpt lat="45.66436" lon="6.59162">
        <ele>1919.91</ele>
        <time>2019-06-24T13:23:27Z</time>
      </trkpt>
      <trkpt lat="45.66432" lon="6.59155">
        <ele>1917.52</ele>
        <time>2019-06-24T13:23:35Z</time>
      </trkpt>
      <trkpt lat="45.66442" lon="6.59153">
        <ele>1914.19</ele>
        <time>2019-06-24T13:23:47Z</time>
      </trkpt>
      <trkpt lat="45.66444" lon="6.59154">
        <ele>1913.42</ele>
        <time>2019-06-24T13:23:49Z</time>
      </trkpt>
      <trkpt lat="45.66447" lon="6.59155">
        <ele>1912.61</ele>
        <time>2019-06-24T13:23:52Z</time>
      </trkpt>
      <trkpt lat="45.66451" lon="6.59157">
        <ele>1911.59</ele>
        <time>2019-06-24T13:23:59Z</time>
      </trkpt>
      <trkpt lat="45.66451" lon="6.59146">
        <ele>1908.96</ele>
        <time>2019-06-24T13:24:15Z</time>
      </trkpt>
      <trkpt lat="45.6645" lon="6.59144">
        <ele>1909.14</ele>
        <time>2019-06-24T13:24:19Z</time>
      </trkpt>
      <trkpt lat="45.66446" lon="6.59132">
        <ele>1905.72</ele>
        <time>2019-06-24T13:24:28Z</time>
      </trkpt>
      <trkpt lat="45.66444" lon="6.5913">
        <ele>1904.85</ele>
        <time>2019-06-24T13:24:31Z</time>
      </trkpt>
      <trkpt lat="45.66441" lon="6.59128">
        <ele>1904.27</ele>
        <time>2019-06-24T13:24:35Z</time>
      </trkpt>
      <trkpt lat="45.66436" lon="6.59117">
        <ele>1902.55</ele>
        <time>2019-06-24T13:24:44Z</time>
      </trkpt>
      <trkpt lat="45.6643" lon="6.59106">
        <ele>1900.96</ele>
        <time>2019-06-24T13:25:00Z</time>
      </trkpt>
      <trkpt lat="45.66428" lon="6.59104">
        <ele>1900.97</ele>
        <time>2019-06-24T13:25:02Z</time>
      </trkpt>
      <trkpt lat="45.66424" lon="6.59101">
        <ele>1899.92</ele>
        <time>2019-06-24T13:25:06Z</time>
      </trkpt>
      <trkpt lat="45.66411" lon="6.59088">
        <ele>1896.17</ele>
        <time>2019-06-24T13:25:19Z</time>
      </trkpt>
      <trkpt lat="45.66403" lon="6.5908">
        <ele>1893.02</ele>
        <time>2019-06-24T13:25:29Z</time>
      </trkpt>
      <trkpt lat="45.66408" lon="6.59075">
        <ele>1890.01</ele>
        <time>2019-06-24T13:25:40Z</time>
      </trkpt>
      <trkpt lat="45.66415" lon="6.5907">
        <ele>1887.7</ele>
        <time>2019-06-24T13:25:48Z</time>
      </trkpt>
      <trkpt lat="45.66427" lon="6.59066">
        <ele>1884.36</ele>
        <time>2019-06-24T13:26:01Z</time>
      </trkpt>
      <trkpt lat="45.66443" lon="6.59064">
        <ele>1881.53</ele>
        <time>2019-06-24T13:26:18Z</time>
      </trkpt>
      <trkpt lat="45.66463" lon="6.59068">
        <ele>1878.18</ele>
        <time>2019-06-24T13:26:34Z</time>
      </trkpt>
      <trkpt lat="45.66471" lon="6.59067">
        <ele>1876.63</ele>
        <time>2019-06-24T13:26:41Z</time>
      </trkpt>
      <trkpt lat="45.66471" lon="6.59051">
        <ele>1874.29</ele>
        <time>2019-06-24T13:26:50Z</time>
      </trkpt>
      <trkpt lat="45.66464" lon="6.59035">
        <ele>1871.28</ele>
        <time>2019-06-24T13:27:01Z</time>
      </trkpt>
      <trkpt lat="45.6646" lon="6.59028">
        <ele>1869.45</ele>
        <time>2019-06-24T13:27:09Z</time>
      </trkpt>
      <trkpt lat="45.66455" lon="6.59021">
        <ele>1868</ele>
        <time>2019-06-24T13:27:26Z</time>
      </trkpt>
      <trkpt lat="45.66443" lon="6.59008">
        <ele>1865.48</ele>
        <time>2019-06-24T13:27:43Z</time>
      </trkpt>
      <trkpt lat="45.66442" lon="6.59007">
        <ele>1864.82</ele>
        <time>2019-06-24T13:27:51Z</time>
      </trkpt>
      <trkpt lat="45.66439" lon="6.59005">
        <ele>1864.37</ele>
        <time>2019-06-24T13:27:54Z</time>
      </trkpt>
      <trkpt lat="45.66429" lon="6.58994">
        <ele>1860.49</ele>
        <time>2019-06-24T13:28:06Z</time>
      </trkpt>
      <trkpt lat="45.66416" lon="6.58987">
        <ele>1857.36</ele>
        <time>2019-06-24T13:28:18Z</time>
      </trkpt>
      <trkpt lat="45.66401" lon="6.58981">
        <ele>1854.14</ele>
        <time>2019-06-24T13:28:32Z</time>
      </trkpt>
      <trkpt lat="45.66384" lon="6.58979">
        <ele>1851.32</ele>
        <time>2019-06-24T13:28:48Z</time>
      </trkpt>
      <trkpt lat="45.66367" lon="6.58976">
        <ele>1848.43</ele>
        <time>2019-06-24T13:29:04Z</time>
      </trkpt>
      <trkpt lat="45.66365" lon="6.58976">
        <ele>1848.13</ele>
        <time>2019-06-24T13:29:05Z</time>
      </trkpt>
      <trkpt lat="45.66364" lon="6.58973">
        <ele>1846.85</ele>
        <time>2019-06-24T13:29:08Z</time>
      </trkpt>
      <trkpt lat="45.66373" lon="6.58965">
        <ele>1845.1</ele>
        <time>2019-06-24T13:29:19Z</time>
      </trkpt>
      <trkpt lat="45.66376" lon="6.58964">
        <ele>1843.86</ele>
        <time>2019-06-24T13:29:22Z</time>
      </trkpt>
      <trkpt lat="45.66381" lon="6.58961">
        <ele>1843.12</ele>
        <time>2019-06-24T13:29:27Z</time>
      </trkpt>
      <trkpt lat="45.66387" lon="6.58959">
        <ele>1841.49</ele>
        <time>2019-06-24T13:29:36Z</time>
      </trkpt>
      <trkpt lat="45.66403" lon="6.58956">
        <ele>1838.66</ele>
        <time>2019-06-24T13:29:50Z</time>
      </trkpt>
      <trkpt lat="45.66405" lon="6.58955">
        <ele>1838.31</ele>
        <time>2019-06-24T13:29:52Z</time>
      </trkpt>
      <trkpt lat="45.66412" lon="6.58949">
        <ele>1836.81</ele>
        <time>2019-06-24T13:30:04Z</time>
      </trkpt>
      <trkpt lat="45.66413" lon="6.58951">
        <ele>1836.68</ele>
        <time>2019-06-24T13:30:26Z</time>
      </trkpt>
      <trkpt lat="45.6642" lon="6.58946">
        <ele>1835.3</ele>
        <time>2019-06-24T13:30:49Z</time>
      </trkpt>
      <trkpt lat="45.66417" lon="6.58935">
        <ele>1832.53</ele>
        <time>2019-06-24T13:31:03Z</time>
      </trkpt>
      <trkpt lat="45.66416" lon="6.58935">
        <ele>1832.31</ele>
        <time>2019-06-24T13:31:04Z</time>
      </trkpt>
      <trkpt lat="45.66413" lon="6.58935">
        <ele>1831.07</ele>
        <time>2019-06-24T13:31:07Z</time>
      </trkpt>
      <trkpt lat="45.66399" lon="6.58927">
        <ele>1827.9</ele>
        <time>2019-06-24T13:31:20Z</time>
      </trkpt>
      <trkpt lat="45.66395" lon="6.58926">
        <ele>1826.84</ele>
        <time>2019-06-24T13:31:26Z</time>
      </trkpt>
      <trkpt lat="45.66378" lon="6.58918">
        <ele>1823.77</ele>
        <time>2019-06-24T13:31:41Z</time>
      </trkpt>
      <trkpt lat="45.66369" lon="6.58916">
        <ele>1822.31</ele>
        <time>2019-06-24T13:31:49Z</time>
      </trkpt>
      <trkpt lat="45.66359" lon="6.58917">
        <ele>1821.41</ele>
        <time>2019-06-24T13:31:59Z</time>
      </trkpt>
      <trkpt lat="45.66338" lon="6.58905">
        <ele>1818.59</ele>
        <time>2019-06-24T13:32:15Z</time>
      </trkpt>
      <trkpt lat="45.66321" lon="6.58905">
        <ele>1815.44</ele>
        <time>2019-06-24T13:32:29Z</time>
      </trkpt>
      <trkpt lat="45.66299" lon="6.58909">
        <ele>1812.28</ele>
        <time>2019-06-24T13:32:46Z</time>
      </trkpt>
      <trkpt lat="45.66288" lon="6.58902">
        <ele>1810</ele>
        <time>2019-06-24T13:32:57Z</time>
      </trkpt>
      <trkpt lat="45.66287" lon="6.58902">
        <ele>1810.08</ele>
        <time>2019-06-24T13:32:59Z</time>
      </trkpt>
      <trkpt lat="45.66279" lon="6.58901">
        <ele>1808.5</ele>
        <time>2019-06-24T13:33:18Z</time>
      </trkpt>
      <trkpt lat="45.66269" lon="6.58903">
        <ele>1807.03</ele>
        <time>2019-06-24T13:33:29Z</time>
      </trkpt>
      <trkpt lat="45.66262" lon="6.58897">
        <ele>1804.04</ele>
        <time>2019-06-24T13:33:39Z</time>
      </trkpt>
      <trkpt lat="45.66261" lon="6.58894">
        <ele>1803.45</ele>
        <time>2019-06-24T13:33:41Z</time>
      </trkpt>
      <trkpt lat="45.6625" lon="6.5887">
        <ele>1800.1</ele>
        <time>2019-06-24T13:33:56Z</time>
      </trkpt>
      <trkpt lat="45.6624" lon="6.5886">
        <ele>1797.03</ele>
        <time>2019-06-24T13:34:06Z</time>
      </trkpt>
      <trkpt lat="45.66223" lon="6.5885">
        <ele>1794.33</ele>
        <time>2019-06-24T13:34:21Z</time>
      </trkpt>
      <trkpt lat="45.66214" lon="6.58833">
        <ele>1791.26</ele>
        <time>2019-06-24T13:34:34Z</time>
      </trkpt>
      <trkpt lat="45.66213" lon="6.58829">
        <ele>1790.54</ele>
        <time>2019-06-24T13:34:37Z</time>
      </trkpt>
      <trkpt lat="45.66217" lon="6.58825">
        <ele>1788.49</ele>
        <time>2019-06-24T13:34:43Z</time>
      </trkpt>
      <trkpt lat="45.66222" lon="6.58824">
        <ele>1787.18</ele>
        <time>2019-06-24T13:34:49Z</time>
      </trkpt>
      <trkpt lat="45.66214" lon="6.58804">
        <ele>1784.47</ele>
        <time>2019-06-24T13:35:03Z</time>
      </trkpt>
      <trkpt lat="45.66215" lon="6.58803">
        <ele>1784.24</ele>
        <time>2019-06-24T13:35:04Z</time>
      </trkpt>
      <trkpt lat="45.66217" lon="6.58799">
        <ele>1782.46</ele>
        <time>2019-06-24T13:35:08Z</time>
      </trkpt>
      <trkpt lat="45.66227" lon="6.58797">
        <ele>1779.08</ele>
        <time>2019-06-24T13:35:19Z</time>
      </trkpt>
      <trkpt lat="45.66237" lon="6.58787">
        <ele>1775.82</ele>
        <time>2019-06-24T13:35:30Z</time>
      </trkpt>
      <trkpt lat="45.66247" lon="6.5878">
        <ele>1772.82</ele>
        <time>2019-06-24T13:35:41Z</time>
      </trkpt>
      <trkpt lat="45.66259" lon="6.5877">
        <ele>1770.52</ele>
        <time>2019-06-24T13:35:53Z</time>
      </trkpt>
      <trkpt lat="45.66263" lon="6.58768">
        <ele>1769.74</ele>
        <time>2019-06-24T13:35:57Z</time>
      </trkpt>
      <trkpt lat="45.6626" lon="6.58754">
        <ele>1765.75</ele>
        <time>2019-06-24T13:36:08Z</time>
      </trkpt>
      <trkpt lat="45.66254" lon="6.58751">
        <ele>1764.82</ele>
        <time>2019-06-24T13:36:14Z</time>
      </trkpt>
      <trkpt lat="45.66253" lon="6.58748">
        <ele>1764.13</ele>
        <time>2019-06-24T13:36:16Z</time>
      </trkpt>
      <trkpt lat="45.66262" lon="6.58738">
        <ele>1761.58</ele>
        <time>2019-06-24T13:36:26Z</time>
      </trkpt>
      <trkpt lat="45.66275" lon="6.58732">
        <ele>1758.24</ele>
        <time>2019-06-24T13:36:38Z</time>
      </trkpt>
      <trkpt lat="45.66279" lon="6.58731">
        <ele>1757.67</ele>
        <time>2019-06-24T13:36:42Z</time>
      </trkpt>
      <trkpt lat="45.66282" lon="6.58726">
        <ele>1756.48</ele>
        <time>2019-06-24T13:36:47Z</time>
      </trkpt>
      <trkpt lat="45.66274" lon="6.5871">
        <ele>1752.93</ele>
        <time>2019-06-24T13:36:59Z</time>
      </trkpt>
      <trkpt lat="45.66265" lon="6.58695">
        <ele>1749.82</ele>
        <time>2019-06-24T13:37:10Z</time>
      </trkpt>
      <trkpt lat="45.66249" lon="6.58681">
        <ele>1746.51</ele>
        <time>2019-06-24T13:37:25Z</time>
      </trkpt>
      <trkpt lat="45.66232" lon="6.58676">
        <ele>1744.18</ele>
        <time>2019-06-24T13:37:41Z</time>
      </trkpt>
      <trkpt lat="45.6623" lon="6.58676">
        <ele>1743.77</ele>
        <time>2019-06-24T13:37:44Z</time>
      </trkpt>
      <trkpt lat="45.66223" lon="6.58674">
        <ele>1743.84</ele>
        <time>2019-06-24T13:38:01Z</time>
      </trkpt>
      <trkpt lat="45.66221" lon="6.58675">
        <ele>1742.92</ele>
        <time>2019-06-24T13:38:20Z</time>
      </trkpt>
      <trkpt lat="45.66221" lon="6.58675">
        <ele>1742.31</ele>
        <time>2019-06-24T13:39:35Z</time>
      </trkpt>
      <trkpt lat="45.6622" lon="6.58674">
        <ele>1741.76</ele>
        <time>2019-06-24T13:40:49Z</time>
      </trkpt>
      <trkpt lat="45.6622" lon="6.58672">
        <ele>1742.27</ele>
        <time>2019-06-24T13:41:32Z</time>
      </trkpt>
      <trkpt lat="45.66221" lon="6.58672">
        <ele>1742.19</ele>
        <time>2019-06-24T13:41:57Z</time>
      </trkpt>
      <trkpt lat="45.66221" lon="6.58672">
        <ele>1742.26</ele>
        <time>2019-06-24T13:42:18Z</time>
      </trkpt>
      <trkpt lat="45.66224" lon="6.58675">
        <ele>1741.93</ele>
        <time>2019-06-24T13:42:45Z</time>
      </trkpt>
      <trkpt lat="45.66225" lon="6.58675">
        <ele>1742.01</ele>
        <time>2019-06-24T13:42:46Z</time>
      </trkpt>
      <trkpt lat="45.66228" lon="6.5867">
        <ele>1740.81</ele>
        <time>2019-06-24T13:42:53Z</time>
      </trkpt>
      <trkpt lat="45.66231" lon="6.58661">
        <ele>1739.31</ele>
        <time>2019-06-24T13:43:08Z</time>
      </trkpt>
      <trkpt lat="45.66231" lon="6.58658">
        <ele>1738.87</ele>
        <time>2019-06-24T13:43:41Z</time>
      </trkpt>
      <trkpt lat="45.6623" lon="6.58656">
        <ele>1738.82</ele>
        <time>2019-06-24T13:43:51Z</time>
      </trkpt>
      <trkpt lat="45.66229" lon="6.58653">
        <ele>1738.01</ele>
        <time>2019-06-24T13:43:53Z</time>
      </trkpt>
      <trkpt lat="45.66225" lon="6.58646">
        <ele>1736.46</ele>
        <time>2019-06-24T13:43:58Z</time>
      </trkpt>
      <trkpt lat="45.66217" lon="6.58634">
        <ele>1733.3</ele>
        <time>2019-06-24T13:44:08Z</time>
      </trkpt>
      <trkpt lat="45.66211" lon="6.58616">
        <ele>1729.97</ele>
        <time>2019-06-24T13:44:20Z</time>
      </trkpt>
      <trkpt lat="45.66205" lon="6.58599">
        <ele>1726.65</ele>
        <time>2019-06-24T13:44:31Z</time>
      </trkpt>
      <trkpt lat="45.66188" lon="6.58596">
        <ele>1725.25</ele>
        <time>2019-06-24T13:44:45Z</time>
      </trkpt>
      <trkpt lat="45.66171" lon="6.5859">
        <ele>1724.58</ele>
        <time>2019-06-24T13:45:00Z</time>
      </trkpt>
      <trkpt lat="45.6617" lon="6.58589">
        <ele>1724.09</ele>
        <time>2019-06-24T13:45:01Z</time>
      </trkpt>
      <trkpt lat="45.66168" lon="6.5858">
        <ele>1720.93</ele>
        <time>2019-06-24T13:45:08Z</time>
      </trkpt>
      <trkpt lat="45.66166" lon="6.58582">
        <ele>1721.33</ele>
        <time>2019-06-24T13:45:28Z</time>
      </trkpt>
      <trkpt lat="45.66168" lon="6.5858">
        <ele>1721</ele>
        <time>2019-06-24T13:45:36Z</time>
      </trkpt>
      <trkpt lat="45.6617" lon="6.58579">
        <ele>1720.96</ele>
        <time>2019-06-24T13:45:38Z</time>
      </trkpt>
      <trkpt lat="45.66175" lon="6.58577">
        <ele>1720.83</ele>
        <time>2019-06-24T13:45:49Z</time>
      </trkpt>
      <trkpt lat="45.66181" lon="6.58575">
        <ele>1720.46</ele>
        <time>2019-06-24T13:46:02Z</time>
      </trkpt>
      <trkpt lat="45.66184" lon="6.58576">
        <ele>1720.14</ele>
        <time>2019-06-24T13:46:34Z</time>
      </trkpt>
      <trkpt lat="45.66187" lon="6.58578">
        <ele>1720.3</ele>
        <time>2019-06-24T13:46:54Z</time>
      </trkpt>
      <trkpt lat="45.66189" lon="6.5857">
        <ele>1720.03</ele>
        <time>2019-06-24T13:47:10Z</time>
      </trkpt>
      <trkpt lat="45.6618" lon="6.5857">
        <ele>1719.48</ele>
        <time>2019-06-24T13:47:29Z</time>
      </trkpt>
      <trkpt lat="45.66176" lon="6.58561">
        <ele>1719.81</ele>
        <time>2019-06-24T13:47:45Z</time>
      </trkpt>
      <trkpt lat="45.66176" lon="6.5857">
        <ele>1720.08</ele>
        <time>2019-06-24T13:48:06Z</time>
      </trkpt>
      <trkpt lat="45.66175" lon="6.58572">
        <ele>1719.75</ele>
        <time>2019-06-24T13:48:10Z</time>
      </trkpt>
      <trkpt lat="45.66171" lon="6.58573">
        <ele>1720.41</ele>
        <time>2019-06-24T13:48:25Z</time>
      </trkpt>
      <trkpt lat="45.66171" lon="6.58576">
        <ele>1719.74</ele>
        <time>2019-06-24T13:48:49Z</time>
      </trkpt>
      <trkpt lat="45.66175" lon="6.58584">
        <ele>1720.29</ele>
        <time>2019-06-24T13:49:02Z</time>
      </trkpt>
      <trkpt lat="45.66176" lon="6.58581">
        <ele>1720.11</ele>
        <time>2019-06-24T13:49:32Z</time>
      </trkpt>
      <trkpt lat="45.66173" lon="6.58574">
        <ele>1719.56</ele>
        <time>2019-06-24T13:49:49Z</time>
      </trkpt>
      <trkpt lat="45.66172" lon="6.58574">
        <ele>1719.57</ele>
        <time>2019-06-24T13:49:50Z</time>
      </trkpt>
      <trkpt lat="45.66156" lon="6.58584">
        <ele>1719.1</ele>
        <time>2019-06-24T13:50:07Z</time>
      </trkpt>
      <trkpt lat="45.66146" lon="6.58589">
        <ele>1718.36</ele>
        <time>2019-06-24T13:50:20Z</time>
      </trkpt>
      <trkpt lat="45.66142" lon="6.58591">
        <ele>1717.94</ele>
        <time>2019-06-24T13:50:24Z</time>
      </trkpt>
      <trkpt lat="45.66138" lon="6.58594">
        <ele>1717.58</ele>
        <time>2019-06-24T13:50:31Z</time>
      </trkpt>
      <trkpt lat="45.66135" lon="6.58603">
        <ele>1710.57</ele>
        <time>2019-06-24T13:50:45Z</time>
      </trkpt>
      <trkpt lat="45.66135" lon="6.58603">
        <ele>1719.42</ele>
        <time>2019-06-24T13:50:46Z</time>
      </trkpt>
      <trkpt lat="45.66135" lon="6.58604">
        <ele>1716.32</ele>
        <time>2019-06-24T13:50:47Z</time>
      </trkpt>
      <trkpt lat="45.66133" lon="6.58603">
        <ele>1716.79</ele>
        <time>2019-06-24T13:50:52Z</time>
      </trkpt>
      <trkpt lat="45.66132" lon="6.58603">
        <ele>1716.96</ele>
        <time>2019-06-24T13:50:53Z</time>
      </trkpt>
      <trkpt lat="45.66123" lon="6.58607">
        <ele>1716.24</ele>
        <time>2019-06-24T13:51:02Z</time>
      </trkpt>
      <trkpt lat="45.66109" lon="6.58589">
        <ele>1715.97</ele>
        <time>2019-06-24T13:51:20Z</time>
      </trkpt>
      <trkpt lat="45.66106" lon="6.58565">
        <ele>1716.11</ele>
        <time>2019-06-24T13:51:36Z</time>
      </trkpt>
      <trkpt lat="45.66105" lon="6.5855">
        <ele>1716.28</ele>
        <time>2019-06-24T13:51:46Z</time>
      </trkpt>
      <trkpt lat="45.66097" lon="6.58519">
        <ele>1715.29</ele>
        <time>2019-06-24T13:52:05Z</time>
      </trkpt>
      <trkpt lat="45.66091" lon="6.58516">
        <ele>1714.28</ele>
        <time>2019-06-24T13:52:10Z</time>
      </trkpt>
      <trkpt lat="45.66076" lon="6.5851">
        <ele>1712.37</ele>
        <time>2019-06-24T13:52:27Z</time>
      </trkpt>
      <trkpt lat="45.66074" lon="6.58507">
        <ele>1712.33</ele>
        <time>2019-06-24T13:52:30Z</time>
      </trkpt>
      <trkpt lat="45.6607" lon="6.58501">
        <ele>1711.92</ele>
        <time>2019-06-24T13:52:35Z</time>
      </trkpt>
      <trkpt lat="45.66056" lon="6.58493">
        <ele>1710.19</ele>
        <time>2019-06-24T13:52:49Z</time>
      </trkpt>
      <trkpt lat="45.66035" lon="6.58493">
        <ele>1709.83</ele>
        <time>2019-06-24T13:53:07Z</time>
      </trkpt>
      <trkpt lat="45.66014" lon="6.58486">
        <ele>1708.51</ele>
        <time>2019-06-24T13:53:24Z</time>
      </trkpt>
      <trkpt lat="45.66" lon="6.58465">
        <ele>1708.86</ele>
        <time>2019-06-24T13:53:42Z</time>
      </trkpt>
      <trkpt lat="45.65983" lon="6.58447">
        <ele>1707.49</ele>
        <time>2019-06-24T13:54:00Z</time>
      </trkpt>
      <trkpt lat="45.65958" lon="6.5844">
        <ele>1705.44</ele>
        <time>2019-06-24T13:54:22Z</time>
      </trkpt>
      <trkpt lat="45.65938" lon="6.58428">
        <ele>1704.71</ele>
        <time>2019-06-24T13:54:40Z</time>
      </trkpt>
      <trkpt lat="45.65922" lon="6.58411">
        <ele>1703.45</ele>
        <time>2019-06-24T13:54:59Z</time>
      </trkpt>
      <trkpt lat="45.65917" lon="6.58407">
        <ele>1702.72</ele>
        <time>2019-06-24T13:55:04Z</time>
      </trkpt>
      <trkpt lat="45.65895" lon="6.58405">
        <ele>1699.49</ele>
        <time>2019-06-24T13:55:23Z</time>
      </trkpt>
      <trkpt lat="45.65873" lon="6.58403">
        <ele>1697.01</ele>
        <time>2019-06-24T13:55:41Z</time>
      </trkpt>
      <trkpt lat="45.65861" lon="6.58398">
        <ele>1695.95</ele>
        <time>2019-06-24T13:55:56Z</time>
      </trkpt>
      <trkpt lat="45.65846" lon="6.58391">
        <ele>1694.56</ele>
        <time>2019-06-24T13:56:11Z</time>
      </trkpt>
      <trkpt lat="45.65841" lon="6.5839">
        <ele>1693.85</ele>
        <time>2019-06-24T13:56:15Z</time>
      </trkpt>
      <trkpt lat="45.65819" lon="6.58388">
        <ele>1691.77</ele>
        <time>2019-06-24T13:56:34Z</time>
      </trkpt>
      <trkpt lat="45.65795" lon="6.58391">
        <ele>1689.18</ele>
        <time>2019-06-24T13:56:54Z</time>
      </trkpt>
      <trkpt lat="45.65789" lon="6.58393">
        <ele>1688.74</ele>
        <time>2019-06-24T13:57:02Z</time>
      </trkpt>
      <trkpt lat="45.65785" lon="6.58393">
        <ele>1688.53</ele>
        <time>2019-06-24T13:57:06Z</time>
      </trkpt>
      <trkpt lat="45.65763" lon="6.58395">
        <ele>1687.55</ele>
        <time>2019-06-24T13:57:26Z</time>
      </trkpt>
      <trkpt lat="45.65754" lon="6.58395">
        <ele>1687.18</ele>
        <time>2019-06-24T13:57:43Z</time>
      </trkpt>
      <trkpt lat="45.65737" lon="6.58395">
        <ele>1686.09</ele>
        <time>2019-06-24T13:57:58Z</time>
      </trkpt>
      <trkpt lat="45.65717" lon="6.58402">
        <ele>1684.86</ele>
        <time>2019-06-24T13:58:15Z</time>
      </trkpt>
      <trkpt lat="45.65694" lon="6.58409">
        <ele>1684.07</ele>
        <time>2019-06-24T13:58:35Z</time>
      </trkpt>
      <trkpt lat="45.65672" lon="6.58412">
        <ele>1683.95</ele>
        <time>2019-06-24T13:58:53Z</time>
      </trkpt>
      <trkpt lat="45.65647" lon="6.58395">
        <ele>1684.35</ele>
        <time>2019-06-24T13:59:15Z</time>
      </trkpt>
      <trkpt lat="45.65627" lon="6.58394">
        <ele>1683.42</ele>
        <time>2019-06-24T13:59:33Z</time>
      </trkpt>
      <trkpt lat="45.65602" lon="6.58405">
        <ele>1683.19</ele>
        <time>2019-06-24T13:59:53Z</time>
      </trkpt>
      <trkpt lat="45.65582" lon="6.58412">
        <ele>1685.1</ele>
        <time>2019-06-24T14:00:11Z</time>
      </trkpt>
      <trkpt lat="45.65555" lon="6.58409">
        <ele>1684.21</ele>
        <time>2019-06-24T14:00:32Z</time>
      </trkpt>
      <trkpt lat="45.65535" lon="6.58401">
        <ele>1683.35</ele>
        <time>2019-06-24T14:00:49Z</time>
      </trkpt>
      <trkpt lat="45.6552" lon="6.58393">
        <ele>1683.45</ele>
        <time>2019-06-24T14:01:03Z</time>
      </trkpt>
      <trkpt lat="45.65505" lon="6.58386">
        <ele>1683.77</ele>
        <time>2019-06-24T14:01:17Z</time>
      </trkpt>
      <trkpt lat="45.65496" lon="6.58387">
        <ele>1683.4</ele>
        <time>2019-06-24T14:01:26Z</time>
      </trkpt>
      <trkpt lat="45.6548" lon="6.58387">
        <ele>1682.71</ele>
        <time>2019-06-24T14:01:40Z</time>
      </trkpt>
      <trkpt lat="45.65475" lon="6.58387">
        <ele>1682.24</ele>
        <time>2019-06-24T14:01:44Z</time>
      </trkpt>
      <trkpt lat="45.65469" lon="6.58381">
        <ele>1681.64</ele>
        <time>2019-06-24T14:01:57Z</time>
      </trkpt>
      <trkpt lat="45.65467" lon="6.58381">
        <ele>1681.07</ele>
        <time>2019-06-24T14:02:14Z</time>
      </trkpt>
      <trkpt lat="45.65449" lon="6.58371">
        <ele>1678.91</ele>
        <time>2019-06-24T14:02:31Z</time>
      </trkpt>
      <trkpt lat="45.65444" lon="6.58367">
        <ele>1677.96</ele>
        <time>2019-06-24T14:02:36Z</time>
      </trkpt>
      <trkpt lat="45.65427" lon="6.58357">
        <ele>1676.48</ele>
        <time>2019-06-24T14:02:53Z</time>
      </trkpt>
      <trkpt lat="45.65423" lon="6.58348">
        <ele>1677.66</ele>
        <time>2019-06-24T14:03:09Z</time>
      </trkpt>
      <trkpt lat="45.6542" lon="6.58343">
        <ele>1678.46</ele>
        <time>2019-06-24T14:03:28Z</time>
      </trkpt>
      <trkpt lat="45.65409" lon="6.58338">
        <ele>1677.92</ele>
        <time>2019-06-24T14:03:45Z</time>
      </trkpt>
      <trkpt lat="45.65408" lon="6.58338">
        <ele>1678.12</ele>
        <time>2019-06-24T14:04:00Z</time>
      </trkpt>
      <trkpt lat="45.65408" lon="6.58336">
        <ele>1681.19</ele>
        <time>2019-06-24T14:04:19Z</time>
      </trkpt>
      <trkpt lat="45.65406" lon="6.58335">
        <ele>1679.21</ele>
        <time>2019-06-24T14:04:22Z</time>
      </trkpt>
      <trkpt lat="45.65401" lon="6.5833">
        <ele>1679.29</ele>
        <time>2019-06-24T14:04:32Z</time>
      </trkpt>
      <trkpt lat="45.65393" lon="6.58326">
        <ele>1678.94</ele>
        <time>2019-06-24T14:04:40Z</time>
      </trkpt>
      <trkpt lat="45.65387" lon="6.58324">
        <ele>1678.42</ele>
        <time>2019-06-24T14:04:47Z</time>
      </trkpt>
      <trkpt lat="45.65377" lon="6.58324">
        <ele>1676.84</ele>
        <time>2019-06-24T14:04:56Z</time>
      </trkpt>
      <trkpt lat="45.65365" lon="6.58327">
        <ele>1673.66</ele>
        <time>2019-06-24T14:05:10Z</time>
      </trkpt>
      <trkpt lat="45.65363" lon="6.58329">
        <ele>1672.79</ele>
        <time>2019-06-24T14:05:13Z</time>
      </trkpt>
      <trkpt lat="45.65354" lon="6.58338">
        <ele>1669.37</ele>
        <time>2019-06-24T14:05:25Z</time>
      </trkpt>
      <trkpt lat="45.6535" lon="6.58342">
        <ele>1667.53</ele>
        <time>2019-06-24T14:05:41Z</time>
      </trkpt>
      <trkpt lat="45.6535" lon="6.58345">
        <ele>1666.97</ele>
        <time>2019-06-24T14:06:06Z</time>
      </trkpt>
      <trkpt lat="45.65348" lon="6.58345">
        <ele>1667.06</ele>
        <time>2019-06-24T14:06:10Z</time>
      </trkpt>
      <trkpt lat="45.65343" lon="6.58343">
        <ele>1666.53</ele>
        <time>2019-06-24T14:06:15Z</time>
      </trkpt>
      <trkpt lat="45.65337" lon="6.58339">
        <ele>1665.54</ele>
        <time>2019-06-24T14:06:31Z</time>
      </trkpt>
      <trkpt lat="45.65331" lon="6.58336">
        <ele>1664.68</ele>
        <time>2019-06-24T14:06:47Z</time>
      </trkpt>
      <trkpt lat="45.65326" lon="6.58334">
        <ele>1663.93</ele>
        <time>2019-06-24T14:06:52Z</time>
      </trkpt>
      <trkpt lat="45.65317" lon="6.58327">
        <ele>1663.03</ele>
        <time>2019-06-24T14:07:09Z</time>
      </trkpt>
      <trkpt lat="45.65313" lon="6.58326">
        <ele>1662.53</ele>
        <time>2019-06-24T14:07:13Z</time>
      </trkpt>
      <trkpt lat="45.65296" lon="6.58315">
        <ele>1660.33</ele>
        <time>2019-06-24T14:07:29Z</time>
      </trkpt>
      <trkpt lat="45.65281" lon="6.58302">
        <ele>1658.27</ele>
        <time>2019-06-24T14:07:44Z</time>
      </trkpt>
      <trkpt lat="45.6527" lon="6.58295">
        <ele>1657.22</ele>
        <time>2019-06-24T14:07:56Z</time>
      </trkpt>
      <trkpt lat="45.65264" lon="6.58289">
        <ele>1656.48</ele>
        <time>2019-06-24T14:08:02Z</time>
      </trkpt>
      <trkpt lat="45.65246" lon="6.58276">
        <ele>1654.84</ele>
        <time>2019-06-24T14:08:19Z</time>
      </trkpt>
      <trkpt lat="45.65232" lon="6.5825">
        <ele>1652.37</ele>
        <time>2019-06-24T14:08:37Z</time>
      </trkpt>
      <trkpt lat="45.65229" lon="6.58223">
        <ele>1650.08</ele>
        <time>2019-06-24T14:08:54Z</time>
      </trkpt>
      <trkpt lat="45.65228" lon="6.58194">
        <ele>1647.81</ele>
        <time>2019-06-24T14:09:12Z</time>
      </trkpt>
      <trkpt lat="45.65219" lon="6.5817">
        <ele>1646.28</ele>
        <time>2019-06-24T14:09:28Z</time>
      </trkpt>
      <trkpt lat="45.65213" lon="6.58153">
        <ele>1645.51</ele>
        <time>2019-06-24T14:09:41Z</time>
      </trkpt>
      <trkpt lat="45.6521" lon="6.58142">
        <ele>1644.7</ele>
        <time>2019-06-24T14:09:49Z</time>
      </trkpt>
      <trkpt lat="45.65199" lon="6.58126">
        <ele>1643.81</ele>
        <time>2019-06-24T14:10:03Z</time>
      </trkpt>
      <trkpt lat="45.65196" lon="6.58124">
        <ele>1643.67</ele>
        <time>2019-06-24T14:10:05Z</time>
      </trkpt>
      <trkpt lat="45.65192" lon="6.58127">
        <ele>1643.29</ele>
        <time>2019-06-24T14:10:10Z</time>
      </trkpt>
      <trkpt lat="45.65193" lon="6.58137">
        <ele>1642.69</ele>
        <time>2019-06-24T14:10:17Z</time>
      </trkpt>
      <trkpt lat="45.65197" lon="6.58152">
        <ele>1642.11</ele>
        <time>2019-06-24T14:10:27Z</time>
      </trkpt>
      <trkpt lat="45.65198" lon="6.58159">
        <ele>1641.42</ele>
        <time>2019-06-24T14:10:31Z</time>
      </trkpt>
      <trkpt lat="45.65201" lon="6.58166">
        <ele>1640.93</ele>
        <time>2019-06-24T14:10:36Z</time>
      </trkpt>
      <trkpt lat="45.65203" lon="6.58174">
        <ele>1640.3</ele>
        <time>2019-06-24T14:10:41Z</time>
      </trkpt>
      <trkpt lat="45.65205" lon="6.58182">
        <ele>1639.72</ele>
        <time>2019-06-24T14:10:45Z</time>
      </trkpt>
      <trkpt lat="45.65209" lon="6.58199">
        <ele>1638.63</ele>
        <time>2019-06-24T14:10:55Z</time>
      </trkpt>
      <trkpt lat="45.65209" lon="6.58205">
        <ele>1638.33</ele>
        <time>2019-06-24T14:10:59Z</time>
      </trkpt>
      <trkpt lat="45.6521" lon="6.58234">
        <ele>1636.29</ele>
        <time>2019-06-24T14:11:17Z</time>
      </trkpt>
      <trkpt lat="45.65206" lon="6.58259">
        <ele>1634.46</ele>
        <time>2019-06-24T14:11:32Z</time>
      </trkpt>
      <trkpt lat="45.65204" lon="6.58284">
        <ele>1632.99</ele>
        <time>2019-06-24T14:11:45Z</time>
      </trkpt>
      <trkpt lat="45.65204" lon="6.58286">
        <ele>1632.74</ele>
        <time>2019-06-24T14:11:46Z</time>
      </trkpt>
      <trkpt lat="45.6521" lon="6.58305">
        <ele>1631.67</ele>
        <time>2019-06-24T14:11:58Z</time>
      </trkpt>
      <trkpt lat="45.6522" lon="6.58335">
        <ele>1628.86</ele>
        <time>2019-06-24T14:12:15Z</time>
      </trkpt>
      <trkpt lat="45.65219" lon="6.58353">
        <ele>1628.32</ele>
        <time>2019-06-24T14:12:25Z</time>
      </trkpt>
      <trkpt lat="45.65208" lon="6.58378">
        <ele>1626.3</ele>
        <time>2019-06-24T14:12:43Z</time>
      </trkpt>
      <trkpt lat="45.65197" lon="6.58397">
        <ele>1624.76</ele>
        <time>2019-06-24T14:12:57Z</time>
      </trkpt>
      <trkpt lat="45.65186" lon="6.58419">
        <ele>1623.32</ele>
        <time>2019-06-24T14:13:13Z</time>
      </trkpt>
      <trkpt lat="45.65169" lon="6.58435">
        <ele>1621.8</ele>
        <time>2019-06-24T14:13:29Z</time>
      </trkpt>
      <trkpt lat="45.65157" lon="6.58441">
        <ele>1621.66</ele>
        <time>2019-06-24T14:13:46Z</time>
      </trkpt>
      <trkpt lat="45.65155" lon="6.58446">
        <ele>1621.96</ele>
        <time>2019-06-24T14:14:08Z</time>
      </trkpt>
      <trkpt lat="45.65157" lon="6.58445">
        <ele>1621.79</ele>
        <time>2019-06-24T14:14:24Z</time>
      </trkpt>
      <trkpt lat="45.65157" lon="6.58443">
        <ele>1621.82</ele>
        <time>2019-06-24T14:14:25Z</time>
      </trkpt>
      <trkpt lat="45.65157" lon="6.58423">
        <ele>1620.29</ele>
        <time>2019-06-24T14:14:42Z</time>
      </trkpt>
      <trkpt lat="45.65157" lon="6.58421">
        <ele>1619.93</ele>
        <time>2019-06-24T14:15:04Z</time>
      </trkpt>
      <trkpt lat="45.65161" lon="6.58417">
        <ele>1619.51</ele>
        <time>2019-06-24T14:15:13Z</time>
      </trkpt>
      <trkpt lat="45.65167" lon="6.58396">
        <ele>1617.34</ele>
        <time>2019-06-24T14:15:27Z</time>
      </trkpt>
      <trkpt lat="45.6517" lon="6.58367">
        <ele>1615.18</ele>
        <time>2019-06-24T14:15:43Z</time>
      </trkpt>
      <trkpt lat="45.6517" lon="6.5836">
        <ele>1614.56</ele>
        <time>2019-06-24T14:15:47Z</time>
      </trkpt>
      <trkpt lat="45.65171" lon="6.58325">
        <ele>1612.58</ele>
        <time>2019-06-24T14:16:07Z</time>
      </trkpt>
      <trkpt lat="45.6517" lon="6.58323">
        <ele>1612.61</ele>
        <time>2019-06-24T14:16:08Z</time>
      </trkpt>
      <trkpt lat="45.65168" lon="6.58315">
        <ele>1612.14</ele>
        <time>2019-06-24T14:16:15Z</time>
      </trkpt>
      <trkpt lat="45.65165" lon="6.58302">
        <ele>1611.41</ele>
        <time>2019-06-24T14:16:23Z</time>
      </trkpt>
      <trkpt lat="45.65155" lon="6.58273">
        <ele>1609.81</ele>
        <time>2019-06-24T14:16:40Z</time>
      </trkpt>
      <trkpt lat="45.65152" lon="6.58246">
        <ele>1608.03</ele>
        <time>2019-06-24T14:16:56Z</time>
      </trkpt>
      <trkpt lat="45.65143" lon="6.58224">
        <ele>1606.36</ele>
        <time>2019-06-24T14:17:10Z</time>
      </trkpt>
      <trkpt lat="45.65141" lon="6.5822">
        <ele>1605.88</ele>
        <time>2019-06-24T14:17:13Z</time>
      </trkpt>
      <trkpt lat="45.65128" lon="6.58198">
        <ele>1604.15</ele>
        <time>2019-06-24T14:17:29Z</time>
      </trkpt>
      <trkpt lat="45.65128" lon="6.58194">
        <ele>1603.66</ele>
        <time>2019-06-24T14:17:43Z</time>
      </trkpt>
      <trkpt lat="45.65128" lon="6.58168">
        <ele>1602.19</ele>
        <time>2019-06-24T14:17:58Z</time>
      </trkpt>
      <trkpt lat="45.65128" lon="6.58161">
        <ele>1601.71</ele>
        <time>2019-06-24T14:18:02Z</time>
      </trkpt>
      <trkpt lat="45.65126" lon="6.58146">
        <ele>1600.63</ele>
        <time>2019-06-24T14:18:16Z</time>
      </trkpt>
      <trkpt lat="45.65134" lon="6.58143">
        <ele>1600.92</ele>
        <time>2019-06-24T14:18:34Z</time>
      </trkpt>
      <trkpt lat="45.65132" lon="6.58136">
        <ele>1600.3</ele>
        <time>2019-06-24T14:18:39Z</time>
      </trkpt>
      <trkpt lat="45.65132" lon="6.58132">
        <ele>1600.05</ele>
        <time>2019-06-24T14:18:41Z</time>
      </trkpt>
      <trkpt lat="45.6512" lon="6.58116">
        <ele>1596.88</ele>
        <time>2019-06-24T14:18:55Z</time>
      </trkpt>
      <trkpt lat="45.65117" lon="6.58123">
        <ele>1596.61</ele>
        <time>2019-06-24T14:19:07Z</time>
      </trkpt>
      <trkpt lat="45.65118" lon="6.58127">
        <ele>1595.46</ele>
        <time>2019-06-24T14:19:24Z</time>
      </trkpt>
      <trkpt lat="45.6512" lon="6.58127">
        <ele>1595.34</ele>
        <time>2019-06-24T14:19:52Z</time>
      </trkpt>
      <trkpt lat="45.65123" lon="6.58125">
        <ele>1594.88</ele>
        <time>2019-06-24T14:20:15Z</time>
      </trkpt>
      <trkpt lat="45.65123" lon="6.58126">
        <ele>1594.75</ele>
        <time>2019-06-24T14:21:15Z</time>
      </trkpt>
      <trkpt lat="45.65123" lon="6.58126">
        <ele>1593.95</ele>
        <time>2019-06-24T14:22:15Z</time>
      </trkpt>
      <trkpt lat="45.65122" lon="6.58125">
        <ele>1593.82</ele>
        <time>2019-06-24T14:23:01Z</time>
      </trkpt>
      <trkpt lat="45.65123" lon="6.58126">
        <ele>1593.36</ele>
        <time>2019-06-24T14:23:39Z</time>
      </trkpt>
      <trkpt lat="45.65122" lon="6.58126">
        <ele>1593.58</ele>
        <time>2019-06-24T14:23:58Z</time>
      </trkpt>
    </trkseg>
  </trk>
</gpx>